<?xml version="1.0" encoding="UTF-8" standalone="no" ?>
<gpx xmlns="http://www.topografix.com/GPX/1/1" xmlns:xsi="http://www.w3.org/2001/XMLSchema-instance" xsi:schemaLocation="http://www.topografix.com/GPX/1/1 http://www.topografix.com/GPX/1/1/gpx.xsd" version="1.1" creator="VisuGPX - https://www.visugpx.com">
  <metadata>
    <name>Cross Country mormoiron</name>
    <desc><![CDATA[Trace sympa cross country mormoiron
Merci a grasset et Pierre Arnaud pour le guidage ! ]]></desc>
  </metadata>
  <trk>
    <name><![CDATA[21 sept. 2019 09:34:47]]></name>
    <trkseg>
      <trkpt lat="44.06383" lon="5.18313">
        <ele>275.36</ele>
        <time>2019-09-21T07:34:48.000Z</time>
      </trkpt>
      <trkpt lat="44.06382" lon="5.183">
        <ele>275.08</ele>
        <time>2019-09-21T07:35:08.000Z</time>
      </trkpt>
      <trkpt lat="44.06378" lon="5.18288">
        <ele>274.99</ele>
        <time>2019-09-21T07:35:17.000Z</time>
      </trkpt>
      <trkpt lat="44.0638" lon="5.18276">
        <ele>274.59</ele>
        <time>2019-09-21T07:35:38.000Z</time>
      </trkpt>
      <trkpt lat="44.0637" lon="5.18268">
        <ele>274.27</ele>
        <time>2019-09-21T07:35:44.000Z</time>
      </trkpt>
      <trkpt lat="44.06357" lon="5.18265">
        <ele>273.7</ele>
        <time>2019-09-21T07:35:47.000Z</time>
      </trkpt>
      <trkpt lat="44.06343" lon="5.18263">
        <ele>272.35</ele>
        <time>2019-09-21T07:35:50.000Z</time>
      </trkpt>
      <trkpt lat="44.06331" lon="5.1826">
        <ele>271.71</ele>
        <time>2019-09-21T07:35:52.999Z</time>
      </trkpt>
      <trkpt lat="44.06318" lon="5.18257">
        <ele>270.34</ele>
        <time>2019-09-21T07:35:55.999Z</time>
      </trkpt>
      <trkpt lat="44.06308" lon="5.18256">
        <ele>269.95</ele>
        <time>2019-09-21T07:35:57.999Z</time>
      </trkpt>
      <trkpt lat="44.06296" lon="5.18254">
        <ele>269.15</ele>
        <time>2019-09-21T07:36:00.999Z</time>
      </trkpt>
      <trkpt lat="44.06288" lon="5.18253">
        <ele>268.78</ele>
        <time>2019-09-21T07:36:02.999Z</time>
      </trkpt>
      <trkpt lat="44.06278" lon="5.18251">
        <ele>268.56</ele>
        <time>2019-09-21T07:36:04.999Z</time>
      </trkpt>
      <trkpt lat="44.06268" lon="5.18252">
        <ele>268.37</ele>
        <time>2019-09-21T07:36:06.999Z</time>
      </trkpt>
      <trkpt lat="44.06257" lon="5.18251">
        <ele>268.07</ele>
        <time>2019-09-21T07:36:08.999Z</time>
      </trkpt>
      <trkpt lat="44.06243" lon="5.18251">
        <ele>267.74</ele>
        <time>2019-09-21T07:36:10.999Z</time>
      </trkpt>
      <trkpt lat="44.06231" lon="5.18251">
        <ele>267.29</ele>
        <time>2019-09-21T07:36:12.999Z</time>
      </trkpt>
      <trkpt lat="44.06219" lon="5.18251">
        <ele>266.66</ele>
        <time>2019-09-21T07:36:14.999Z</time>
      </trkpt>
      <trkpt lat="44.06205" lon="5.18249">
        <ele>266.16</ele>
        <time>2019-09-21T07:36:16.999Z</time>
      </trkpt>
      <trkpt lat="44.0619" lon="5.1825">
        <ele>265.73</ele>
        <time>2019-09-21T07:36:18.999Z</time>
      </trkpt>
      <trkpt lat="44.06178" lon="5.18255">
        <ele>265.06</ele>
        <time>2019-09-21T07:36:20.999Z</time>
      </trkpt>
      <trkpt lat="44.06167" lon="5.1826">
        <ele>263.41</ele>
        <time>2019-09-21T07:36:23.999Z</time>
      </trkpt>
      <trkpt lat="44.0616" lon="5.18268">
        <ele>261.99</ele>
        <time>2019-09-21T07:36:25.999Z</time>
      </trkpt>
      <trkpt lat="44.06151" lon="5.18283">
        <ele>260.83</ele>
        <time>2019-09-21T07:36:27.999Z</time>
      </trkpt>
      <trkpt lat="44.06145" lon="5.18297">
        <ele>259.96</ele>
        <time>2019-09-21T07:36:29.999Z</time>
      </trkpt>
      <trkpt lat="44.06143" lon="5.18309">
        <ele>259.21</ele>
        <time>2019-09-21T07:36:31.999Z</time>
      </trkpt>
      <trkpt lat="44.06141" lon="5.18326">
        <ele>257.89</ele>
        <time>2019-09-21T07:36:34.999Z</time>
      </trkpt>
      <trkpt lat="44.06141" lon="5.18341">
        <ele>256.83</ele>
        <time>2019-09-21T07:36:36.999Z</time>
      </trkpt>
      <trkpt lat="44.06139" lon="5.18357">
        <ele>256.28</ele>
        <time>2019-09-21T07:36:39.999Z</time>
      </trkpt>
      <trkpt lat="44.06136" lon="5.18371">
        <ele>256.15</ele>
        <time>2019-09-21T07:36:43.999Z</time>
      </trkpt>
      <trkpt lat="44.06143" lon="5.18383">
        <ele>255.79</ele>
        <time>2019-09-21T07:36:49.999Z</time>
      </trkpt>
      <trkpt lat="44.06152" lon="5.1839">
        <ele>255.47</ele>
        <time>2019-09-21T07:36:53.999Z</time>
      </trkpt>
      <trkpt lat="44.06162" lon="5.18397">
        <ele>255.12</ele>
        <time>2019-09-21T07:36:57.999Z</time>
      </trkpt>
      <trkpt lat="44.06172" lon="5.18405">
        <ele>254.7</ele>
        <time>2019-09-21T07:37:02.999Z</time>
      </trkpt>
      <trkpt lat="44.0618" lon="5.18416">
        <ele>254.39</ele>
        <time>2019-09-21T07:37:06.999Z</time>
      </trkpt>
      <trkpt lat="44.06186" lon="5.18427">
        <ele>254.11</ele>
        <time>2019-09-21T07:37:10.999Z</time>
      </trkpt>
      <trkpt lat="44.06196" lon="5.1843">
        <ele>253.88</ele>
        <time>2019-09-21T07:37:14.999Z</time>
      </trkpt>
      <trkpt lat="44.06207" lon="5.18434">
        <ele>253.69</ele>
        <time>2019-09-21T07:37:18.999Z</time>
      </trkpt>
      <trkpt lat="44.06216" lon="5.18439">
        <ele>253.49</ele>
        <time>2019-09-21T07:37:23.999Z</time>
      </trkpt>
      <trkpt lat="44.06225" lon="5.18443">
        <ele>253.38</ele>
        <time>2019-09-21T07:37:27.999Z</time>
      </trkpt>
      <trkpt lat="44.06232" lon="5.18454">
        <ele>253.3</ele>
        <time>2019-09-21T07:37:31.999Z</time>
      </trkpt>
      <trkpt lat="44.0624" lon="5.18464">
        <ele>253.21</ele>
        <time>2019-09-21T07:37:36.999Z</time>
      </trkpt>
      <trkpt lat="44.06246" lon="5.18477">
        <ele>253</ele>
        <time>2019-09-21T07:38:25.999Z</time>
      </trkpt>
      <trkpt lat="44.06246" lon="5.18491">
        <ele>253.05</ele>
        <time>2019-09-21T07:38:29.999Z</time>
      </trkpt>
      <trkpt lat="44.06235" lon="5.18497">
        <ele>253.08</ele>
        <time>2019-09-21T07:38:32.999Z</time>
      </trkpt>
      <trkpt lat="44.06226" lon="5.18502">
        <ele>253.11</ele>
        <time>2019-09-21T07:38:35.999Z</time>
      </trkpt>
      <trkpt lat="44.06216" lon="5.18506">
        <ele>253.12</ele>
        <time>2019-09-21T07:38:39.999Z</time>
      </trkpt>
      <trkpt lat="44.06207" lon="5.18512">
        <ele>253.12</ele>
        <time>2019-09-21T07:38:43.999Z</time>
      </trkpt>
      <trkpt lat="44.06198" lon="5.18517">
        <ele>253.12</ele>
        <time>2019-09-21T07:38:47.999Z</time>
      </trkpt>
      <trkpt lat="44.0619" lon="5.18523">
        <ele>253.12</ele>
        <time>2019-09-21T07:38:51.999Z</time>
      </trkpt>
      <trkpt lat="44.06181" lon="5.18528">
        <ele>253.13</ele>
        <time>2019-09-21T07:38:55.999Z</time>
      </trkpt>
      <trkpt lat="44.06172" lon="5.18534">
        <ele>253.13</ele>
        <time>2019-09-21T07:38:59.999Z</time>
      </trkpt>
      <trkpt lat="44.06164" lon="5.18539">
        <ele>253.14</ele>
        <time>2019-09-21T07:39:03.999Z</time>
      </trkpt>
      <trkpt lat="44.06154" lon="5.18544">
        <ele>253.16</ele>
        <time>2019-09-21T07:39:08.999Z</time>
      </trkpt>
      <trkpt lat="44.06148" lon="5.18554">
        <ele>253.15</ele>
        <time>2019-09-21T07:39:13.999Z</time>
      </trkpt>
      <trkpt lat="44.06143" lon="5.18566">
        <ele>253.08</ele>
        <time>2019-09-21T07:39:20.999Z</time>
      </trkpt>
      <trkpt lat="44.06139" lon="5.18581">
        <ele>253.02</ele>
        <time>2019-09-21T07:39:24.999Z</time>
      </trkpt>
      <trkpt lat="44.06135" lon="5.18595">
        <ele>252.98</ele>
        <time>2019-09-21T07:39:27.999Z</time>
      </trkpt>
      <trkpt lat="44.06132" lon="5.18609">
        <ele>252.93</ele>
        <time>2019-09-21T07:39:30.999Z</time>
      </trkpt>
      <trkpt lat="44.06129" lon="5.18625">
        <ele>252.88</ele>
        <time>2019-09-21T07:39:34.999Z</time>
      </trkpt>
      <trkpt lat="44.06126" lon="5.1864">
        <ele>252.85</ele>
        <time>2019-09-21T07:39:38.999Z</time>
      </trkpt>
      <trkpt lat="44.06124" lon="5.18656">
        <ele>252.82</ele>
        <time>2019-09-21T07:39:42.999Z</time>
      </trkpt>
      <trkpt lat="44.06121" lon="5.18671">
        <ele>252.79</ele>
        <time>2019-09-21T07:39:46.999Z</time>
      </trkpt>
      <trkpt lat="44.06118" lon="5.18684">
        <ele>252.78</ele>
        <time>2019-09-21T07:39:49.999Z</time>
      </trkpt>
      <trkpt lat="44.06114" lon="5.187">
        <ele>252.78</ele>
        <time>2019-09-21T07:39:52.999Z</time>
      </trkpt>
      <trkpt lat="44.06112" lon="5.18715">
        <ele>252.77</ele>
        <time>2019-09-21T07:39:55.999Z</time>
      </trkpt>
      <trkpt lat="44.06109" lon="5.18729">
        <ele>252.78</ele>
        <time>2019-09-21T07:39:58.999Z</time>
      </trkpt>
      <trkpt lat="44.06106" lon="5.18744">
        <ele>252.79</ele>
        <time>2019-09-21T07:40:01.999Z</time>
      </trkpt>
      <trkpt lat="44.06104" lon="5.18757">
        <ele>252.8</ele>
        <time>2019-09-21T07:40:04.999Z</time>
      </trkpt>
      <trkpt lat="44.06102" lon="5.18769">
        <ele>252.82</ele>
        <time>2019-09-21T07:40:07.999Z</time>
      </trkpt>
      <trkpt lat="44.06099" lon="5.18785">
        <ele>252.85</ele>
        <time>2019-09-21T07:40:11.999Z</time>
      </trkpt>
      <trkpt lat="44.06092" lon="5.18795">
        <ele>252.88</ele>
        <time>2019-09-21T07:40:15.999Z</time>
      </trkpt>
      <trkpt lat="44.06093" lon="5.18808">
        <ele>252.92</ele>
        <time>2019-09-21T07:40:20.999Z</time>
      </trkpt>
      <trkpt lat="44.061" lon="5.18816">
        <ele>252.96</ele>
        <time>2019-09-21T07:40:23.999Z</time>
      </trkpt>
      <trkpt lat="44.06108" lon="5.18825">
        <ele>253.04</ele>
        <time>2019-09-21T07:40:28.999Z</time>
      </trkpt>
      <trkpt lat="44.06116" lon="5.18837">
        <ele>253.15</ele>
        <time>2019-09-21T07:40:33.999Z</time>
      </trkpt>
      <trkpt lat="44.06124" lon="5.18849">
        <ele>253.29</ele>
        <time>2019-09-21T07:40:38.999Z</time>
      </trkpt>
      <trkpt lat="44.06132" lon="5.18859">
        <ele>253.38</ele>
        <time>2019-09-21T07:40:41.999Z</time>
      </trkpt>
      <trkpt lat="44.0614" lon="5.18869">
        <ele>253.52</ele>
        <time>2019-09-21T07:40:45.999Z</time>
      </trkpt>
      <trkpt lat="44.06145" lon="5.18879">
        <ele>253.66</ele>
        <time>2019-09-21T07:40:49.999Z</time>
      </trkpt>
      <trkpt lat="44.06145" lon="5.18893">
        <ele>253.83</ele>
        <time>2019-09-21T07:40:54.999Z</time>
      </trkpt>
      <trkpt lat="44.06147" lon="5.18906">
        <ele>253.98</ele>
        <time>2019-09-21T07:40:58.999Z</time>
      </trkpt>
      <trkpt lat="44.06147" lon="5.18918">
        <ele>254.13</ele>
        <time>2019-09-21T07:41:02.999Z</time>
      </trkpt>
      <trkpt lat="44.06148" lon="5.18933">
        <ele>254.33</ele>
        <time>2019-09-21T07:41:07.999Z</time>
      </trkpt>
      <trkpt lat="44.06147" lon="5.18948">
        <ele>254.5</ele>
        <time>2019-09-21T07:41:11.999Z</time>
      </trkpt>
      <trkpt lat="44.06147" lon="5.1896">
        <ele>254.67</ele>
        <time>2019-09-21T07:41:15.999Z</time>
      </trkpt>
      <trkpt lat="44.06148" lon="5.18976">
        <ele>254.9</ele>
        <time>2019-09-21T07:41:20.999Z</time>
      </trkpt>
      <trkpt lat="44.06149" lon="5.18989">
        <ele>255.08</ele>
        <time>2019-09-21T07:41:24.999Z</time>
      </trkpt>
      <trkpt lat="44.06151" lon="5.19004">
        <ele>255.25</ele>
        <time>2019-09-21T07:41:28.999Z</time>
      </trkpt>
      <trkpt lat="44.06153" lon="5.19017">
        <ele>255.51</ele>
        <time>2019-09-21T07:41:34.999Z</time>
      </trkpt>
      <trkpt lat="44.06157" lon="5.19031">
        <ele>255.73</ele>
        <time>2019-09-21T07:41:39.999Z</time>
      </trkpt>
      <trkpt lat="44.06163" lon="5.19042">
        <ele>255.93</ele>
        <time>2019-09-21T07:41:43.999Z</time>
      </trkpt>
      <trkpt lat="44.06171" lon="5.1905">
        <ele>256.08</ele>
        <time>2019-09-21T07:41:46.999Z</time>
      </trkpt>
      <trkpt lat="44.06178" lon="5.19058">
        <ele>256.26</ele>
        <time>2019-09-21T07:41:50.999Z</time>
      </trkpt>
      <trkpt lat="44.06185" lon="5.1907">
        <ele>256.63</ele>
        <time>2019-09-21T07:41:58.999Z</time>
      </trkpt>
      <trkpt lat="44.06193" lon="5.1908">
        <ele>256.9</ele>
        <time>2019-09-21T07:42:04.999Z</time>
      </trkpt>
      <trkpt lat="44.062" lon="5.1909">
        <ele>257.13</ele>
        <time>2019-09-21T07:42:09.999Z</time>
      </trkpt>
      <trkpt lat="44.06207" lon="5.19098">
        <ele>257.31</ele>
        <time>2019-09-21T07:42:13.999Z</time>
      </trkpt>
      <trkpt lat="44.06214" lon="5.19107">
        <ele>257.49</ele>
        <time>2019-09-21T07:42:17.999Z</time>
      </trkpt>
      <trkpt lat="44.06222" lon="5.19118">
        <ele>257.71</ele>
        <time>2019-09-21T07:42:22.999Z</time>
      </trkpt>
      <trkpt lat="44.06231" lon="5.19128">
        <ele>257.98</ele>
        <time>2019-09-21T07:42:28.999Z</time>
      </trkpt>
      <trkpt lat="44.0624" lon="5.19137">
        <ele>258.2</ele>
        <time>2019-09-21T07:42:33.999Z</time>
      </trkpt>
      <trkpt lat="44.06248" lon="5.19145">
        <ele>258.42</ele>
        <time>2019-09-21T07:42:38.999Z</time>
      </trkpt>
      <trkpt lat="44.06257" lon="5.19153">
        <ele>258.6</ele>
        <time>2019-09-21T07:42:42.999Z</time>
      </trkpt>
      <trkpt lat="44.06267" lon="5.19158">
        <ele>258.78</ele>
        <time>2019-09-21T07:42:46.999Z</time>
      </trkpt>
      <trkpt lat="44.06279" lon="5.19159">
        <ele>258.96</ele>
        <time>2019-09-21T07:42:50.999Z</time>
      </trkpt>
      <trkpt lat="44.06289" lon="5.19159">
        <ele>259.1</ele>
        <time>2019-09-21T07:42:53.999Z</time>
      </trkpt>
      <trkpt lat="44.063" lon="5.19159">
        <ele>259.27</ele>
        <time>2019-09-21T07:42:57.999Z</time>
      </trkpt>
      <trkpt lat="44.06309" lon="5.19159">
        <ele>259.39</ele>
        <time>2019-09-21T07:43:00.999Z</time>
      </trkpt>
      <trkpt lat="44.06318" lon="5.19157">
        <ele>259.51</ele>
        <time>2019-09-21T07:43:03.999Z</time>
      </trkpt>
      <trkpt lat="44.06328" lon="5.19152">
        <ele>259.67</ele>
        <time>2019-09-21T07:43:07.999Z</time>
      </trkpt>
      <trkpt lat="44.06336" lon="5.19149">
        <ele>259.81</ele>
        <time>2019-09-21T07:43:11.999Z</time>
      </trkpt>
      <trkpt lat="44.06346" lon="5.19146">
        <ele>259.95</ele>
        <time>2019-09-21T07:43:15.999Z</time>
      </trkpt>
      <trkpt lat="44.06356" lon="5.19144">
        <ele>260.12</ele>
        <time>2019-09-21T07:43:20.999Z</time>
      </trkpt>
      <trkpt lat="44.06366" lon="5.19143">
        <ele>260.25</ele>
        <time>2019-09-21T07:43:24.999Z</time>
      </trkpt>
      <trkpt lat="44.06376" lon="5.19142">
        <ele>260.42</ele>
        <time>2019-09-21T07:43:29.999Z</time>
      </trkpt>
      <trkpt lat="44.06387" lon="5.19143">
        <ele>260.58</ele>
        <time>2019-09-21T07:43:34.999Z</time>
      </trkpt>
      <trkpt lat="44.06396" lon="5.19143">
        <ele>260.7</ele>
        <time>2019-09-21T07:43:38.999Z</time>
      </trkpt>
      <trkpt lat="44.06406" lon="5.19145">
        <ele>260.82</ele>
        <time>2019-09-21T07:43:42.999Z</time>
      </trkpt>
      <trkpt lat="44.06416" lon="5.19147">
        <ele>260.93</ele>
        <time>2019-09-21T07:43:46.999Z</time>
      </trkpt>
      <trkpt lat="44.06425" lon="5.19151">
        <ele>261.06</ele>
        <time>2019-09-21T07:43:51.999Z</time>
      </trkpt>
      <trkpt lat="44.06434" lon="5.19158">
        <ele>261.14</ele>
        <time>2019-09-21T07:43:54.999Z</time>
      </trkpt>
      <trkpt lat="44.06433" lon="5.19172">
        <ele>261.43</ele>
        <time>2019-09-21T07:44:03.999Z</time>
      </trkpt>
      <trkpt lat="44.06432" lon="5.19187">
        <ele>261.6</ele>
        <time>2019-09-21T07:44:08.999Z</time>
      </trkpt>
      <trkpt lat="44.06438" lon="5.19198">
        <ele>261.74</ele>
        <time>2019-09-21T07:44:12.999Z</time>
      </trkpt>
      <trkpt lat="44.06445" lon="5.19208">
        <ele>261.87</ele>
        <time>2019-09-21T07:44:16.999Z</time>
      </trkpt>
      <trkpt lat="44.06454" lon="5.19216">
        <ele>262.03</ele>
        <time>2019-09-21T07:44:21.999Z</time>
      </trkpt>
      <trkpt lat="44.06461" lon="5.19227">
        <ele>262.19</ele>
        <time>2019-09-21T07:44:26.999Z</time>
      </trkpt>
      <trkpt lat="44.06468" lon="5.19235">
        <ele>262.4</ele>
        <time>2019-09-21T07:44:33.999Z</time>
      </trkpt>
      <trkpt lat="44.06476" lon="5.19242">
        <ele>262.83</ele>
        <time>2019-09-21T07:44:48.999Z</time>
      </trkpt>
      <trkpt lat="44.06483" lon="5.19254">
        <ele>262.96</ele>
        <time>2019-09-21T07:44:52.999Z</time>
      </trkpt>
      <trkpt lat="44.0649" lon="5.19262">
        <ele>263.08</ele>
        <time>2019-09-21T07:44:56.999Z</time>
      </trkpt>
      <trkpt lat="44.06499" lon="5.19273">
        <ele>263.25</ele>
        <time>2019-09-21T07:45:01.999Z</time>
      </trkpt>
      <trkpt lat="44.06506" lon="5.19279">
        <ele>263.38</ele>
        <time>2019-09-21T07:45:05.999Z</time>
      </trkpt>
      <trkpt lat="44.06514" lon="5.19289">
        <ele>263.59</ele>
        <time>2019-09-21T07:45:10.999Z</time>
      </trkpt>
      <trkpt lat="44.06524" lon="5.19297">
        <ele>263.83</ele>
        <time>2019-09-21T07:45:15.999Z</time>
      </trkpt>
      <trkpt lat="44.06534" lon="5.19304">
        <ele>264.16</ele>
        <time>2019-09-21T07:45:21.999Z</time>
      </trkpt>
      <trkpt lat="44.06544" lon="5.19306">
        <ele>264.44</ele>
        <time>2019-09-21T07:45:26.999Z</time>
      </trkpt>
      <trkpt lat="44.06553" lon="5.19308">
        <ele>264.65</ele>
        <time>2019-09-21T07:45:30.999Z</time>
      </trkpt>
      <trkpt lat="44.06562" lon="5.19311">
        <ele>264.92</ele>
        <time>2019-09-21T07:45:35.999Z</time>
      </trkpt>
      <trkpt lat="44.06572" lon="5.19313">
        <ele>265.19</ele>
        <time>2019-09-21T07:45:40.999Z</time>
      </trkpt>
      <trkpt lat="44.06582" lon="5.19316">
        <ele>265.47</ele>
        <time>2019-09-21T07:45:45.999Z</time>
      </trkpt>
      <trkpt lat="44.06589" lon="5.19305">
        <ele>266.11</ele>
        <time>2019-09-21T07:45:55.999Z</time>
      </trkpt>
      <trkpt lat="44.06593" lon="5.19288">
        <ele>266.26</ele>
        <time>2019-09-21T07:45:57.999Z</time>
      </trkpt>
      <trkpt lat="44.06599" lon="5.19279">
        <ele>266.49</ele>
        <time>2019-09-21T07:46:00.999Z</time>
      </trkpt>
      <trkpt lat="44.06608" lon="5.19278">
        <ele>266.82</ele>
        <time>2019-09-21T07:46:04.999Z</time>
      </trkpt>
      <trkpt lat="44.06619" lon="5.19277">
        <ele>267.06</ele>
        <time>2019-09-21T07:46:07.999Z</time>
      </trkpt>
      <trkpt lat="44.06628" lon="5.19276">
        <ele>268.69</ele>
        <time>2019-09-21T07:46:09.999Z</time>
      </trkpt>
      <trkpt lat="44.06637" lon="5.19273">
        <ele>269.99</ele>
        <time>2019-09-21T07:46:11.999Z</time>
      </trkpt>
      <trkpt lat="44.06648" lon="5.19267">
        <ele>271</ele>
        <time>2019-09-21T07:46:13.999Z</time>
      </trkpt>
      <trkpt lat="44.06659" lon="5.19261">
        <ele>271.88</ele>
        <time>2019-09-21T07:46:15.999Z</time>
      </trkpt>
      <trkpt lat="44.06669" lon="5.19257">
        <ele>272.61</ele>
        <time>2019-09-21T07:46:17.999Z</time>
      </trkpt>
      <trkpt lat="44.06679" lon="5.19254">
        <ele>273.23</ele>
        <time>2019-09-21T07:46:19.999Z</time>
      </trkpt>
      <trkpt lat="44.06691" lon="5.1925">
        <ele>273.84</ele>
        <time>2019-09-21T07:46:21.999Z</time>
      </trkpt>
      <trkpt lat="44.06703" lon="5.19241">
        <ele>274.37</ele>
        <time>2019-09-21T07:46:23.999Z</time>
      </trkpt>
      <trkpt lat="44.06717" lon="5.19234">
        <ele>274.98</ele>
        <time>2019-09-21T07:46:25.999Z</time>
      </trkpt>
      <trkpt lat="44.06731" lon="5.19233">
        <ele>275.57</ele>
        <time>2019-09-21T07:46:27.999Z</time>
      </trkpt>
      <trkpt lat="44.06744" lon="5.19235">
        <ele>276.1</ele>
        <time>2019-09-21T07:46:29.999Z</time>
      </trkpt>
      <trkpt lat="44.06752" lon="5.19242">
        <ele>276.35</ele>
        <time>2019-09-21T07:46:31.999Z</time>
      </trkpt>
      <trkpt lat="44.06762" lon="5.19246">
        <ele>276.58</ele>
        <time>2019-09-21T07:46:36.999Z</time>
      </trkpt>
      <trkpt lat="44.06768" lon="5.19256">
        <ele>277.04</ele>
        <time>2019-09-21T07:46:43.999Z</time>
      </trkpt>
      <trkpt lat="44.06775" lon="5.19266">
        <ele>277.62</ele>
        <time>2019-09-21T07:46:49.999Z</time>
      </trkpt>
      <trkpt lat="44.06784" lon="5.19265">
        <ele>278</ele>
        <time>2019-09-21T07:46:52.999Z</time>
      </trkpt>
      <trkpt lat="44.06793" lon="5.19261">
        <ele>278.4</ele>
        <time>2019-09-21T07:46:55.999Z</time>
      </trkpt>
      <trkpt lat="44.06801" lon="5.19268">
        <ele>279.19</ele>
        <time>2019-09-21T07:47:00.999Z</time>
      </trkpt>
      <trkpt lat="44.06802" lon="5.19281">
        <ele>281.46</ele>
        <time>2019-09-21T07:47:15.999Z</time>
      </trkpt>
      <trkpt lat="44.06799" lon="5.19293">
        <ele>288.1</ele>
        <time>2019-09-21T07:49:08.999Z</time>
      </trkpt>
      <trkpt lat="44.06796" lon="5.19306">
        <ele>290.03</ele>
        <time>2019-09-21T07:49:23.999Z</time>
      </trkpt>
      <trkpt lat="44.0679" lon="5.19316">
        <ele>291.29</ele>
        <time>2019-09-21T07:49:32.999Z</time>
      </trkpt>
      <trkpt lat="44.06782" lon="5.19322">
        <ele>291.67</ele>
        <time>2019-09-21T07:49:35.999Z</time>
      </trkpt>
      <trkpt lat="44.0677" lon="5.19327">
        <ele>292.49</ele>
        <time>2019-09-21T07:49:42.999Z</time>
      </trkpt>
      <trkpt lat="44.06768" lon="5.19342">
        <ele>293.13</ele>
        <time>2019-09-21T07:49:48.999Z</time>
      </trkpt>
      <trkpt lat="44.06772" lon="5.19355">
        <ele>293.6</ele>
        <time>2019-09-21T07:49:53.999Z</time>
      </trkpt>
      <trkpt lat="44.06779" lon="5.19365">
        <ele>293.86</ele>
        <time>2019-09-21T07:49:56.999Z</time>
      </trkpt>
      <trkpt lat="44.0679" lon="5.19371">
        <ele>294.2</ele>
        <time>2019-09-21T07:50:00.999Z</time>
      </trkpt>
      <trkpt lat="44.06796" lon="5.19381">
        <ele>294.51</ele>
        <time>2019-09-21T07:50:04.999Z</time>
      </trkpt>
      <trkpt lat="44.06797" lon="5.19395">
        <ele>294.95</ele>
        <time>2019-09-21T07:50:10.999Z</time>
      </trkpt>
      <trkpt lat="44.06789" lon="5.19401">
        <ele>295.46</ele>
        <time>2019-09-21T07:50:18.999Z</time>
      </trkpt>
      <trkpt lat="44.06781" lon="5.19412">
        <ele>295.74</ele>
        <time>2019-09-21T07:50:23.999Z</time>
      </trkpt>
      <trkpt lat="44.0678" lon="5.19425">
        <ele>296.01</ele>
        <time>2019-09-21T07:50:28.999Z</time>
      </trkpt>
      <trkpt lat="44.06778" lon="5.1944">
        <ele>296.39</ele>
        <time>2019-09-21T07:50:36.999Z</time>
      </trkpt>
      <trkpt lat="44.06778" lon="5.19453">
        <ele>296.83</ele>
        <time>2019-09-21T07:50:46.999Z</time>
      </trkpt>
      <trkpt lat="44.06785" lon="5.19462">
        <ele>297.32</ele>
        <time>2019-09-21T07:50:58.999Z</time>
      </trkpt>
      <trkpt lat="44.0679" lon="5.19472">
        <ele>297.54</ele>
        <time>2019-09-21T07:51:17.999Z</time>
      </trkpt>
      <trkpt lat="44.06797" lon="5.19481">
        <ele>298.73</ele>
        <time>2019-09-21T07:52:05.999Z</time>
      </trkpt>
      <trkpt lat="44.06798" lon="5.19494">
        <ele>299.23</ele>
        <time>2019-09-21T07:52:17.999Z</time>
      </trkpt>
      <trkpt lat="44.06798" lon="5.19506">
        <ele>299.46</ele>
        <time>2019-09-21T07:52:23.999Z</time>
      </trkpt>
      <trkpt lat="44.06808" lon="5.19508">
        <ele>299.61</ele>
        <time>2019-09-21T07:52:27.999Z</time>
      </trkpt>
      <trkpt lat="44.06815" lon="5.19518">
        <ele>299.85</ele>
        <time>2019-09-21T07:52:34.999Z</time>
      </trkpt>
      <trkpt lat="44.06821" lon="5.1953">
        <ele>299.96</ele>
        <time>2019-09-21T07:52:38.999Z</time>
      </trkpt>
      <trkpt lat="44.06828" lon="5.19541">
        <ele>300.07</ele>
        <time>2019-09-21T07:52:42.999Z</time>
      </trkpt>
      <trkpt lat="44.06837" lon="5.1955">
        <ele>300.16</ele>
        <time>2019-09-21T07:52:46.999Z</time>
      </trkpt>
      <trkpt lat="44.0684" lon="5.19562">
        <ele>300.26</ele>
        <time>2019-09-21T07:52:51.999Z</time>
      </trkpt>
      <trkpt lat="44.06838" lon="5.19578">
        <ele>300.34</ele>
        <time>2019-09-21T07:52:55.999Z</time>
      </trkpt>
      <trkpt lat="44.06837" lon="5.19594">
        <ele>300.4</ele>
        <time>2019-09-21T07:52:59.999Z</time>
      </trkpt>
      <trkpt lat="44.06836" lon="5.19607">
        <ele>300.43</ele>
        <time>2019-09-21T07:53:02.999Z</time>
      </trkpt>
      <trkpt lat="44.06834" lon="5.19619">
        <ele>300.47</ele>
        <time>2019-09-21T07:53:06.999Z</time>
      </trkpt>
      <trkpt lat="44.06838" lon="5.19631">
        <ele>300.51</ele>
        <time>2019-09-21T07:53:11.999Z</time>
      </trkpt>
      <trkpt lat="44.06842" lon="5.19646">
        <ele>300.53</ele>
        <time>2019-09-21T07:53:15.999Z</time>
      </trkpt>
      <trkpt lat="44.06851" lon="5.19662">
        <ele>300.57</ele>
        <time>2019-09-21T07:53:18.999Z</time>
      </trkpt>
      <trkpt lat="44.06859" lon="5.19673">
        <ele>300.57</ele>
        <time>2019-09-21T07:53:21.999Z</time>
      </trkpt>
      <trkpt lat="44.06869" lon="5.1968">
        <ele>300.56</ele>
        <time>2019-09-21T07:53:23.999Z</time>
      </trkpt>
      <trkpt lat="44.0688" lon="5.19687">
        <ele>300.56</ele>
        <time>2019-09-21T07:53:26.999Z</time>
      </trkpt>
      <trkpt lat="44.06889" lon="5.19692">
        <ele>300.55</ele>
        <time>2019-09-21T07:53:31.999Z</time>
      </trkpt>
      <trkpt lat="44.06898" lon="5.19694">
        <ele>300.46</ele>
        <time>2019-09-21T07:54:07.999Z</time>
      </trkpt>
      <trkpt lat="44.06906" lon="5.197">
        <ele>299.31</ele>
        <time>2019-09-21T07:56:07.000Z</time>
      </trkpt>
      <trkpt lat="44.06918" lon="5.19701">
        <ele>299.13</ele>
        <time>2019-09-21T07:56:12.000Z</time>
      </trkpt>
      <trkpt lat="44.06928" lon="5.19695">
        <ele>298.97</ele>
        <time>2019-09-21T07:56:17.000Z</time>
      </trkpt>
      <trkpt lat="44.06937" lon="5.19689">
        <ele>298.82</ele>
        <time>2019-09-21T07:56:22.000Z</time>
      </trkpt>
      <trkpt lat="44.06946" lon="5.19685">
        <ele>298.68</ele>
        <time>2019-09-21T07:56:27.000Z</time>
      </trkpt>
      <trkpt lat="44.06956" lon="5.19681">
        <ele>298.55</ele>
        <time>2019-09-21T07:56:32.000Z</time>
      </trkpt>
      <trkpt lat="44.06966" lon="5.19683">
        <ele>298.43</ele>
        <time>2019-09-21T07:56:37.000Z</time>
      </trkpt>
      <trkpt lat="44.06978" lon="5.19688">
        <ele>298.28</ele>
        <time>2019-09-21T07:56:44.000Z</time>
      </trkpt>
      <trkpt lat="44.06989" lon="5.19691">
        <ele>298.14</ele>
        <time>2019-09-21T07:56:50.000Z</time>
      </trkpt>
      <trkpt lat="44.06998" lon="5.19693">
        <ele>298.02</ele>
        <time>2019-09-21T07:56:56.000Z</time>
      </trkpt>
      <trkpt lat="44.07008" lon="5.19687">
        <ele>297.9</ele>
        <time>2019-09-21T07:57:02.000Z</time>
      </trkpt>
      <trkpt lat="44.07018" lon="5.19683">
        <ele>297.78</ele>
        <time>2019-09-21T07:57:09.000Z</time>
      </trkpt>
      <trkpt lat="44.07024" lon="5.19673">
        <ele>297.71</ele>
        <time>2019-09-21T07:57:14.000Z</time>
      </trkpt>
      <trkpt lat="44.07028" lon="5.19659">
        <ele>297.64</ele>
        <time>2019-09-21T07:57:20.000Z</time>
      </trkpt>
      <trkpt lat="44.0703" lon="5.1964">
        <ele>297.57</ele>
        <time>2019-09-21T07:57:26.000Z</time>
      </trkpt>
      <trkpt lat="44.07034" lon="5.19627">
        <ele>297.52</ele>
        <time>2019-09-21T07:57:30.000Z</time>
      </trkpt>
      <trkpt lat="44.07038" lon="5.19615">
        <ele>297.47</ele>
        <time>2019-09-21T07:57:34.000Z</time>
      </trkpt>
      <trkpt lat="44.07043" lon="5.19602">
        <ele>297.42</ele>
        <time>2019-09-21T07:57:39.000Z</time>
      </trkpt>
      <trkpt lat="44.07046" lon="5.19586">
        <ele>297.38</ele>
        <time>2019-09-21T07:57:43.000Z</time>
      </trkpt>
      <trkpt lat="44.07048" lon="5.19573">
        <ele>297.35</ele>
        <time>2019-09-21T07:57:46.000Z</time>
      </trkpt>
      <trkpt lat="44.0705" lon="5.1956">
        <ele>297.32</ele>
        <time>2019-09-21T07:57:49.000Z</time>
      </trkpt>
      <trkpt lat="44.07055" lon="5.19546">
        <ele>297.28</ele>
        <time>2019-09-21T07:57:53.000Z</time>
      </trkpt>
      <trkpt lat="44.07064" lon="5.19539">
        <ele>297.16</ele>
        <time>2019-09-21T07:57:59.000Z</time>
      </trkpt>
      <trkpt lat="44.07073" lon="5.1954">
        <ele>297.07</ele>
        <time>2019-09-21T07:58:04.000Z</time>
      </trkpt>
      <trkpt lat="44.07083" lon="5.19537">
        <ele>296.93</ele>
        <time>2019-09-21T07:58:11.000Z</time>
      </trkpt>
      <trkpt lat="44.07093" lon="5.19535">
        <ele>296.77</ele>
        <time>2019-09-21T07:58:20.000Z</time>
      </trkpt>
      <trkpt lat="44.07102" lon="5.19532">
        <ele>296.63</ele>
        <time>2019-09-21T07:58:29.000Z</time>
      </trkpt>
      <trkpt lat="44.07111" lon="5.1953">
        <ele>296.5</ele>
        <time>2019-09-21T07:58:39.000Z</time>
      </trkpt>
      <trkpt lat="44.0712" lon="5.19531">
        <ele>296.4</ele>
        <time>2019-09-21T07:58:48.000Z</time>
      </trkpt>
      <trkpt lat="44.0713" lon="5.1953">
        <ele>296.3</ele>
        <time>2019-09-21T07:58:58.000Z</time>
      </trkpt>
      <trkpt lat="44.07139" lon="5.19527">
        <ele>296.22</ele>
        <time>2019-09-21T07:59:09.000Z</time>
      </trkpt>
      <trkpt lat="44.07148" lon="5.19523">
        <ele>296.15</ele>
        <time>2019-09-21T07:59:18.000Z</time>
      </trkpt>
      <trkpt lat="44.07158" lon="5.19522">
        <ele>296.11</ele>
        <time>2019-09-21T07:59:26.000Z</time>
      </trkpt>
      <trkpt lat="44.07167" lon="5.19517">
        <ele>296.05</ele>
        <time>2019-09-21T07:59:39.000Z</time>
      </trkpt>
      <trkpt lat="44.07164" lon="5.19504">
        <ele>296.42</ele>
        <time>2019-09-21T08:01:48.000Z</time>
      </trkpt>
      <trkpt lat="44.07152" lon="5.19505">
        <ele>296.91</ele>
        <time>2019-09-21T08:02:23.000Z</time>
      </trkpt>
      <trkpt lat="44.07142" lon="5.19509">
        <ele>296.98</ele>
        <time>2019-09-21T08:02:26.000Z</time>
      </trkpt>
      <trkpt lat="44.07132" lon="5.19512">
        <ele>297.04</ele>
        <time>2019-09-21T08:02:29.000Z</time>
      </trkpt>
      <trkpt lat="44.07119" lon="5.19516">
        <ele>297.1</ele>
        <time>2019-09-21T08:02:32.000Z</time>
      </trkpt>
      <trkpt lat="44.07108" lon="5.1952">
        <ele>297.14</ele>
        <time>2019-09-21T08:02:35.000Z</time>
      </trkpt>
      <trkpt lat="44.07097" lon="5.19521">
        <ele>297.19</ele>
        <time>2019-09-21T08:02:38.000Z</time>
      </trkpt>
      <trkpt lat="44.07087" lon="5.19523">
        <ele>297.23</ele>
        <time>2019-09-21T08:02:41.000Z</time>
      </trkpt>
      <trkpt lat="44.07075" lon="5.19523">
        <ele>297.49</ele>
        <time>2019-09-21T08:02:44.000Z</time>
      </trkpt>
      <trkpt lat="44.07065" lon="5.19524">
        <ele>297.51</ele>
        <time>2019-09-21T08:02:47.000Z</time>
      </trkpt>
      <trkpt lat="44.07054" lon="5.19525">
        <ele>297.54</ele>
        <time>2019-09-21T08:02:51.000Z</time>
      </trkpt>
      <trkpt lat="44.07046" lon="5.19534">
        <ele>297.57</ele>
        <time>2019-09-21T08:03:04.000Z</time>
      </trkpt>
      <trkpt lat="44.07039" lon="5.19544">
        <ele>297.57</ele>
        <time>2019-09-21T08:03:10.000Z</time>
      </trkpt>
      <trkpt lat="44.07037" lon="5.19556">
        <ele>297.58</ele>
        <time>2019-09-21T08:03:14.000Z</time>
      </trkpt>
      <trkpt lat="44.07036" lon="5.19572">
        <ele>297.58</ele>
        <time>2019-09-21T08:03:18.000Z</time>
      </trkpt>
      <trkpt lat="44.07033" lon="5.19586">
        <ele>297.58</ele>
        <time>2019-09-21T08:03:22.000Z</time>
      </trkpt>
      <trkpt lat="44.0703" lon="5.19599">
        <ele>297.58</ele>
        <time>2019-09-21T08:03:26.000Z</time>
      </trkpt>
      <trkpt lat="44.07027" lon="5.19612">
        <ele>297.58</ele>
        <time>2019-09-21T08:03:30.000Z</time>
      </trkpt>
      <trkpt lat="44.07023" lon="5.19626">
        <ele>297.58</ele>
        <time>2019-09-21T08:03:34.000Z</time>
      </trkpt>
      <trkpt lat="44.07019" lon="5.19641">
        <ele>297.59</ele>
        <time>2019-09-21T08:03:38.000Z</time>
      </trkpt>
      <trkpt lat="44.07015" lon="5.19656">
        <ele>297.59</ele>
        <time>2019-09-21T08:03:42.000Z</time>
      </trkpt>
      <trkpt lat="44.07012" lon="5.19668">
        <ele>297.59</ele>
        <time>2019-09-21T08:03:46.000Z</time>
      </trkpt>
      <trkpt lat="44.07008" lon="5.1968">
        <ele>297.59</ele>
        <time>2019-09-21T08:03:50.000Z</time>
      </trkpt>
      <trkpt lat="44.07004" lon="5.19693">
        <ele>297.59</ele>
        <time>2019-09-21T08:03:54.000Z</time>
      </trkpt>
      <trkpt lat="44.07001" lon="5.19707">
        <ele>297.59</ele>
        <time>2019-09-21T08:03:58.000Z</time>
      </trkpt>
      <trkpt lat="44.06998" lon="5.19722">
        <ele>297.6</ele>
        <time>2019-09-21T08:04:02.000Z</time>
      </trkpt>
      <trkpt lat="44.06994" lon="5.19734">
        <ele>297.6</ele>
        <time>2019-09-21T08:04:06.000Z</time>
      </trkpt>
      <trkpt lat="44.06989" lon="5.19748">
        <ele>297.6</ele>
        <time>2019-09-21T08:04:10.000Z</time>
      </trkpt>
      <trkpt lat="44.06984" lon="5.19758">
        <ele>297.59</ele>
        <time>2019-09-21T08:04:13.000Z</time>
      </trkpt>
      <trkpt lat="44.06976" lon="5.19771">
        <ele>297.59</ele>
        <time>2019-09-21T08:04:17.000Z</time>
      </trkpt>
      <trkpt lat="44.06968" lon="5.19783">
        <ele>297.59</ele>
        <time>2019-09-21T08:04:20.000Z</time>
      </trkpt>
      <trkpt lat="44.06959" lon="5.19794">
        <ele>297.59</ele>
        <time>2019-09-21T08:04:23.000Z</time>
      </trkpt>
      <trkpt lat="44.0695" lon="5.19807">
        <ele>297.58</ele>
        <time>2019-09-21T08:04:26.000Z</time>
      </trkpt>
      <trkpt lat="44.0694" lon="5.19817">
        <ele>297.59</ele>
        <time>2019-09-21T08:04:29.000Z</time>
      </trkpt>
      <trkpt lat="44.06932" lon="5.19825">
        <ele>297.59</ele>
        <time>2019-09-21T08:04:32.000Z</time>
      </trkpt>
      <trkpt lat="44.06922" lon="5.19821">
        <ele>297.59</ele>
        <time>2019-09-21T08:04:39.000Z</time>
      </trkpt>
      <trkpt lat="44.06921" lon="5.19808">
        <ele>297.59</ele>
        <time>2019-09-21T08:04:43.000Z</time>
      </trkpt>
      <trkpt lat="44.06919" lon="5.19794">
        <ele>297.59</ele>
        <time>2019-09-21T08:04:47.000Z</time>
      </trkpt>
      <trkpt lat="44.0692" lon="5.1978">
        <ele>297.59</ele>
        <time>2019-09-21T08:04:50.000Z</time>
      </trkpt>
      <trkpt lat="44.06922" lon="5.19765">
        <ele>297.59</ele>
        <time>2019-09-21T08:04:53.000Z</time>
      </trkpt>
      <trkpt lat="44.06918" lon="5.19748">
        <ele>297.59</ele>
        <time>2019-09-21T08:04:56.000Z</time>
      </trkpt>
      <trkpt lat="44.06913" lon="5.19731">
        <ele>297.59</ele>
        <time>2019-09-21T08:04:59.000Z</time>
      </trkpt>
      <trkpt lat="44.06908" lon="5.19718">
        <ele>297.6</ele>
        <time>2019-09-21T08:05:02.000Z</time>
      </trkpt>
      <trkpt lat="44.06904" lon="5.19704">
        <ele>297.6</ele>
        <time>2019-09-21T08:05:05.000Z</time>
      </trkpt>
      <trkpt lat="44.06894" lon="5.19702">
        <ele>297.6</ele>
        <time>2019-09-21T08:05:10.000Z</time>
      </trkpt>
      <trkpt lat="44.06885" lon="5.19711">
        <ele>297.6</ele>
        <time>2019-09-21T08:05:14.000Z</time>
      </trkpt>
      <trkpt lat="44.06876" lon="5.19716">
        <ele>297.6</ele>
        <time>2019-09-21T08:05:18.000Z</time>
      </trkpt>
      <trkpt lat="44.06868" lon="5.19726">
        <ele>297.6</ele>
        <time>2019-09-21T08:05:23.000Z</time>
      </trkpt>
      <trkpt lat="44.06861" lon="5.19733">
        <ele>297.6</ele>
        <time>2019-09-21T08:05:27.000Z</time>
      </trkpt>
      <trkpt lat="44.06854" lon="5.19743">
        <ele>297.61</ele>
        <time>2019-09-21T08:05:31.000Z</time>
      </trkpt>
      <trkpt lat="44.06845" lon="5.19751">
        <ele>297.61</ele>
        <time>2019-09-21T08:05:36.000Z</time>
      </trkpt>
      <trkpt lat="44.06836" lon="5.19758">
        <ele>297.61</ele>
        <time>2019-09-21T08:05:42.000Z</time>
      </trkpt>
      <trkpt lat="44.06827" lon="5.19765">
        <ele>297.61</ele>
        <time>2019-09-21T08:05:47.000Z</time>
      </trkpt>
      <trkpt lat="44.06818" lon="5.19769">
        <ele>297.61</ele>
        <time>2019-09-21T08:05:51.000Z</time>
      </trkpt>
      <trkpt lat="44.06808" lon="5.19771">
        <ele>297.61</ele>
        <time>2019-09-21T08:05:56.000Z</time>
      </trkpt>
      <trkpt lat="44.068" lon="5.19778">
        <ele>297.61</ele>
        <time>2019-09-21T08:06:01.000Z</time>
      </trkpt>
      <trkpt lat="44.06793" lon="5.19787">
        <ele>297.61</ele>
        <time>2019-09-21T08:06:08.000Z</time>
      </trkpt>
      <trkpt lat="44.06783" lon="5.19792">
        <ele>297.61</ele>
        <time>2019-09-21T08:06:14.000Z</time>
      </trkpt>
      <trkpt lat="44.06777" lon="5.19802">
        <ele>297.62</ele>
        <time>2019-09-21T08:06:24.000Z</time>
      </trkpt>
      <trkpt lat="44.06775" lon="5.19814">
        <ele>297.62</ele>
        <time>2019-09-21T08:06:31.000Z</time>
      </trkpt>
      <trkpt lat="44.0677" lon="5.19827">
        <ele>297.61</ele>
        <time>2019-09-21T08:06:38.000Z</time>
      </trkpt>
      <trkpt lat="44.06762" lon="5.19837">
        <ele>297.6</ele>
        <time>2019-09-21T08:06:46.000Z</time>
      </trkpt>
      <trkpt lat="44.06753" lon="5.19843">
        <ele>297.59</ele>
        <time>2019-09-21T08:06:51.000Z</time>
      </trkpt>
      <trkpt lat="44.06746" lon="5.19853">
        <ele>297.58</ele>
        <time>2019-09-21T08:06:54.000Z</time>
      </trkpt>
      <trkpt lat="44.0674" lon="5.19864">
        <ele>297.57</ele>
        <time>2019-09-21T08:06:59.000Z</time>
      </trkpt>
      <trkpt lat="44.06732" lon="5.19876">
        <ele>297.56</ele>
        <time>2019-09-21T08:07:03.000Z</time>
      </trkpt>
      <trkpt lat="44.06724" lon="5.19885">
        <ele>297.55</ele>
        <time>2019-09-21T08:07:07.000Z</time>
      </trkpt>
      <trkpt lat="44.06716" lon="5.19896">
        <ele>297.54</ele>
        <time>2019-09-21T08:07:11.000Z</time>
      </trkpt>
      <trkpt lat="44.0671" lon="5.19906">
        <ele>297.53</ele>
        <time>2019-09-21T08:07:15.000Z</time>
      </trkpt>
      <trkpt lat="44.06705" lon="5.19918">
        <ele>297.51</ele>
        <time>2019-09-21T08:07:22.000Z</time>
      </trkpt>
      <trkpt lat="44.06702" lon="5.19931">
        <ele>297.5</ele>
        <time>2019-09-21T08:07:27.000Z</time>
      </trkpt>
      <trkpt lat="44.06695" lon="5.19941">
        <ele>297.49</ele>
        <time>2019-09-21T08:07:33.000Z</time>
      </trkpt>
      <trkpt lat="44.06687" lon="5.19951">
        <ele>297.49</ele>
        <time>2019-09-21T08:07:37.000Z</time>
      </trkpt>
      <trkpt lat="44.06679" lon="5.19956">
        <ele>297.48</ele>
        <time>2019-09-21T08:07:43.000Z</time>
      </trkpt>
      <trkpt lat="44.06669" lon="5.19952">
        <ele>297.49</ele>
        <time>2019-09-21T08:07:50.000Z</time>
      </trkpt>
      <trkpt lat="44.0666" lon="5.19947">
        <ele>297.5</ele>
        <time>2019-09-21T08:07:54.000Z</time>
      </trkpt>
      <trkpt lat="44.06651" lon="5.19944">
        <ele>297.51</ele>
        <time>2019-09-21T08:07:59.000Z</time>
      </trkpt>
      <trkpt lat="44.06642" lon="5.19947">
        <ele>297.54</ele>
        <time>2019-09-21T08:08:05.000Z</time>
      </trkpt>
      <trkpt lat="44.06632" lon="5.19952">
        <ele>297.57</ele>
        <time>2019-09-21T08:08:12.000Z</time>
      </trkpt>
      <trkpt lat="44.06622" lon="5.19954">
        <ele>297.58</ele>
        <time>2019-09-21T08:08:17.000Z</time>
      </trkpt>
      <trkpt lat="44.06614" lon="5.19962">
        <ele>297.6</ele>
        <time>2019-09-21T08:08:24.000Z</time>
      </trkpt>
      <trkpt lat="44.06605" lon="5.19965">
        <ele>297.62</ele>
        <time>2019-09-21T08:08:31.000Z</time>
      </trkpt>
      <trkpt lat="44.06598" lon="5.19973">
        <ele>297.67</ele>
        <time>2019-09-21T08:08:44.000Z</time>
      </trkpt>
      <trkpt lat="44.06589" lon="5.19974">
        <ele>297.69</ele>
        <time>2019-09-21T08:08:48.000Z</time>
      </trkpt>
      <trkpt lat="44.06582" lon="5.19988">
        <ele>297.7</ele>
        <time>2019-09-21T08:08:54.000Z</time>
      </trkpt>
      <trkpt lat="44.06578" lon="5.20002">
        <ele>297.73</ele>
        <time>2019-09-21T08:09:02.000Z</time>
      </trkpt>
      <trkpt lat="44.06576" lon="5.20014">
        <ele>297.77</ele>
        <time>2019-09-21T08:09:07.000Z</time>
      </trkpt>
      <trkpt lat="44.06572" lon="5.20026">
        <ele>297.83</ele>
        <time>2019-09-21T08:09:14.000Z</time>
      </trkpt>
      <trkpt lat="44.06567" lon="5.20037">
        <ele>297.99</ele>
        <time>2019-09-21T08:09:26.000Z</time>
      </trkpt>
      <trkpt lat="44.06569" lon="5.20051">
        <ele>298.18</ele>
        <time>2019-09-21T08:09:37.000Z</time>
      </trkpt>
      <trkpt lat="44.06564" lon="5.20061">
        <ele>298.42</ele>
        <time>2019-09-21T08:09:49.000Z</time>
      </trkpt>
      <trkpt lat="44.06563" lon="5.20075">
        <ele>298.6</ele>
        <time>2019-09-21T08:09:55.000Z</time>
      </trkpt>
      <trkpt lat="44.06558" lon="5.20087">
        <ele>298.76</ele>
        <time>2019-09-21T08:10:01.000Z</time>
      </trkpt>
      <trkpt lat="44.06556" lon="5.201">
        <ele>298.96</ele>
        <time>2019-09-21T08:10:08.000Z</time>
      </trkpt>
      <trkpt lat="44.06556" lon="5.20114">
        <ele>299.22</ele>
        <time>2019-09-21T08:10:16.000Z</time>
      </trkpt>
      <trkpt lat="44.06552" lon="5.20126">
        <ele>299.45</ele>
        <time>2019-09-21T08:10:22.000Z</time>
      </trkpt>
      <trkpt lat="44.06554" lon="5.20139">
        <ele>299.81</ele>
        <time>2019-09-21T08:10:29.000Z</time>
      </trkpt>
      <trkpt lat="44.06554" lon="5.20154">
        <ele>300.1</ele>
        <time>2019-09-21T08:10:35.000Z</time>
      </trkpt>
      <trkpt lat="44.06554" lon="5.20167">
        <ele>300.42</ele>
        <time>2019-09-21T08:10:41.000Z</time>
      </trkpt>
      <trkpt lat="44.06552" lon="5.2018">
        <ele>301.76</ele>
        <time>2019-09-21T08:11:36.000Z</time>
      </trkpt>
      <trkpt lat="44.0655" lon="5.20192">
        <ele>303.46</ele>
        <time>2019-09-21T08:12:18.000Z</time>
      </trkpt>
      <trkpt lat="44.06545" lon="5.20206">
        <ele>304.55</ele>
        <time>2019-09-21T08:12:26.000Z</time>
      </trkpt>
      <trkpt lat="44.06546" lon="5.2022">
        <ele>305.73</ele>
        <time>2019-09-21T08:12:34.000Z</time>
      </trkpt>
      <trkpt lat="44.06542" lon="5.20237">
        <ele>306.66</ele>
        <time>2019-09-21T08:12:40.000Z</time>
      </trkpt>
      <trkpt lat="44.06539" lon="5.20252">
        <ele>307.7</ele>
        <time>2019-09-21T08:12:47.000Z</time>
      </trkpt>
      <trkpt lat="44.06538" lon="5.20265">
        <ele>308.43</ele>
        <time>2019-09-21T08:12:52.000Z</time>
      </trkpt>
      <trkpt lat="44.06534" lon="5.20281">
        <ele>309.66</ele>
        <time>2019-09-21T08:13:01.000Z</time>
      </trkpt>
      <trkpt lat="44.06533" lon="5.20295">
        <ele>310.44</ele>
        <time>2019-09-21T08:13:07.000Z</time>
      </trkpt>
      <trkpt lat="44.06533" lon="5.20309">
        <ele>311.56</ele>
        <time>2019-09-21T08:13:16.000Z</time>
      </trkpt>
      <trkpt lat="44.06528" lon="5.2032">
        <ele>312.17</ele>
        <time>2019-09-21T08:13:21.000Z</time>
      </trkpt>
      <trkpt lat="44.06528" lon="5.20334">
        <ele>312.87</ele>
        <time>2019-09-21T08:13:27.000Z</time>
      </trkpt>
      <trkpt lat="44.06522" lon="5.20344">
        <ele>313.46</ele>
        <time>2019-09-21T08:13:32.000Z</time>
      </trkpt>
      <trkpt lat="44.0652" lon="5.20357">
        <ele>314.24</ele>
        <time>2019-09-21T08:13:39.000Z</time>
      </trkpt>
      <trkpt lat="44.06516" lon="5.20369">
        <ele>314.75</ele>
        <time>2019-09-21T08:13:44.000Z</time>
      </trkpt>
      <trkpt lat="44.0651" lon="5.2038">
        <ele>315.37</ele>
        <time>2019-09-21T08:13:50.000Z</time>
      </trkpt>
      <trkpt lat="44.06504" lon="5.20391">
        <ele>316.14</ele>
        <time>2019-09-21T08:13:57.000Z</time>
      </trkpt>
      <trkpt lat="44.06503" lon="5.20404">
        <ele>316.91</ele>
        <time>2019-09-21T08:14:04.000Z</time>
      </trkpt>
      <trkpt lat="44.06504" lon="5.20417">
        <ele>317.77</ele>
        <time>2019-09-21T08:14:12.000Z</time>
      </trkpt>
      <trkpt lat="44.06503" lon="5.2043">
        <ele>318.38</ele>
        <time>2019-09-21T08:14:18.000Z</time>
      </trkpt>
      <trkpt lat="44.06503" lon="5.20444">
        <ele>319.04</ele>
        <time>2019-09-21T08:14:25.000Z</time>
      </trkpt>
      <trkpt lat="44.06499" lon="5.20458">
        <ele>319.48</ele>
        <time>2019-09-21T08:14:30.000Z</time>
      </trkpt>
      <trkpt lat="44.06501" lon="5.2047">
        <ele>320.01</ele>
        <time>2019-09-21T08:14:36.000Z</time>
      </trkpt>
      <trkpt lat="44.06504" lon="5.20484">
        <ele>320.53</ele>
        <time>2019-09-21T08:14:42.000Z</time>
      </trkpt>
      <trkpt lat="44.06503" lon="5.20496">
        <ele>321.08</ele>
        <time>2019-09-21T08:14:48.000Z</time>
      </trkpt>
      <trkpt lat="44.06498" lon="5.20509">
        <ele>321.37</ele>
        <time>2019-09-21T08:14:51.000Z</time>
      </trkpt>
      <trkpt lat="44.06495" lon="5.20521">
        <ele>322.36</ele>
        <time>2019-09-21T08:14:57.000Z</time>
      </trkpt>
      <trkpt lat="44.06489" lon="5.20533">
        <ele>323.2</ele>
        <time>2019-09-21T08:15:01.000Z</time>
      </trkpt>
      <trkpt lat="44.06481" lon="5.20541">
        <ele>324.54</ele>
        <time>2019-09-21T08:15:06.000Z</time>
      </trkpt>
      <trkpt lat="44.06472" lon="5.20544">
        <ele>327.1</ele>
        <time>2019-09-21T08:15:14.000Z</time>
      </trkpt>
      <trkpt lat="44.06469" lon="5.20531">
        <ele>330.6</ele>
        <time>2019-09-21T08:15:27.000Z</time>
      </trkpt>
      <trkpt lat="44.06471" lon="5.20518">
        <ele>331.97</ele>
        <time>2019-09-21T08:15:32.999Z</time>
      </trkpt>
      <trkpt lat="44.06472" lon="5.20504">
        <ele>333.24</ele>
        <time>2019-09-21T08:15:38.999Z</time>
      </trkpt>
      <trkpt lat="44.06473" lon="5.20488">
        <ele>334.56</ele>
        <time>2019-09-21T08:15:45.999Z</time>
      </trkpt>
      <trkpt lat="44.06474" lon="5.20474">
        <ele>335.25</ele>
        <time>2019-09-21T08:15:49.999Z</time>
      </trkpt>
      <trkpt lat="44.06474" lon="5.2046">
        <ele>335.9</ele>
        <time>2019-09-21T08:15:53.999Z</time>
      </trkpt>
      <trkpt lat="44.06474" lon="5.20447">
        <ele>336.36</ele>
        <time>2019-09-21T08:15:56.999Z</time>
      </trkpt>
      <trkpt lat="44.06475" lon="5.2043">
        <ele>336.93</ele>
        <time>2019-09-21T08:16:00.999Z</time>
      </trkpt>
      <trkpt lat="44.06478" lon="5.20417">
        <ele>337.34</ele>
        <time>2019-09-21T08:16:03.999Z</time>
      </trkpt>
      <trkpt lat="44.06481" lon="5.20403">
        <ele>338.1</ele>
        <time>2019-09-21T08:16:09.999Z</time>
      </trkpt>
      <trkpt lat="44.06483" lon="5.20388">
        <ele>338.77</ele>
        <time>2019-09-21T08:16:15.999Z</time>
      </trkpt>
      <trkpt lat="44.06474" lon="5.20384">
        <ele>340.3</ele>
        <time>2019-09-21T08:16:32.999Z</time>
      </trkpt>
      <trkpt lat="44.06466" lon="5.20391">
        <ele>340.81</ele>
        <time>2019-09-21T08:16:39.999Z</time>
      </trkpt>
      <trkpt lat="44.06458" lon="5.20401">
        <ele>341.34</ele>
        <time>2019-09-21T08:16:47.999Z</time>
      </trkpt>
      <trkpt lat="44.06454" lon="5.20412">
        <ele>341.71</ele>
        <time>2019-09-21T08:16:53.999Z</time>
      </trkpt>
      <trkpt lat="44.06448" lon="5.20422">
        <ele>341.93</ele>
        <time>2019-09-21T08:16:57.999Z</time>
      </trkpt>
      <trkpt lat="44.0644" lon="5.20433">
        <ele>342.13</ele>
        <time>2019-09-21T08:17:01.999Z</time>
      </trkpt>
      <trkpt lat="44.06431" lon="5.20439">
        <ele>342.3</ele>
        <time>2019-09-21T08:17:05.999Z</time>
      </trkpt>
      <trkpt lat="44.06421" lon="5.2044">
        <ele>342.41</ele>
        <time>2019-09-21T08:17:08.999Z</time>
      </trkpt>
      <trkpt lat="44.0642" lon="5.20452">
        <ele>342.54</ele>
        <time>2019-09-21T08:17:12.999Z</time>
      </trkpt>
      <trkpt lat="44.06416" lon="5.20465">
        <ele>342.65</ele>
        <time>2019-09-21T08:17:16.999Z</time>
      </trkpt>
      <trkpt lat="44.06411" lon="5.20477">
        <ele>342.96</ele>
        <time>2019-09-21T08:17:18.999Z</time>
      </trkpt>
      <trkpt lat="44.06406" lon="5.20491">
        <ele>343.36</ele>
        <time>2019-09-21T08:17:20.999Z</time>
      </trkpt>
      <trkpt lat="44.06402" lon="5.20506">
        <ele>343.53</ele>
        <time>2019-09-21T08:17:22.999Z</time>
      </trkpt>
      <trkpt lat="44.06405" lon="5.20524">
        <ele>343.75</ele>
        <time>2019-09-21T08:17:25.999Z</time>
      </trkpt>
      <trkpt lat="44.06406" lon="5.20536">
        <ele>343.82</ele>
        <time>2019-09-21T08:17:27.999Z</time>
      </trkpt>
      <trkpt lat="44.06412" lon="5.2055">
        <ele>343.89</ele>
        <time>2019-09-21T08:17:30.999Z</time>
      </trkpt>
      <trkpt lat="44.06419" lon="5.2056">
        <ele>343.93</ele>
        <time>2019-09-21T08:17:34.999Z</time>
      </trkpt>
      <trkpt lat="44.06426" lon="5.20569">
        <ele>343.98</ele>
        <time>2019-09-21T08:17:38.999Z</time>
      </trkpt>
      <trkpt lat="44.06433" lon="5.20579">
        <ele>344.03</ele>
        <time>2019-09-21T08:17:42.999Z</time>
      </trkpt>
      <trkpt lat="44.0644" lon="5.2059">
        <ele>344.07</ele>
        <time>2019-09-21T08:17:46.999Z</time>
      </trkpt>
      <trkpt lat="44.06443" lon="5.20604">
        <ele>344.1</ele>
        <time>2019-09-21T08:17:49.999Z</time>
      </trkpt>
      <trkpt lat="44.06453" lon="5.20614">
        <ele>344.22</ele>
        <time>2019-09-21T08:17:52.999Z</time>
      </trkpt>
      <trkpt lat="44.06463" lon="5.20626">
        <ele>344.39</ele>
        <time>2019-09-21T08:17:54.999Z</time>
      </trkpt>
      <trkpt lat="44.06473" lon="5.20629">
        <ele>344.54</ele>
        <time>2019-09-21T08:17:57.999Z</time>
      </trkpt>
      <trkpt lat="44.06481" lon="5.20636">
        <ele>344.62</ele>
        <time>2019-09-21T08:18:02.999Z</time>
      </trkpt>
      <trkpt lat="44.06488" lon="5.20644">
        <ele>344.71</ele>
        <time>2019-09-21T08:18:07.999Z</time>
      </trkpt>
      <trkpt lat="44.06492" lon="5.20657">
        <ele>344.79</ele>
        <time>2019-09-21T08:18:11.999Z</time>
      </trkpt>
      <trkpt lat="44.06497" lon="5.20672">
        <ele>345.18</ele>
        <time>2019-09-21T08:18:14.999Z</time>
      </trkpt>
      <trkpt lat="44.065" lon="5.20687">
        <ele>345.27</ele>
        <time>2019-09-21T08:18:17.999Z</time>
      </trkpt>
      <trkpt lat="44.06498" lon="5.207">
        <ele>345.31</ele>
        <time>2019-09-21T08:18:21.999Z</time>
      </trkpt>
      <trkpt lat="44.06495" lon="5.20714">
        <ele>345.35</ele>
        <time>2019-09-21T08:18:25.999Z</time>
      </trkpt>
      <trkpt lat="44.06494" lon="5.20728">
        <ele>345.4</ele>
        <time>2019-09-21T08:18:28.999Z</time>
      </trkpt>
      <trkpt lat="44.06494" lon="5.20744">
        <ele>345.45</ele>
        <time>2019-09-21T08:18:31.999Z</time>
      </trkpt>
      <trkpt lat="44.06495" lon="5.20759">
        <ele>345.5</ele>
        <time>2019-09-21T08:18:34.999Z</time>
      </trkpt>
      <trkpt lat="44.06493" lon="5.20776">
        <ele>345.56</ele>
        <time>2019-09-21T08:18:37.999Z</time>
      </trkpt>
      <trkpt lat="44.06494" lon="5.20796">
        <ele>345.8</ele>
        <time>2019-09-21T08:18:40.999Z</time>
      </trkpt>
      <trkpt lat="44.06489" lon="5.20811">
        <ele>346.12</ele>
        <time>2019-09-21T08:18:42.999Z</time>
      </trkpt>
      <trkpt lat="44.06485" lon="5.20829">
        <ele>346.44</ele>
        <time>2019-09-21T08:18:45.999Z</time>
      </trkpt>
      <trkpt lat="44.06479" lon="5.20842">
        <ele>346.58</ele>
        <time>2019-09-21T08:18:47.999Z</time>
      </trkpt>
      <trkpt lat="44.06474" lon="5.20853">
        <ele>346.69</ele>
        <time>2019-09-21T08:18:49.999Z</time>
      </trkpt>
      <trkpt lat="44.06468" lon="5.20864">
        <ele>346.76</ele>
        <time>2019-09-21T08:18:51.999Z</time>
      </trkpt>
      <trkpt lat="44.06463" lon="5.20882">
        <ele>346.83</ele>
        <time>2019-09-21T08:18:54.999Z</time>
      </trkpt>
      <trkpt lat="44.06463" lon="5.20894">
        <ele>346.88</ele>
        <time>2019-09-21T08:18:56.999Z</time>
      </trkpt>
      <trkpt lat="44.06463" lon="5.20909">
        <ele>346.91</ele>
        <time>2019-09-21T08:18:58.999Z</time>
      </trkpt>
      <trkpt lat="44.06461" lon="5.20926">
        <ele>346.95</ele>
        <time>2019-09-21T08:19:00.999Z</time>
      </trkpt>
      <trkpt lat="44.06456" lon="5.20941">
        <ele>346.95</ele>
        <time>2019-09-21T08:19:02.999Z</time>
      </trkpt>
      <trkpt lat="44.06446" lon="5.20951">
        <ele>346.94</ele>
        <time>2019-09-21T08:19:05.999Z</time>
      </trkpt>
      <trkpt lat="44.0644" lon="5.20959">
        <ele>346.93</ele>
        <time>2019-09-21T08:19:15.999Z</time>
      </trkpt>
      <trkpt lat="44.06435" lon="5.20971">
        <ele>346.92</ele>
        <time>2019-09-21T08:19:18.999Z</time>
      </trkpt>
      <trkpt lat="44.0643" lon="5.20984">
        <ele>346.91</ele>
        <time>2019-09-21T08:19:21.999Z</time>
      </trkpt>
      <trkpt lat="44.06426" lon="5.20999">
        <ele>346.9</ele>
        <time>2019-09-21T08:19:24.999Z</time>
      </trkpt>
      <trkpt lat="44.06424" lon="5.21014">
        <ele>346.97</ele>
        <time>2019-09-21T08:19:27.999Z</time>
      </trkpt>
      <trkpt lat="44.06423" lon="5.21028">
        <ele>347.26</ele>
        <time>2019-09-21T08:19:31.999Z</time>
      </trkpt>
      <trkpt lat="44.06425" lon="5.21044">
        <ele>347.7</ele>
        <time>2019-09-21T08:19:35.999Z</time>
      </trkpt>
      <trkpt lat="44.06428" lon="5.21057">
        <ele>348.1</ele>
        <time>2019-09-21T08:19:39.999Z</time>
      </trkpt>
      <trkpt lat="44.06435" lon="5.2107">
        <ele>348.68</ele>
        <time>2019-09-21T08:19:44.999Z</time>
      </trkpt>
      <trkpt lat="44.06439" lon="5.21082">
        <ele>349.17</ele>
        <time>2019-09-21T08:19:48.999Z</time>
      </trkpt>
      <trkpt lat="44.0644" lon="5.21096">
        <ele>349.77</ele>
        <time>2019-09-21T08:19:53.999Z</time>
      </trkpt>
      <trkpt lat="44.06439" lon="5.2111">
        <ele>350.81</ele>
        <time>2019-09-21T08:20:02.999Z</time>
      </trkpt>
      <trkpt lat="44.06432" lon="5.21118">
        <ele>351.43</ele>
        <time>2019-09-21T08:20:08.999Z</time>
      </trkpt>
      <trkpt lat="44.06423" lon="5.21127">
        <ele>351.94</ele>
        <time>2019-09-21T08:20:13.999Z</time>
      </trkpt>
      <trkpt lat="44.06418" lon="5.21139">
        <ele>352.31</ele>
        <time>2019-09-21T08:20:17.999Z</time>
      </trkpt>
      <trkpt lat="44.06411" lon="5.2115">
        <ele>352.74</ele>
        <time>2019-09-21T08:20:22.999Z</time>
      </trkpt>
      <trkpt lat="44.06405" lon="5.21161">
        <ele>353.2</ele>
        <time>2019-09-21T08:20:28.999Z</time>
      </trkpt>
      <trkpt lat="44.06398" lon="5.2117">
        <ele>353.55</ele>
        <time>2019-09-21T08:20:33.999Z</time>
      </trkpt>
      <trkpt lat="44.06392" lon="5.2118">
        <ele>353.86</ele>
        <time>2019-09-21T08:20:38.999Z</time>
      </trkpt>
      <trkpt lat="44.06385" lon="5.2119">
        <ele>354.19</ele>
        <time>2019-09-21T08:20:44.999Z</time>
      </trkpt>
      <trkpt lat="44.06378" lon="5.212">
        <ele>354.57</ele>
        <time>2019-09-21T08:20:52.999Z</time>
      </trkpt>
      <trkpt lat="44.06372" lon="5.2121">
        <ele>354.87</ele>
        <time>2019-09-21T08:20:59.999Z</time>
      </trkpt>
      <trkpt lat="44.06376" lon="5.21222">
        <ele>355.24</ele>
        <time>2019-09-21T08:21:09.999Z</time>
      </trkpt>
      <trkpt lat="44.06385" lon="5.21228">
        <ele>355.41</ele>
        <time>2019-09-21T08:21:14.999Z</time>
      </trkpt>
      <trkpt lat="44.06393" lon="5.21235">
        <ele>355.53</ele>
        <time>2019-09-21T08:21:18.999Z</time>
      </trkpt>
      <trkpt lat="44.06401" lon="5.21245">
        <ele>355.67</ele>
        <time>2019-09-21T08:21:23.999Z</time>
      </trkpt>
      <trkpt lat="44.06409" lon="5.21256">
        <ele>355.83</ele>
        <time>2019-09-21T08:21:29.999Z</time>
      </trkpt>
      <trkpt lat="44.06415" lon="5.21267">
        <ele>355.92</ele>
        <time>2019-09-21T08:21:33.999Z</time>
      </trkpt>
      <trkpt lat="44.06405" lon="5.21269">
        <ele>356.13</ele>
        <time>2019-09-21T08:21:43.999Z</time>
      </trkpt>
      <trkpt lat="44.06397" lon="5.21258">
        <ele>356.24</ele>
        <time>2019-09-21T08:21:49.999Z</time>
      </trkpt>
      <trkpt lat="44.06386" lon="5.21258">
        <ele>356.3</ele>
        <time>2019-09-21T08:21:53.999Z</time>
      </trkpt>
      <trkpt lat="44.06381" lon="5.2127">
        <ele>356.38</ele>
        <time>2019-09-21T08:21:58.999Z</time>
      </trkpt>
      <trkpt lat="44.06374" lon="5.21282">
        <ele>356.45</ele>
        <time>2019-09-21T08:22:03.999Z</time>
      </trkpt>
      <trkpt lat="44.06366" lon="5.21291">
        <ele>356.53</ele>
        <time>2019-09-21T08:22:09.999Z</time>
      </trkpt>
      <trkpt lat="44.06356" lon="5.21292">
        <ele>356.63</ele>
        <time>2019-09-21T08:22:16.999Z</time>
      </trkpt>
      <trkpt lat="44.06347" lon="5.21294">
        <ele>356.68</ele>
        <time>2019-09-21T08:22:20.999Z</time>
      </trkpt>
      <trkpt lat="44.0634" lon="5.21302">
        <ele>356.76</ele>
        <time>2019-09-21T08:22:25.999Z</time>
      </trkpt>
      <trkpt lat="44.06335" lon="5.21315">
        <ele>356.84</ele>
        <time>2019-09-21T08:22:31.999Z</time>
      </trkpt>
      <trkpt lat="44.06328" lon="5.21326">
        <ele>356.91</ele>
        <time>2019-09-21T08:22:36.999Z</time>
      </trkpt>
      <trkpt lat="44.06324" lon="5.21339">
        <ele>356.98</ele>
        <time>2019-09-21T08:22:41.999Z</time>
      </trkpt>
      <trkpt lat="44.0632" lon="5.2135">
        <ele>357.06</ele>
        <time>2019-09-21T08:22:46.999Z</time>
      </trkpt>
      <trkpt lat="44.06316" lon="5.21363">
        <ele>357.14</ele>
        <time>2019-09-21T08:22:52.999Z</time>
      </trkpt>
      <trkpt lat="44.06313" lon="5.21375">
        <ele>357.23</ele>
        <time>2019-09-21T08:22:58.999Z</time>
      </trkpt>
      <trkpt lat="44.0631" lon="5.2139">
        <ele>357.33</ele>
        <time>2019-09-21T08:23:04.999Z</time>
      </trkpt>
      <trkpt lat="44.06308" lon="5.21402">
        <ele>357.38</ele>
        <time>2019-09-21T08:23:07.999Z</time>
      </trkpt>
      <trkpt lat="44.06305" lon="5.2142">
        <ele>357.78</ele>
        <time>2019-09-21T08:23:10.999Z</time>
      </trkpt>
      <trkpt lat="44.06302" lon="5.21437">
        <ele>357.96</ele>
        <time>2019-09-21T08:23:13.999Z</time>
      </trkpt>
      <trkpt lat="44.06293" lon="5.21442">
        <ele>357.97</ele>
        <time>2019-09-21T08:23:15.999Z</time>
      </trkpt>
      <trkpt lat="44.06284" lon="5.21457">
        <ele>358.11</ele>
        <time>2019-09-21T08:23:18.999Z</time>
      </trkpt>
      <trkpt lat="44.06283" lon="5.21473">
        <ele>358.16</ele>
        <time>2019-09-21T08:23:20.999Z</time>
      </trkpt>
      <trkpt lat="44.06288" lon="5.21486">
        <ele>358.3</ele>
        <time>2019-09-21T08:23:23.999Z</time>
      </trkpt>
      <trkpt lat="44.06292" lon="5.215">
        <ele>358.35</ele>
        <time>2019-09-21T08:23:26.999Z</time>
      </trkpt>
      <trkpt lat="44.06294" lon="5.21513">
        <ele>358.39</ele>
        <time>2019-09-21T08:23:30.999Z</time>
      </trkpt>
      <trkpt lat="44.06297" lon="5.21525">
        <ele>358.74</ele>
        <time>2019-09-21T08:23:48.999Z</time>
      </trkpt>
      <trkpt lat="44.06293" lon="5.21537">
        <ele>359.98</ele>
        <time>2019-09-21T08:24:17.999Z</time>
      </trkpt>
      <trkpt lat="44.0629" lon="5.21551">
        <ele>360.4</ele>
        <time>2019-09-21T08:24:21.999Z</time>
      </trkpt>
      <trkpt lat="44.06291" lon="5.21563">
        <ele>360.82</ele>
        <time>2019-09-21T08:24:25.999Z</time>
      </trkpt>
      <trkpt lat="44.06293" lon="5.21577">
        <ele>361.14</ele>
        <time>2019-09-21T08:24:28.999Z</time>
      </trkpt>
      <trkpt lat="44.06296" lon="5.21591">
        <ele>361.46</ele>
        <time>2019-09-21T08:24:31.999Z</time>
      </trkpt>
      <trkpt lat="44.06299" lon="5.21604">
        <ele>361.77</ele>
        <time>2019-09-21T08:24:34.999Z</time>
      </trkpt>
      <trkpt lat="44.06303" lon="5.21618">
        <ele>362.07</ele>
        <time>2019-09-21T08:24:37.999Z</time>
      </trkpt>
      <trkpt lat="44.06308" lon="5.21635">
        <ele>363.21</ele>
        <time>2019-09-21T08:24:40.999Z</time>
      </trkpt>
      <trkpt lat="44.06311" lon="5.21653">
        <ele>364.68</ele>
        <time>2019-09-21T08:24:43.999Z</time>
      </trkpt>
      <trkpt lat="44.06311" lon="5.2167">
        <ele>365.61</ele>
        <time>2019-09-21T08:24:45.999Z</time>
      </trkpt>
      <trkpt lat="44.06315" lon="5.21683">
        <ele>366.26</ele>
        <time>2019-09-21T08:24:47.999Z</time>
      </trkpt>
      <trkpt lat="44.06321" lon="5.21694">
        <ele>366.53</ele>
        <time>2019-09-21T08:24:49.999Z</time>
      </trkpt>
      <trkpt lat="44.06324" lon="5.21707">
        <ele>366.68</ele>
        <time>2019-09-21T08:24:56.999Z</time>
      </trkpt>
      <trkpt lat="44.06328" lon="5.21721">
        <ele>366.84</ele>
        <time>2019-09-21T08:25:03.999Z</time>
      </trkpt>
      <trkpt lat="44.06334" lon="5.21731">
        <ele>366.97</ele>
        <time>2019-09-21T08:25:08.999Z</time>
      </trkpt>
      <trkpt lat="44.06338" lon="5.21744">
        <ele>367.51</ele>
        <time>2019-09-21T08:25:27.999Z</time>
      </trkpt>
      <trkpt lat="44.0634" lon="5.21757">
        <ele>367.64</ele>
        <time>2019-09-21T08:25:32.999Z</time>
      </trkpt>
      <trkpt lat="44.0634" lon="5.2177">
        <ele>367.77</ele>
        <time>2019-09-21T08:25:38.999Z</time>
      </trkpt>
      <trkpt lat="44.06341" lon="5.21784">
        <ele>367.95</ele>
        <time>2019-09-21T08:25:49.999Z</time>
      </trkpt>
      <trkpt lat="44.06346" lon="5.21795">
        <ele>368.03</ele>
        <time>2019-09-21T08:25:53.999Z</time>
      </trkpt>
      <trkpt lat="44.06354" lon="5.21808">
        <ele>368.16</ele>
        <time>2019-09-21T08:26:00.999Z</time>
      </trkpt>
      <trkpt lat="44.0636" lon="5.21819">
        <ele>368.47</ele>
        <time>2019-09-21T08:26:02.999Z</time>
      </trkpt>
      <trkpt lat="44.06363" lon="5.21834">
        <ele>368.5</ele>
        <time>2019-09-21T08:26:05.999Z</time>
      </trkpt>
      <trkpt lat="44.06357" lon="5.21845">
        <ele>368.53</ele>
        <time>2019-09-21T08:26:13.999Z</time>
      </trkpt>
      <trkpt lat="44.06347" lon="5.21847">
        <ele>368.52</ele>
        <time>2019-09-21T08:26:17.999Z</time>
      </trkpt>
      <trkpt lat="44.06338" lon="5.21853">
        <ele>368.48</ele>
        <time>2019-09-21T08:26:23.999Z</time>
      </trkpt>
      <trkpt lat="44.06332" lon="5.21861">
        <ele>368.43</ele>
        <time>2019-09-21T08:26:28.999Z</time>
      </trkpt>
      <trkpt lat="44.06324" lon="5.21871">
        <ele>368.39</ele>
        <time>2019-09-21T08:26:32.999Z</time>
      </trkpt>
      <trkpt lat="44.06312" lon="5.21868">
        <ele>368.32</ele>
        <time>2019-09-21T08:26:37.999Z</time>
      </trkpt>
      <trkpt lat="44.06303" lon="5.21863">
        <ele>368.21</ele>
        <time>2019-09-21T08:26:43.999Z</time>
      </trkpt>
      <trkpt lat="44.06294" lon="5.21856">
        <ele>368.07</ele>
        <time>2019-09-21T08:26:49.999Z</time>
      </trkpt>
      <trkpt lat="44.06287" lon="5.21848">
        <ele>367.65</ele>
        <time>2019-09-21T08:27:02.999Z</time>
      </trkpt>
      <trkpt lat="44.06292" lon="5.21838">
        <ele>367.48</ele>
        <time>2019-09-21T08:27:07.999Z</time>
      </trkpt>
      <trkpt lat="44.06283" lon="5.21837">
        <ele>367.01</ele>
        <time>2019-09-21T08:27:20.999Z</time>
      </trkpt>
      <trkpt lat="44.06284" lon="5.21824">
        <ele>366.37</ele>
        <time>2019-09-21T08:27:39.999Z</time>
      </trkpt>
      <trkpt lat="44.06275" lon="5.21824">
        <ele>366.21</ele>
        <time>2019-09-21T08:27:44.999Z</time>
      </trkpt>
      <trkpt lat="44.06285" lon="5.21826">
        <ele>365.38</ele>
        <time>2019-09-21T08:28:31.999Z</time>
      </trkpt>
      <trkpt lat="44.06275" lon="5.21825">
        <ele>364.76</ele>
        <time>2019-09-21T08:28:59.999Z</time>
      </trkpt>
      <trkpt lat="44.06265" lon="5.21828">
        <ele>363.41</ele>
        <time>2019-09-21T08:29:49.999Z</time>
      </trkpt>
      <trkpt lat="44.06256" lon="5.21824">
        <ele>363.13</ele>
        <time>2019-09-21T08:29:54.999Z</time>
      </trkpt>
      <trkpt lat="44.06248" lon="5.21819">
        <ele>362.96</ele>
        <time>2019-09-21T08:29:57.999Z</time>
      </trkpt>
      <trkpt lat="44.06238" lon="5.21814">
        <ele>362.8</ele>
        <time>2019-09-21T08:30:00.999Z</time>
      </trkpt>
      <trkpt lat="44.06232" lon="5.21805">
        <ele>362.59</ele>
        <time>2019-09-21T08:30:04.999Z</time>
      </trkpt>
      <trkpt lat="44.06225" lon="5.21792">
        <ele>362.33</ele>
        <time>2019-09-21T08:30:09.999Z</time>
      </trkpt>
      <trkpt lat="44.06215" lon="5.21784">
        <ele>362.03</ele>
        <time>2019-09-21T08:30:15.999Z</time>
      </trkpt>
      <trkpt lat="44.06206" lon="5.2177">
        <ele>360.78</ele>
        <time>2019-09-21T08:30:18.999Z</time>
      </trkpt>
      <trkpt lat="44.06202" lon="5.21756">
        <ele>360.46</ele>
        <time>2019-09-21T08:30:21.999Z</time>
      </trkpt>
      <trkpt lat="44.06203" lon="5.21742">
        <ele>360.37</ele>
        <time>2019-09-21T08:30:25.999Z</time>
      </trkpt>
      <trkpt lat="44.06208" lon="5.21728">
        <ele>360.3</ele>
        <time>2019-09-21T08:30:28.999Z</time>
      </trkpt>
      <trkpt lat="44.06206" lon="5.21712">
        <ele>360.19</ele>
        <time>2019-09-21T08:30:32.999Z</time>
      </trkpt>
      <trkpt lat="44.06199" lon="5.21704">
        <ele>360.11</ele>
        <time>2019-09-21T08:30:35.999Z</time>
      </trkpt>
      <trkpt lat="44.0619" lon="5.21695">
        <ele>360.03</ele>
        <time>2019-09-21T08:30:38.999Z</time>
      </trkpt>
      <trkpt lat="44.06183" lon="5.21685">
        <ele>359.91</ele>
        <time>2019-09-21T08:30:42.999Z</time>
      </trkpt>
      <trkpt lat="44.06176" lon="5.21669">
        <ele>359.38</ele>
        <time>2019-09-21T08:30:45.999Z</time>
      </trkpt>
      <trkpt lat="44.06168" lon="5.21658">
        <ele>359.04</ele>
        <time>2019-09-21T08:30:47.999Z</time>
      </trkpt>
      <trkpt lat="44.06163" lon="5.21648">
        <ele>358.98</ele>
        <time>2019-09-21T08:30:51.999Z</time>
      </trkpt>
      <trkpt lat="44.06166" lon="5.21632">
        <ele>358.92</ele>
        <time>2019-09-21T08:30:55.999Z</time>
      </trkpt>
      <trkpt lat="44.06176" lon="5.21628">
        <ele>358.9</ele>
        <time>2019-09-21T08:30:58.999Z</time>
      </trkpt>
      <trkpt lat="44.0618" lon="5.21617">
        <ele>358.85</ele>
        <time>2019-09-21T08:31:03.999Z</time>
      </trkpt>
      <trkpt lat="44.06172" lon="5.21605">
        <ele>358.8</ele>
        <time>2019-09-21T08:31:06.999Z</time>
      </trkpt>
      <trkpt lat="44.06166" lon="5.21596">
        <ele>358.75</ele>
        <time>2019-09-21T08:31:09.999Z</time>
      </trkpt>
      <trkpt lat="44.06166" lon="5.21581">
        <ele>358.7</ele>
        <time>2019-09-21T08:31:12.999Z</time>
      </trkpt>
      <trkpt lat="44.06159" lon="5.21571">
        <ele>358.58</ele>
        <time>2019-09-21T08:31:19.999Z</time>
      </trkpt>
      <trkpt lat="44.06157" lon="5.21555">
        <ele>358.49</ele>
        <time>2019-09-21T08:31:23.999Z</time>
      </trkpt>
      <trkpt lat="44.06154" lon="5.21538">
        <ele>358.42</ele>
        <time>2019-09-21T08:31:26.999Z</time>
      </trkpt>
      <trkpt lat="44.06149" lon="5.21524">
        <ele>358.33</ele>
        <time>2019-09-21T08:31:30.999Z</time>
      </trkpt>
      <trkpt lat="44.06141" lon="5.21513">
        <ele>358.25</ele>
        <time>2019-09-21T08:31:33.999Z</time>
      </trkpt>
      <trkpt lat="44.06129" lon="5.21509">
        <ele>358.16</ele>
        <time>2019-09-21T08:31:36.999Z</time>
      </trkpt>
      <trkpt lat="44.06121" lon="5.21517">
        <ele>357.78</ele>
        <time>2019-09-21T08:31:39.999Z</time>
      </trkpt>
      <trkpt lat="44.06116" lon="5.21532">
        <ele>357.15</ele>
        <time>2019-09-21T08:31:42.999Z</time>
      </trkpt>
      <trkpt lat="44.06108" lon="5.21541">
        <ele>356.87</ele>
        <time>2019-09-21T08:31:44.999Z</time>
      </trkpt>
      <trkpt lat="44.06095" lon="5.21547">
        <ele>356.62</ele>
        <time>2019-09-21T08:31:47.999Z</time>
      </trkpt>
      <trkpt lat="44.06081" lon="5.21545">
        <ele>356.45</ele>
        <time>2019-09-21T08:31:49.999Z</time>
      </trkpt>
      <trkpt lat="44.06071" lon="5.21541">
        <ele>356.37</ele>
        <time>2019-09-21T08:31:51.999Z</time>
      </trkpt>
      <trkpt lat="44.0606" lon="5.21535">
        <ele>356.34</ele>
        <time>2019-09-21T08:31:54.999Z</time>
      </trkpt>
      <trkpt lat="44.06052" lon="5.21526">
        <ele>356.15</ele>
        <time>2019-09-21T08:31:56.999Z</time>
      </trkpt>
      <trkpt lat="44.06045" lon="5.21516">
        <ele>356.01</ele>
        <time>2019-09-21T08:31:58.999Z</time>
      </trkpt>
      <trkpt lat="44.06036" lon="5.21504">
        <ele>355.99</ele>
        <time>2019-09-21T08:32:01.999Z</time>
      </trkpt>
      <trkpt lat="44.06023" lon="5.21505">
        <ele>355.98</ele>
        <time>2019-09-21T08:32:04.999Z</time>
      </trkpt>
      <trkpt lat="44.06009" lon="5.21506">
        <ele>355.88</ele>
        <time>2019-09-21T08:32:07.999Z</time>
      </trkpt>
      <trkpt lat="44.05998" lon="5.21506">
        <ele>355.67</ele>
        <time>2019-09-21T08:32:09.999Z</time>
      </trkpt>
      <trkpt lat="44.05986" lon="5.21503">
        <ele>355.51</ele>
        <time>2019-09-21T08:32:11.999Z</time>
      </trkpt>
      <trkpt lat="44.05976" lon="5.21497">
        <ele>355.45</ele>
        <time>2019-09-21T08:32:13.999Z</time>
      </trkpt>
      <trkpt lat="44.05966" lon="5.21497">
        <ele>355.39</ele>
        <time>2019-09-21T08:32:19.999Z</time>
      </trkpt>
      <trkpt lat="44.05974" lon="5.21488">
        <ele>355.21</ele>
        <time>2019-09-21T08:32:29.999Z</time>
      </trkpt>
      <trkpt lat="44.05984" lon="5.21479">
        <ele>354.92</ele>
        <time>2019-09-21T08:32:33.999Z</time>
      </trkpt>
      <trkpt lat="44.05984" lon="5.21461">
        <ele>354.53</ele>
        <time>2019-09-21T08:32:35.999Z</time>
      </trkpt>
      <trkpt lat="44.05981" lon="5.21444">
        <ele>354.2</ele>
        <time>2019-09-21T08:32:37.999Z</time>
      </trkpt>
      <trkpt lat="44.05981" lon="5.21427">
        <ele>353.95</ele>
        <time>2019-09-21T08:32:39.999Z</time>
      </trkpt>
      <trkpt lat="44.05975" lon="5.21416">
        <ele>353.92</ele>
        <time>2019-09-21T08:32:42.999Z</time>
      </trkpt>
      <trkpt lat="44.05969" lon="5.21402">
        <ele>353.82</ele>
        <time>2019-09-21T08:32:50.999Z</time>
      </trkpt>
      <trkpt lat="44.05961" lon="5.21394">
        <ele>353.62</ele>
        <time>2019-09-21T08:32:53.999Z</time>
      </trkpt>
      <trkpt lat="44.05953" lon="5.21389">
        <ele>353.32</ele>
        <time>2019-09-21T08:32:55.999Z</time>
      </trkpt>
      <trkpt lat="44.05948" lon="5.21376">
        <ele>353.17</ele>
        <time>2019-09-21T08:32:57.999Z</time>
      </trkpt>
      <trkpt lat="44.05944" lon="5.21365">
        <ele>352.81</ele>
        <time>2019-09-21T08:33:20.999Z</time>
      </trkpt>
      <trkpt lat="44.05934" lon="5.21364">
        <ele>352.58</ele>
        <time>2019-09-21T08:33:25.999Z</time>
      </trkpt>
      <trkpt lat="44.05926" lon="5.21357">
        <ele>351.07</ele>
        <time>2019-09-21T08:34:01.999Z</time>
      </trkpt>
      <trkpt lat="44.05919" lon="5.21348">
        <ele>350.69</ele>
        <time>2019-09-21T08:34:06.999Z</time>
      </trkpt>
      <trkpt lat="44.0591" lon="5.21343">
        <ele>350.12</ele>
        <time>2019-09-21T08:34:17.999Z</time>
      </trkpt>
      <trkpt lat="44.059" lon="5.21343">
        <ele>349.61</ele>
        <time>2019-09-21T08:34:24.999Z</time>
      </trkpt>
      <trkpt lat="44.05893" lon="5.21335">
        <ele>349.32</ele>
        <time>2019-09-21T08:34:28.999Z</time>
      </trkpt>
      <trkpt lat="44.05884" lon="5.21327">
        <ele>348.97</ele>
        <time>2019-09-21T08:34:33.999Z</time>
      </trkpt>
      <trkpt lat="44.05874" lon="5.21326">
        <ele>348.63</ele>
        <time>2019-09-21T08:34:38.999Z</time>
      </trkpt>
      <trkpt lat="44.05864" lon="5.21323">
        <ele>348.37</ele>
        <time>2019-09-21T08:34:42.999Z</time>
      </trkpt>
      <trkpt lat="44.05856" lon="5.21318">
        <ele>348.05</ele>
        <time>2019-09-21T08:34:47.999Z</time>
      </trkpt>
      <trkpt lat="44.05849" lon="5.21307">
        <ele>347.74</ele>
        <time>2019-09-21T08:34:52.999Z</time>
      </trkpt>
      <trkpt lat="44.05844" lon="5.21294">
        <ele>347.49</ele>
        <time>2019-09-21T08:34:56.999Z</time>
      </trkpt>
      <trkpt lat="44.05843" lon="5.2128">
        <ele>347.2</ele>
        <time>2019-09-21T08:35:01.999Z</time>
      </trkpt>
      <trkpt lat="44.05839" lon="5.21266">
        <ele>346.86</ele>
        <time>2019-09-21T08:35:07.999Z</time>
      </trkpt>
      <trkpt lat="44.05834" lon="5.21252">
        <ele>346.7</ele>
        <time>2019-09-21T08:35:10.999Z</time>
      </trkpt>
      <trkpt lat="44.05839" lon="5.21241">
        <ele>346.23</ele>
        <time>2019-09-21T08:35:19.999Z</time>
      </trkpt>
      <trkpt lat="44.05848" lon="5.21231">
        <ele>345.84</ele>
        <time>2019-09-21T08:35:28.000Z</time>
      </trkpt>
      <trkpt lat="44.05857" lon="5.21231">
        <ele>345.57</ele>
        <time>2019-09-21T08:35:34.000Z</time>
      </trkpt>
      <trkpt lat="44.05867" lon="5.21225">
        <ele>345.4</ele>
        <time>2019-09-21T08:35:38.000Z</time>
      </trkpt>
      <trkpt lat="44.05876" lon="5.21223">
        <ele>345.19</ele>
        <time>2019-09-21T08:35:43.000Z</time>
      </trkpt>
      <trkpt lat="44.05885" lon="5.21225">
        <ele>344.99</ele>
        <time>2019-09-21T08:35:48.000Z</time>
      </trkpt>
      <trkpt lat="44.05894" lon="5.21223">
        <ele>344.84</ele>
        <time>2019-09-21T08:35:52.000Z</time>
      </trkpt>
      <trkpt lat="44.05903" lon="5.21217">
        <ele>344.6</ele>
        <time>2019-09-21T08:35:58.000Z</time>
      </trkpt>
      <trkpt lat="44.0591" lon="5.21208">
        <ele>344.23</ele>
        <time>2019-09-21T08:36:08.000Z</time>
      </trkpt>
      <trkpt lat="44.05919" lon="5.21207">
        <ele>344</ele>
        <time>2019-09-21T08:36:14.000Z</time>
      </trkpt>
      <trkpt lat="44.05927" lon="5.21215">
        <ele>343.89</ele>
        <time>2019-09-21T08:36:17.000Z</time>
      </trkpt>
      <trkpt lat="44.05934" lon="5.21223">
        <ele>343.74</ele>
        <time>2019-09-21T08:36:21.000Z</time>
      </trkpt>
      <trkpt lat="44.05941" lon="5.21233">
        <ele>343.59</ele>
        <time>2019-09-21T08:36:26.000Z</time>
      </trkpt>
      <trkpt lat="44.05945" lon="5.21244">
        <ele>343.47</ele>
        <time>2019-09-21T08:36:29.000Z</time>
      </trkpt>
      <trkpt lat="44.05955" lon="5.21244">
        <ele>343.16</ele>
        <time>2019-09-21T08:36:39.000Z</time>
      </trkpt>
      <trkpt lat="44.05945" lon="5.21234">
        <ele>341.47</ele>
        <time>2019-09-21T08:37:02.000Z</time>
      </trkpt>
      <trkpt lat="44.05936" lon="5.21226">
        <ele>340.5</ele>
        <time>2019-09-21T08:37:04.000Z</time>
      </trkpt>
      <trkpt lat="44.05928" lon="5.21221">
        <ele>340.43</ele>
        <time>2019-09-21T08:37:06.000Z</time>
      </trkpt>
      <trkpt lat="44.05916" lon="5.2122">
        <ele>340.32</ele>
        <time>2019-09-21T08:37:09.000Z</time>
      </trkpt>
      <trkpt lat="44.05901" lon="5.21212">
        <ele>339.84</ele>
        <time>2019-09-21T08:37:12.000Z</time>
      </trkpt>
      <trkpt lat="44.05885" lon="5.21214">
        <ele>339.17</ele>
        <time>2019-09-21T08:37:14.000Z</time>
      </trkpt>
      <trkpt lat="44.05873" lon="5.21213">
        <ele>338.89</ele>
        <time>2019-09-21T08:37:16.000Z</time>
      </trkpt>
      <trkpt lat="44.05864" lon="5.21212">
        <ele>338.8</ele>
        <time>2019-09-21T08:37:20.000Z</time>
      </trkpt>
      <trkpt lat="44.05854" lon="5.21211">
        <ele>338.74</ele>
        <time>2019-09-21T08:37:23.000Z</time>
      </trkpt>
      <trkpt lat="44.05844" lon="5.21215">
        <ele>338.66</ele>
        <time>2019-09-21T08:37:27.000Z</time>
      </trkpt>
      <trkpt lat="44.05835" lon="5.21221">
        <ele>338.59</ele>
        <time>2019-09-21T08:37:30.000Z</time>
      </trkpt>
      <trkpt lat="44.05824" lon="5.21222">
        <ele>338.5</ele>
        <time>2019-09-21T08:37:34.000Z</time>
      </trkpt>
      <trkpt lat="44.05816" lon="5.21216">
        <ele>338.43</ele>
        <time>2019-09-21T08:37:37.000Z</time>
      </trkpt>
      <trkpt lat="44.05809" lon="5.21208">
        <ele>338.23</ele>
        <time>2019-09-21T08:37:44.000Z</time>
      </trkpt>
      <trkpt lat="44.05803" lon="5.21196">
        <ele>338.01</ele>
        <time>2019-09-21T08:37:51.000Z</time>
      </trkpt>
      <trkpt lat="44.058" lon="5.21184">
        <ele>337.82</ele>
        <time>2019-09-21T08:37:56.000Z</time>
      </trkpt>
      <trkpt lat="44.05797" lon="5.21172">
        <ele>337.44</ele>
        <time>2019-09-21T08:38:06.000Z</time>
      </trkpt>
      <trkpt lat="44.05796" lon="5.21158">
        <ele>337.13</ele>
        <time>2019-09-21T08:38:14.000Z</time>
      </trkpt>
      <trkpt lat="44.058" lon="5.21145">
        <ele>336.93</ele>
        <time>2019-09-21T08:38:19.000Z</time>
      </trkpt>
      <trkpt lat="44.058" lon="5.21132">
        <ele>336.73</ele>
        <time>2019-09-21T08:38:24.000Z</time>
      </trkpt>
      <trkpt lat="44.05803" lon="5.21117">
        <ele>336.49</ele>
        <time>2019-09-21T08:38:30.000Z</time>
      </trkpt>
      <trkpt lat="44.05803" lon="5.21105">
        <ele>336.25</ele>
        <time>2019-09-21T08:38:36.000Z</time>
      </trkpt>
      <trkpt lat="44.05799" lon="5.21093">
        <ele>334.76</ele>
        <time>2019-09-21T08:40:34.000Z</time>
      </trkpt>
      <trkpt lat="44.05806" lon="5.21084">
        <ele>332.21</ele>
        <time>2019-09-21T08:42:56.000Z</time>
      </trkpt>
      <trkpt lat="44.05811" lon="5.21069">
        <ele>331.57</ele>
        <time>2019-09-21T08:43:04.000Z</time>
      </trkpt>
      <trkpt lat="44.05815" lon="5.21055">
        <ele>331.42</ele>
        <time>2019-09-21T08:43:06.000Z</time>
      </trkpt>
      <trkpt lat="44.05818" lon="5.21042">
        <ele>331.2</ele>
        <time>2019-09-21T08:43:09.000Z</time>
      </trkpt>
      <trkpt lat="44.05822" lon="5.21027">
        <ele>330.7</ele>
        <time>2019-09-21T08:43:16.000Z</time>
      </trkpt>
      <trkpt lat="44.0583" lon="5.21021">
        <ele>330.38</ele>
        <time>2019-09-21T08:43:21.000Z</time>
      </trkpt>
      <trkpt lat="44.0584" lon="5.21022">
        <ele>330.02</ele>
        <time>2019-09-21T08:43:27.000Z</time>
      </trkpt>
      <trkpt lat="44.05851" lon="5.21017">
        <ele>329.75</ele>
        <time>2019-09-21T08:43:32.000Z</time>
      </trkpt>
      <trkpt lat="44.0586" lon="5.21016">
        <ele>329.59</ele>
        <time>2019-09-21T08:43:35.000Z</time>
      </trkpt>
      <trkpt lat="44.0587" lon="5.21013">
        <ele>329.39</ele>
        <time>2019-09-21T08:43:39.000Z</time>
      </trkpt>
      <trkpt lat="44.05879" lon="5.21019">
        <ele>329.23</ele>
        <time>2019-09-21T08:43:42.000Z</time>
      </trkpt>
      <trkpt lat="44.05888" lon="5.21029">
        <ele>328.88</ele>
        <time>2019-09-21T08:43:49.000Z</time>
      </trkpt>
      <trkpt lat="44.05892" lon="5.21039">
        <ele>328.64</ele>
        <time>2019-09-21T08:43:54.000Z</time>
      </trkpt>
      <trkpt lat="44.05899" lon="5.21048">
        <ele>328.38</ele>
        <time>2019-09-21T08:44:00.000Z</time>
      </trkpt>
      <trkpt lat="44.05909" lon="5.21054">
        <ele>328.18</ele>
        <time>2019-09-21T08:44:05.000Z</time>
      </trkpt>
      <trkpt lat="44.05917" lon="5.21061">
        <ele>327.91</ele>
        <time>2019-09-21T08:44:12.000Z</time>
      </trkpt>
      <trkpt lat="44.05925" lon="5.21072">
        <ele>327.69</ele>
        <time>2019-09-21T08:44:18.000Z</time>
      </trkpt>
      <trkpt lat="44.05929" lon="5.21085">
        <ele>327.49</ele>
        <time>2019-09-21T08:44:24.000Z</time>
      </trkpt>
      <trkpt lat="44.05938" lon="5.21092">
        <ele>327.34</ele>
        <time>2019-09-21T08:44:29.000Z</time>
      </trkpt>
      <trkpt lat="44.05943" lon="5.21104">
        <ele>327.22</ele>
        <time>2019-09-21T08:44:33.000Z</time>
      </trkpt>
      <trkpt lat="44.05947" lon="5.21117">
        <ele>326.99</ele>
        <time>2019-09-21T08:44:42.000Z</time>
      </trkpt>
      <trkpt lat="44.05953" lon="5.21129">
        <ele>326.8</ele>
        <time>2019-09-21T08:44:50.000Z</time>
      </trkpt>
      <trkpt lat="44.05959" lon="5.21142">
        <ele>326.69</ele>
        <time>2019-09-21T08:44:55.000Z</time>
      </trkpt>
      <trkpt lat="44.05964" lon="5.21154">
        <ele>326.53</ele>
        <time>2019-09-21T08:45:03.000Z</time>
      </trkpt>
      <trkpt lat="44.05973" lon="5.21159">
        <ele>326.42</ele>
        <time>2019-09-21T08:45:09.000Z</time>
      </trkpt>
      <trkpt lat="44.05983" lon="5.21161">
        <ele>326.3</ele>
        <time>2019-09-21T08:45:17.000Z</time>
      </trkpt>
      <trkpt lat="44.05992" lon="5.21169">
        <ele>326.22</ele>
        <time>2019-09-21T08:45:22.000Z</time>
      </trkpt>
      <trkpt lat="44.06001" lon="5.21174">
        <ele>326.17</ele>
        <time>2019-09-21T08:45:26.000Z</time>
      </trkpt>
      <trkpt lat="44.06008" lon="5.21181">
        <ele>326.09</ele>
        <time>2019-09-21T08:45:31.000Z</time>
      </trkpt>
      <trkpt lat="44.06018" lon="5.21185">
        <ele>325.96</ele>
        <time>2019-09-21T08:45:41.000Z</time>
      </trkpt>
      <trkpt lat="44.06028" lon="5.21183">
        <ele>325.87</ele>
        <time>2019-09-21T08:45:49.000Z</time>
      </trkpt>
      <trkpt lat="44.06036" lon="5.21179">
        <ele>325.81</ele>
        <time>2019-09-21T08:45:55.000Z</time>
      </trkpt>
      <trkpt lat="44.06043" lon="5.2119">
        <ele>325.73</ele>
        <time>2019-09-21T08:46:04.000Z</time>
      </trkpt>
      <trkpt lat="44.06049" lon="5.212">
        <ele>325.68</ele>
        <time>2019-09-21T08:46:10.000Z</time>
      </trkpt>
      <trkpt lat="44.06043" lon="5.21213">
        <ele>325.63</ele>
        <time>2019-09-21T08:46:16.000Z</time>
      </trkpt>
      <trkpt lat="44.06035" lon="5.2122">
        <ele>325.6</ele>
        <time>2019-09-21T08:46:19.000Z</time>
      </trkpt>
      <trkpt lat="44.06022" lon="5.21228">
        <ele>325.38</ele>
        <time>2019-09-21T08:46:22.000Z</time>
      </trkpt>
      <trkpt lat="44.06014" lon="5.21238">
        <ele>325.35</ele>
        <time>2019-09-21T08:46:27.000Z</time>
      </trkpt>
      <trkpt lat="44.06007" lon="5.21247">
        <ele>325.33</ele>
        <time>2019-09-21T08:46:31.000Z</time>
      </trkpt>
      <trkpt lat="44.05999" lon="5.21253">
        <ele>325.29</ele>
        <time>2019-09-21T08:46:40.000Z</time>
      </trkpt>
      <trkpt lat="44.05989" lon="5.21248">
        <ele>325.26</ele>
        <time>2019-09-21T08:46:44.000Z</time>
      </trkpt>
      <trkpt lat="44.05982" lon="5.2124">
        <ele>325.22</ele>
        <time>2019-09-21T08:46:49.000Z</time>
      </trkpt>
      <trkpt lat="44.05971" lon="5.21228">
        <ele>325.03</ele>
        <time>2019-09-21T08:46:53.000Z</time>
      </trkpt>
      <trkpt lat="44.05962" lon="5.21221">
        <ele>324.91</ele>
        <time>2019-09-21T08:46:55.000Z</time>
      </trkpt>
      <trkpt lat="44.05952" lon="5.21215">
        <ele>324.81</ele>
        <time>2019-09-21T08:46:57.000Z</time>
      </trkpt>
      <trkpt lat="44.05938" lon="5.21209">
        <ele>324.74</ele>
        <time>2019-09-21T08:47:00.000Z</time>
      </trkpt>
      <trkpt lat="44.05926" lon="5.21205">
        <ele>324.64</ele>
        <time>2019-09-21T08:47:02.000Z</time>
      </trkpt>
      <trkpt lat="44.05915" lon="5.21209">
        <ele>324.59</ele>
        <time>2019-09-21T08:47:04.000Z</time>
      </trkpt>
      <trkpt lat="44.05904" lon="5.21216">
        <ele>324.49</ele>
        <time>2019-09-21T08:47:06.000Z</time>
      </trkpt>
      <trkpt lat="44.05892" lon="5.21213">
        <ele>324.42</ele>
        <time>2019-09-21T08:47:08.000Z</time>
      </trkpt>
      <trkpt lat="44.05879" lon="5.21216">
        <ele>324.35</ele>
        <time>2019-09-21T08:47:10.000Z</time>
      </trkpt>
      <trkpt lat="44.05868" lon="5.21214">
        <ele>324.33</ele>
        <time>2019-09-21T08:47:12.000Z</time>
      </trkpt>
      <trkpt lat="44.05857" lon="5.21215">
        <ele>324.32</ele>
        <time>2019-09-21T08:47:17.000Z</time>
      </trkpt>
      <trkpt lat="44.05848" lon="5.21224">
        <ele>324.31</ele>
        <time>2019-09-21T08:47:21.000Z</time>
      </trkpt>
      <trkpt lat="44.05839" lon="5.21231">
        <ele>324.31</ele>
        <time>2019-09-21T08:47:26.000Z</time>
      </trkpt>
      <trkpt lat="44.0583" lon="5.21234">
        <ele>324.3</ele>
        <time>2019-09-21T08:47:30.000Z</time>
      </trkpt>
      <trkpt lat="44.0582" lon="5.21233">
        <ele>324.27</ele>
        <time>2019-09-21T08:47:38.000Z</time>
      </trkpt>
      <trkpt lat="44.05812" lon="5.21227">
        <ele>324.25</ele>
        <time>2019-09-21T08:47:41.000Z</time>
      </trkpt>
      <trkpt lat="44.05804" lon="5.21219">
        <ele>324.22</ele>
        <time>2019-09-21T08:47:45.000Z</time>
      </trkpt>
      <trkpt lat="44.05799" lon="5.21206">
        <ele>324.17</ele>
        <time>2019-09-21T08:47:50.000Z</time>
      </trkpt>
      <trkpt lat="44.05796" lon="5.21194">
        <ele>324.14</ele>
        <time>2019-09-21T08:47:53.000Z</time>
      </trkpt>
      <trkpt lat="44.05793" lon="5.21182">
        <ele>324.1</ele>
        <time>2019-09-21T08:47:56.000Z</time>
      </trkpt>
      <trkpt lat="44.05789" lon="5.21171">
        <ele>324.02</ele>
        <time>2019-09-21T08:48:03.000Z</time>
      </trkpt>
      <trkpt lat="44.05789" lon="5.21156">
        <ele>323.94</ele>
        <time>2019-09-21T08:48:10.000Z</time>
      </trkpt>
      <trkpt lat="44.05792" lon="5.21141">
        <ele>323.89</ele>
        <time>2019-09-21T08:48:14.000Z</time>
      </trkpt>
      <trkpt lat="44.05798" lon="5.21131">
        <ele>323.85</ele>
        <time>2019-09-21T08:48:18.000Z</time>
      </trkpt>
      <trkpt lat="44.05799" lon="5.21115">
        <ele>323.8</ele>
        <time>2019-09-21T08:48:22.000Z</time>
      </trkpt>
      <trkpt lat="44.05801" lon="5.21103">
        <ele>323.76</ele>
        <time>2019-09-21T08:48:26.000Z</time>
      </trkpt>
      <trkpt lat="44.05805" lon="5.21087">
        <ele>323.7</ele>
        <time>2019-09-21T08:48:32.000Z</time>
      </trkpt>
      <trkpt lat="44.05807" lon="5.21075">
        <ele>323.67</ele>
        <time>2019-09-21T08:48:35.000Z</time>
      </trkpt>
      <trkpt lat="44.05809" lon="5.21061">
        <ele>323.45</ele>
        <time>2019-09-21T08:48:37.000Z</time>
      </trkpt>
      <trkpt lat="44.05812" lon="5.2104">
        <ele>323.25</ele>
        <time>2019-09-21T08:48:39.000Z</time>
      </trkpt>
      <trkpt lat="44.05815" lon="5.21022">
        <ele>323.07</ele>
        <time>2019-09-21T08:48:41.000Z</time>
      </trkpt>
      <trkpt lat="44.05817" lon="5.21006">
        <ele>322.92</ele>
        <time>2019-09-21T08:48:43.000Z</time>
      </trkpt>
      <trkpt lat="44.05817" lon="5.20992">
        <ele>322.8</ele>
        <time>2019-09-21T08:48:45.000Z</time>
      </trkpt>
      <trkpt lat="44.05815" lon="5.20976">
        <ele>322.73</ele>
        <time>2019-09-21T08:48:48.000Z</time>
      </trkpt>
      <trkpt lat="44.05811" lon="5.2096">
        <ele>322.42</ele>
        <time>2019-09-21T08:48:51.000Z</time>
      </trkpt>
      <trkpt lat="44.05807" lon="5.20948">
        <ele>322.14</ele>
        <time>2019-09-21T08:48:53.000Z</time>
      </trkpt>
      <trkpt lat="44.05803" lon="5.20935">
        <ele>322.03</ele>
        <time>2019-09-21T08:48:56.000Z</time>
      </trkpt>
      <trkpt lat="44.05797" lon="5.20923">
        <ele>321.9</ele>
        <time>2019-09-21T08:48:59.000Z</time>
      </trkpt>
      <trkpt lat="44.05791" lon="5.20913">
        <ele>321.75</ele>
        <time>2019-09-21T08:49:02.000Z</time>
      </trkpt>
      <trkpt lat="44.05784" lon="5.20902">
        <ele>321.52</ele>
        <time>2019-09-21T08:49:06.000Z</time>
      </trkpt>
      <trkpt lat="44.05777" lon="5.20892">
        <ele>321.24</ele>
        <time>2019-09-21T08:49:10.000Z</time>
      </trkpt>
      <trkpt lat="44.05768" lon="5.20885">
        <ele>320.86</ele>
        <time>2019-09-21T08:49:15.000Z</time>
      </trkpt>
      <trkpt lat="44.05758" lon="5.20885">
        <ele>320.48</ele>
        <time>2019-09-21T08:49:20.000Z</time>
      </trkpt>
      <trkpt lat="44.05749" lon="5.20891">
        <ele>320.19</ele>
        <time>2019-09-21T08:49:24.000Z</time>
      </trkpt>
      <trkpt lat="44.05743" lon="5.20904">
        <ele>319.7</ele>
        <time>2019-09-21T08:49:31.000Z</time>
      </trkpt>
      <trkpt lat="44.0574" lon="5.2092">
        <ele>318.21</ele>
        <time>2019-09-21T08:49:34.000Z</time>
      </trkpt>
      <trkpt lat="44.05728" lon="5.20923">
        <ele>317.21</ele>
        <time>2019-09-21T08:49:37.000Z</time>
      </trkpt>
      <trkpt lat="44.05716" lon="5.20922">
        <ele>317.1</ele>
        <time>2019-09-21T08:49:40.000Z</time>
      </trkpt>
      <trkpt lat="44.05705" lon="5.20917">
        <ele>316.97</ele>
        <time>2019-09-21T08:49:43.000Z</time>
      </trkpt>
      <trkpt lat="44.05693" lon="5.20914">
        <ele>316.4</ele>
        <time>2019-09-21T08:49:46.000Z</time>
      </trkpt>
      <trkpt lat="44.05683" lon="5.20908">
        <ele>315.89</ele>
        <time>2019-09-21T08:49:49.000Z</time>
      </trkpt>
      <trkpt lat="44.05674" lon="5.20898">
        <ele>315.77</ele>
        <time>2019-09-21T08:49:52.000Z</time>
      </trkpt>
      <trkpt lat="44.05665" lon="5.20885">
        <ele>314.5</ele>
        <time>2019-09-21T08:49:55.000Z</time>
      </trkpt>
      <trkpt lat="44.05657" lon="5.20874">
        <ele>314.4</ele>
        <time>2019-09-21T08:49:58.000Z</time>
      </trkpt>
      <trkpt lat="44.0565" lon="5.20862">
        <ele>314.29</ele>
        <time>2019-09-21T08:50:01.000Z</time>
      </trkpt>
      <trkpt lat="44.05641" lon="5.20852">
        <ele>313.76</ele>
        <time>2019-09-21T08:50:04.000Z</time>
      </trkpt>
      <trkpt lat="44.05634" lon="5.20841">
        <ele>313.35</ele>
        <time>2019-09-21T08:50:06.000Z</time>
      </trkpt>
      <trkpt lat="44.05627" lon="5.20826">
        <ele>312.5</ele>
        <time>2019-09-21T08:50:09.000Z</time>
      </trkpt>
      <trkpt lat="44.05619" lon="5.20814">
        <ele>312.26</ele>
        <time>2019-09-21T08:50:12.000Z</time>
      </trkpt>
      <trkpt lat="44.05613" lon="5.20804">
        <ele>311.95</ele>
        <time>2019-09-21T08:50:15.000Z</time>
      </trkpt>
      <trkpt lat="44.05604" lon="5.20793">
        <ele>311.54</ele>
        <time>2019-09-21T08:50:18.000Z</time>
      </trkpt>
      <trkpt lat="44.05594" lon="5.20785">
        <ele>311.17</ele>
        <time>2019-09-21T08:50:21.000Z</time>
      </trkpt>
      <trkpt lat="44.05584" lon="5.20779">
        <ele>310.76</ele>
        <time>2019-09-21T08:50:24.000Z</time>
      </trkpt>
      <trkpt lat="44.05575" lon="5.20767">
        <ele>310.41</ele>
        <time>2019-09-21T08:50:27.000Z</time>
      </trkpt>
      <trkpt lat="44.05571" lon="5.20755">
        <ele>310.23</ele>
        <time>2019-09-21T08:50:29.000Z</time>
      </trkpt>
      <trkpt lat="44.05565" lon="5.20736">
        <ele>309.86</ele>
        <time>2019-09-21T08:50:32.000Z</time>
      </trkpt>
      <trkpt lat="44.05561" lon="5.20721">
        <ele>309.68</ele>
        <time>2019-09-21T08:50:34.000Z</time>
      </trkpt>
      <trkpt lat="44.05549" lon="5.20709">
        <ele>309.54</ele>
        <time>2019-09-21T08:50:36.000Z</time>
      </trkpt>
      <trkpt lat="44.05534" lon="5.20699">
        <ele>309.37</ele>
        <time>2019-09-21T08:50:38.000Z</time>
      </trkpt>
      <trkpt lat="44.0552" lon="5.20689">
        <ele>308.84</ele>
        <time>2019-09-21T08:50:40.000Z</time>
      </trkpt>
      <trkpt lat="44.05506" lon="5.20686">
        <ele>308.19</ele>
        <time>2019-09-21T08:50:42.000Z</time>
      </trkpt>
      <trkpt lat="44.05495" lon="5.20686">
        <ele>307.27</ele>
        <time>2019-09-21T08:50:44.000Z</time>
      </trkpt>
      <trkpt lat="44.05485" lon="5.20681">
        <ele>306.31</ele>
        <time>2019-09-21T08:50:46.000Z</time>
      </trkpt>
      <trkpt lat="44.05474" lon="5.20678">
        <ele>305.38</ele>
        <time>2019-09-21T08:50:48.000Z</time>
      </trkpt>
      <trkpt lat="44.05461" lon="5.20675">
        <ele>304.37</ele>
        <time>2019-09-21T08:50:50.000Z</time>
      </trkpt>
      <trkpt lat="44.05448" lon="5.20673">
        <ele>303.2</ele>
        <time>2019-09-21T08:50:52.000Z</time>
      </trkpt>
      <trkpt lat="44.05436" lon="5.20671">
        <ele>302.33</ele>
        <time>2019-09-21T08:50:54.000Z</time>
      </trkpt>
      <trkpt lat="44.05426" lon="5.2067">
        <ele>301.67</ele>
        <time>2019-09-21T08:50:56.000Z</time>
      </trkpt>
      <trkpt lat="44.05415" lon="5.2067">
        <ele>300.99</ele>
        <time>2019-09-21T08:50:59.000Z</time>
      </trkpt>
      <trkpt lat="44.05403" lon="5.20671">
        <ele>300.89</ele>
        <time>2019-09-21T08:51:02.000Z</time>
      </trkpt>
      <trkpt lat="44.05395" lon="5.20676">
        <ele>300.72</ele>
        <time>2019-09-21T08:51:06.000Z</time>
      </trkpt>
      <trkpt lat="44.05387" lon="5.20685">
        <ele>300.39</ele>
        <time>2019-09-21T08:51:11.000Z</time>
      </trkpt>
      <trkpt lat="44.05384" lon="5.20699">
        <ele>299.95</ele>
        <time>2019-09-21T08:51:17.000Z</time>
      </trkpt>
      <trkpt lat="44.05381" lon="5.20713">
        <ele>299.38</ele>
        <time>2019-09-21T08:51:24.000Z</time>
      </trkpt>
      <trkpt lat="44.05379" lon="5.20725">
        <ele>298.72</ele>
        <time>2019-09-21T08:51:33.000Z</time>
      </trkpt>
      <trkpt lat="44.05379" lon="5.20738">
        <ele>298.26</ele>
        <time>2019-09-21T08:51:40.000Z</time>
      </trkpt>
      <trkpt lat="44.0538" lon="5.20753">
        <ele>297.91</ele>
        <time>2019-09-21T08:51:46.000Z</time>
      </trkpt>
      <trkpt lat="44.05379" lon="5.20768">
        <ele>297.59</ele>
        <time>2019-09-21T08:51:52.000Z</time>
      </trkpt>
      <trkpt lat="44.05377" lon="5.20782">
        <ele>297.2</ele>
        <time>2019-09-21T08:52:00.000Z</time>
      </trkpt>
      <trkpt lat="44.05376" lon="5.20795">
        <ele>296.96</ele>
        <time>2019-09-21T08:52:05.000Z</time>
      </trkpt>
      <trkpt lat="44.05375" lon="5.20808">
        <ele>296.65</ele>
        <time>2019-09-21T08:52:12.000Z</time>
      </trkpt>
      <trkpt lat="44.05375" lon="5.20822">
        <ele>296.46</ele>
        <time>2019-09-21T08:52:17.000Z</time>
      </trkpt>
      <trkpt lat="44.05375" lon="5.20835">
        <ele>296.25</ele>
        <time>2019-09-21T08:52:23.000Z</time>
      </trkpt>
      <trkpt lat="44.05375" lon="5.20849">
        <ele>296.07</ele>
        <time>2019-09-21T08:52:29.000Z</time>
      </trkpt>
      <trkpt lat="44.05373" lon="5.20863">
        <ele>295.91</ele>
        <time>2019-09-21T08:52:35.000Z</time>
      </trkpt>
      <trkpt lat="44.05372" lon="5.20876">
        <ele>295.79</ele>
        <time>2019-09-21T08:52:40.000Z</time>
      </trkpt>
      <trkpt lat="44.05372" lon="5.2089">
        <ele>295.64</ele>
        <time>2019-09-21T08:52:47.000Z</time>
      </trkpt>
      <trkpt lat="44.05373" lon="5.20903">
        <ele>295.55</ele>
        <time>2019-09-21T08:52:52.000Z</time>
      </trkpt>
      <trkpt lat="44.0537" lon="5.20918">
        <ele>295.45</ele>
        <time>2019-09-21T08:52:58.000Z</time>
      </trkpt>
      <trkpt lat="44.05367" lon="5.2093">
        <ele>295.37</ele>
        <time>2019-09-21T08:53:03.000Z</time>
      </trkpt>
      <trkpt lat="44.05367" lon="5.20945">
        <ele>295.3</ele>
        <time>2019-09-21T08:53:08.000Z</time>
      </trkpt>
      <trkpt lat="44.05365" lon="5.20958">
        <ele>295.24</ele>
        <time>2019-09-21T08:53:13.000Z</time>
      </trkpt>
      <trkpt lat="44.05365" lon="5.20972">
        <ele>295.18</ele>
        <time>2019-09-21T08:53:18.000Z</time>
      </trkpt>
      <trkpt lat="44.05363" lon="5.20986">
        <ele>295.13</ele>
        <time>2019-09-21T08:53:23.000Z</time>
      </trkpt>
      <trkpt lat="44.0536" lon="5.20999">
        <ele>295.09</ele>
        <time>2019-09-21T08:53:29.000Z</time>
      </trkpt>
      <trkpt lat="44.05363" lon="5.21012">
        <ele>295.06</ele>
        <time>2019-09-21T08:53:35.000Z</time>
      </trkpt>
      <trkpt lat="44.05367" lon="5.21023">
        <ele>295.5</ele>
        <time>2019-09-21T08:54:53.000Z</time>
      </trkpt>
      <trkpt lat="44.05375" lon="5.21016">
        <ele>296.94</ele>
        <time>2019-09-21T08:56:58.999Z</time>
      </trkpt>
      <trkpt lat="44.05382" lon="5.21025">
        <ele>297.85</ele>
        <time>2019-09-21T08:57:57.999Z</time>
      </trkpt>
      <trkpt lat="44.0539" lon="5.21032">
        <ele>297.98</ele>
        <time>2019-09-21T08:58:00.999Z</time>
      </trkpt>
      <trkpt lat="44.054" lon="5.21039">
        <ele>298.44</ele>
        <time>2019-09-21T08:58:03.999Z</time>
      </trkpt>
      <trkpt lat="44.05409" lon="5.21043">
        <ele>298.98</ele>
        <time>2019-09-21T08:58:05.999Z</time>
      </trkpt>
      <trkpt lat="44.05418" lon="5.21054">
        <ele>299.31</ele>
        <time>2019-09-21T08:58:07.999Z</time>
      </trkpt>
      <trkpt lat="44.05427" lon="5.21064">
        <ele>299.5</ele>
        <time>2019-09-21T08:58:09.999Z</time>
      </trkpt>
      <trkpt lat="44.05437" lon="5.21069">
        <ele>299.62</ele>
        <time>2019-09-21T08:58:11.999Z</time>
      </trkpt>
      <trkpt lat="44.05447" lon="5.21073">
        <ele>299.68</ele>
        <time>2019-09-21T08:58:13.999Z</time>
      </trkpt>
      <trkpt lat="44.05458" lon="5.21075">
        <ele>299.69</ele>
        <time>2019-09-21T08:58:17.999Z</time>
      </trkpt>
      <trkpt lat="44.05467" lon="5.21072">
        <ele>299.7</ele>
        <time>2019-09-21T08:58:20.999Z</time>
      </trkpt>
      <trkpt lat="44.05477" lon="5.21074">
        <ele>299.72</ele>
        <time>2019-09-21T08:58:23.999Z</time>
      </trkpt>
      <trkpt lat="44.05489" lon="5.21077">
        <ele>299.72</ele>
        <time>2019-09-21T08:58:26.999Z</time>
      </trkpt>
      <trkpt lat="44.05497" lon="5.21082">
        <ele>299.73</ele>
        <time>2019-09-21T08:58:28.999Z</time>
      </trkpt>
      <trkpt lat="44.05507" lon="5.21083">
        <ele>299.77</ele>
        <time>2019-09-21T08:58:31.999Z</time>
      </trkpt>
      <trkpt lat="44.05518" lon="5.21083">
        <ele>299.8</ele>
        <time>2019-09-21T08:58:34.999Z</time>
      </trkpt>
      <trkpt lat="44.05529" lon="5.21086">
        <ele>299.81</ele>
        <time>2019-09-21T08:58:39.999Z</time>
      </trkpt>
      <trkpt lat="44.0554" lon="5.21091">
        <ele>299.82</ele>
        <time>2019-09-21T08:58:42.999Z</time>
      </trkpt>
      <trkpt lat="44.05547" lon="5.21097">
        <ele>299.82</ele>
        <time>2019-09-21T08:58:44.999Z</time>
      </trkpt>
      <trkpt lat="44.05556" lon="5.21102">
        <ele>299.83</ele>
        <time>2019-09-21T08:58:47.999Z</time>
      </trkpt>
      <trkpt lat="44.05569" lon="5.21108">
        <ele>299.84</ele>
        <time>2019-09-21T08:58:50.999Z</time>
      </trkpt>
      <trkpt lat="44.05578" lon="5.21112">
        <ele>299.85</ele>
        <time>2019-09-21T08:58:53.999Z</time>
      </trkpt>
      <trkpt lat="44.05589" lon="5.21115">
        <ele>299.86</ele>
        <time>2019-09-21T08:58:57.999Z</time>
      </trkpt>
      <trkpt lat="44.05599" lon="5.21121">
        <ele>299.87</ele>
        <time>2019-09-21T08:59:01.999Z</time>
      </trkpt>
      <trkpt lat="44.05609" lon="5.2113">
        <ele>299.87</ele>
        <time>2019-09-21T08:59:05.999Z</time>
      </trkpt>
      <trkpt lat="44.0562" lon="5.21136">
        <ele>299.88</ele>
        <time>2019-09-21T08:59:09.999Z</time>
      </trkpt>
      <trkpt lat="44.05629" lon="5.2114">
        <ele>299.88</ele>
        <time>2019-09-21T08:59:13.999Z</time>
      </trkpt>
      <trkpt lat="44.05638" lon="5.21142">
        <ele>299.88</ele>
        <time>2019-09-21T08:59:16.999Z</time>
      </trkpt>
      <trkpt lat="44.0565" lon="5.21147">
        <ele>299.88</ele>
        <time>2019-09-21T08:59:21.999Z</time>
      </trkpt>
      <trkpt lat="44.05662" lon="5.21154">
        <ele>299.87</ele>
        <time>2019-09-21T08:59:25.999Z</time>
      </trkpt>
      <trkpt lat="44.05668" lon="5.21165">
        <ele>299.88</ele>
        <time>2019-09-21T08:59:29.999Z</time>
      </trkpt>
      <trkpt lat="44.05672" lon="5.21179">
        <ele>299.88</ele>
        <time>2019-09-21T08:59:34.999Z</time>
      </trkpt>
      <trkpt lat="44.05677" lon="5.21194">
        <ele>299.88</ele>
        <time>2019-09-21T08:59:38.999Z</time>
      </trkpt>
      <trkpt lat="44.05682" lon="5.21207">
        <ele>299.88</ele>
        <time>2019-09-21T08:59:43.999Z</time>
      </trkpt>
      <trkpt lat="44.05686" lon="5.21218">
        <ele>299.9</ele>
        <time>2019-09-21T08:59:48.999Z</time>
      </trkpt>
      <trkpt lat="44.05691" lon="5.21229">
        <ele>299.9</ele>
        <time>2019-09-21T08:59:52.999Z</time>
      </trkpt>
      <trkpt lat="44.057" lon="5.21239">
        <ele>299.91</ele>
        <time>2019-09-21T08:59:56.999Z</time>
      </trkpt>
      <trkpt lat="44.05707" lon="5.21248">
        <ele>299.94</ele>
        <time>2019-09-21T09:00:03.999Z</time>
      </trkpt>
      <trkpt lat="44.05714" lon="5.21256">
        <ele>299.98</ele>
        <time>2019-09-21T09:00:09.999Z</time>
      </trkpt>
      <trkpt lat="44.05714" lon="5.21269">
        <ele>300.02</ele>
        <time>2019-09-21T09:00:17.999Z</time>
      </trkpt>
      <trkpt lat="44.05721" lon="5.2128">
        <ele>300.05</ele>
        <time>2019-09-21T09:00:22.999Z</time>
      </trkpt>
      <trkpt lat="44.0573" lon="5.2128">
        <ele>300.08</ele>
        <time>2019-09-21T09:00:30.999Z</time>
      </trkpt>
      <trkpt lat="44.05741" lon="5.21275">
        <ele>300.1</ele>
        <time>2019-09-21T09:00:36.999Z</time>
      </trkpt>
      <trkpt lat="44.0575" lon="5.2127">
        <ele>300.11</ele>
        <time>2019-09-21T09:00:42.999Z</time>
      </trkpt>
      <trkpt lat="44.05759" lon="5.21265">
        <ele>300.14</ele>
        <time>2019-09-21T09:00:50.999Z</time>
      </trkpt>
      <trkpt lat="44.05771" lon="5.21261">
        <ele>300.19</ele>
        <time>2019-09-21T09:00:56.999Z</time>
      </trkpt>
      <trkpt lat="44.05788" lon="5.21262">
        <ele>300.23</ele>
        <time>2019-09-21T09:01:00.999Z</time>
      </trkpt>
      <trkpt lat="44.05798" lon="5.21267">
        <ele>300.26</ele>
        <time>2019-09-21T09:01:02.999Z</time>
      </trkpt>
      <trkpt lat="44.05806" lon="5.21276">
        <ele>300.39</ele>
        <time>2019-09-21T09:01:09.999Z</time>
      </trkpt>
      <trkpt lat="44.05806" lon="5.21289">
        <ele>301.01</ele>
        <time>2019-09-21T09:01:37.999Z</time>
      </trkpt>
      <trkpt lat="44.05808" lon="5.21302">
        <ele>301.76</ele>
        <time>2019-09-21T09:01:52.999Z</time>
      </trkpt>
      <trkpt lat="44.05805" lon="5.21314">
        <ele>302.52</ele>
        <time>2019-09-21T09:02:08.999Z</time>
      </trkpt>
      <trkpt lat="44.05807" lon="5.21327">
        <ele>302.93</ele>
        <time>2019-09-21T09:02:21.999Z</time>
      </trkpt>
      <trkpt lat="44.0581" lon="5.2134">
        <ele>303.22</ele>
        <time>2019-09-21T09:02:28.999Z</time>
      </trkpt>
      <trkpt lat="44.05811" lon="5.21353">
        <ele>303.4</ele>
        <time>2019-09-21T09:02:33.999Z</time>
      </trkpt>
      <trkpt lat="44.05812" lon="5.21367">
        <ele>303.61</ele>
        <time>2019-09-21T09:02:39.999Z</time>
      </trkpt>
      <trkpt lat="44.05819" lon="5.21378">
        <ele>303.84</ele>
        <time>2019-09-21T09:02:46.999Z</time>
      </trkpt>
      <trkpt lat="44.05823" lon="5.21391">
        <ele>303.97</ele>
        <time>2019-09-21T09:02:50.999Z</time>
      </trkpt>
      <trkpt lat="44.05824" lon="5.21404">
        <ele>304.25</ele>
        <time>2019-09-21T09:02:59.999Z</time>
      </trkpt>
      <trkpt lat="44.05823" lon="5.21417">
        <ele>304.52</ele>
        <time>2019-09-21T09:03:06.999Z</time>
      </trkpt>
      <trkpt lat="44.05818" lon="5.21428">
        <ele>304.94</ele>
        <time>2019-09-21T09:03:17.999Z</time>
      </trkpt>
      <trkpt lat="44.05812" lon="5.21437">
        <ele>305.18</ele>
        <time>2019-09-21T09:03:25.999Z</time>
      </trkpt>
      <trkpt lat="44.05803" lon="5.21442">
        <ele>305.36</ele>
        <time>2019-09-21T09:03:32.999Z</time>
      </trkpt>
      <trkpt lat="44.05798" lon="5.21455">
        <ele>305.47</ele>
        <time>2019-09-21T09:03:38.999Z</time>
      </trkpt>
      <trkpt lat="44.05805" lon="5.21465">
        <ele>305.55</ele>
        <time>2019-09-21T09:03:44.999Z</time>
      </trkpt>
      <trkpt lat="44.0581" lon="5.21476">
        <ele>305.63</ele>
        <time>2019-09-21T09:03:50.999Z</time>
      </trkpt>
      <trkpt lat="44.05811" lon="5.2149">
        <ele>305.68</ele>
        <time>2019-09-21T09:03:54.999Z</time>
      </trkpt>
      <trkpt lat="44.05815" lon="5.21503">
        <ele>305.76</ele>
        <time>2019-09-21T09:03:59.999Z</time>
      </trkpt>
      <trkpt lat="44.05818" lon="5.21516">
        <ele>305.81</ele>
        <time>2019-09-21T09:04:03.999Z</time>
      </trkpt>
      <trkpt lat="44.05824" lon="5.21526">
        <ele>305.86</ele>
        <time>2019-09-21T09:04:08.999Z</time>
      </trkpt>
      <trkpt lat="44.05829" lon="5.21539">
        <ele>305.93</ele>
        <time>2019-09-21T09:04:14.999Z</time>
      </trkpt>
      <trkpt lat="44.05835" lon="5.2155">
        <ele>305.99</ele>
        <time>2019-09-21T09:04:18.999Z</time>
      </trkpt>
      <trkpt lat="44.05841" lon="5.2156">
        <ele>306.06</ele>
        <time>2019-09-21T09:04:22.999Z</time>
      </trkpt>
      <trkpt lat="44.05847" lon="5.21572">
        <ele>306.14</ele>
        <time>2019-09-21T09:04:27.999Z</time>
      </trkpt>
      <trkpt lat="44.05853" lon="5.21584">
        <ele>306.22</ele>
        <time>2019-09-21T09:04:32.999Z</time>
      </trkpt>
      <trkpt lat="44.0585" lon="5.21597">
        <ele>306.35</ele>
        <time>2019-09-21T09:04:37.999Z</time>
      </trkpt>
      <trkpt lat="44.0585" lon="5.2161">
        <ele>306.47</ele>
        <time>2019-09-21T09:04:41.999Z</time>
      </trkpt>
      <trkpt lat="44.05856" lon="5.2162">
        <ele>306.67</ele>
        <time>2019-09-21T09:04:45.999Z</time>
      </trkpt>
      <trkpt lat="44.05865" lon="5.21627">
        <ele>307.24</ele>
        <time>2019-09-21T09:04:52.999Z</time>
      </trkpt>
      <trkpt lat="44.05875" lon="5.21631">
        <ele>307.9</ele>
        <time>2019-09-21T09:04:58.999Z</time>
      </trkpt>
      <trkpt lat="44.05884" lon="5.21634">
        <ele>308.64</ele>
        <time>2019-09-21T09:05:04.999Z</time>
      </trkpt>
      <trkpt lat="44.05893" lon="5.2164">
        <ele>309.3</ele>
        <time>2019-09-21T09:05:09.999Z</time>
      </trkpt>
      <trkpt lat="44.05903" lon="5.21645">
        <ele>310.12</ele>
        <time>2019-09-21T09:05:15.999Z</time>
      </trkpt>
      <trkpt lat="44.05911" lon="5.2165">
        <ele>310.93</ele>
        <time>2019-09-21T09:05:21.999Z</time>
      </trkpt>
      <trkpt lat="44.0592" lon="5.21655">
        <ele>311.46</ele>
        <time>2019-09-21T09:05:25.999Z</time>
      </trkpt>
      <trkpt lat="44.05928" lon="5.21661">
        <ele>312.37</ele>
        <time>2019-09-21T09:05:32.999Z</time>
      </trkpt>
      <trkpt lat="44.05937" lon="5.21667">
        <ele>312.99</ele>
        <time>2019-09-21T09:05:37.999Z</time>
      </trkpt>
      <trkpt lat="44.05946" lon="5.21671">
        <ele>313.81</ele>
        <time>2019-09-21T09:05:44.999Z</time>
      </trkpt>
      <trkpt lat="44.05954" lon="5.21666">
        <ele>314.45</ele>
        <time>2019-09-21T09:05:50.999Z</time>
      </trkpt>
      <trkpt lat="44.05963" lon="5.21666">
        <ele>315.13</ele>
        <time>2019-09-21T09:05:57.999Z</time>
      </trkpt>
      <trkpt lat="44.05972" lon="5.21671">
        <ele>315.59</ele>
        <time>2019-09-21T09:06:02.999Z</time>
      </trkpt>
      <trkpt lat="44.05982" lon="5.21666">
        <ele>316.03</ele>
        <time>2019-09-21T09:06:07.999Z</time>
      </trkpt>
      <trkpt lat="44.05987" lon="5.21656">
        <ele>316.27</ele>
        <time>2019-09-21T09:06:10.999Z</time>
      </trkpt>
      <trkpt lat="44.05994" lon="5.21644">
        <ele>316.67</ele>
        <time>2019-09-21T09:06:15.999Z</time>
      </trkpt>
      <trkpt lat="44.05999" lon="5.21634">
        <ele>317.18</ele>
        <time>2019-09-21T09:06:22.999Z</time>
      </trkpt>
      <trkpt lat="44.06006" lon="5.21624">
        <ele>317.69</ele>
        <time>2019-09-21T09:06:30.999Z</time>
      </trkpt>
      <trkpt lat="44.06015" lon="5.21622">
        <ele>318.43</ele>
        <time>2019-09-21T09:06:44.999Z</time>
      </trkpt>
      <trkpt lat="44.06021" lon="5.21631">
        <ele>319.01</ele>
        <time>2019-09-21T09:06:57.999Z</time>
      </trkpt>
      <trkpt lat="44.06028" lon="5.21617">
        <ele>319.89</ele>
        <time>2019-09-21T09:07:03.999Z</time>
      </trkpt>
      <trkpt lat="44.06032" lon="5.21606">
        <ele>320.09</ele>
        <time>2019-09-21T09:07:14.999Z</time>
      </trkpt>
      <trkpt lat="44.06039" lon="5.21598">
        <ele>320.63</ele>
        <time>2019-09-21T09:07:30.999Z</time>
      </trkpt>
      <trkpt lat="44.06045" lon="5.21611">
        <ele>320.68</ele>
        <time>2019-09-21T09:07:40.999Z</time>
      </trkpt>
      <trkpt lat="44.06035" lon="5.21612">
        <ele>320.79</ele>
        <time>2019-09-21T09:08:27.999Z</time>
      </trkpt>
      <trkpt lat="44.06026" lon="5.21608">
        <ele>320.81</ele>
        <time>2019-09-21T09:09:07.999Z</time>
      </trkpt>
      <trkpt lat="44.06016" lon="5.21612">
        <ele>320.42</ele>
        <time>2019-09-21T09:09:31.999Z</time>
      </trkpt>
      <trkpt lat="44.06008" lon="5.2162">
        <ele>320.3</ele>
        <time>2019-09-21T09:09:36.999Z</time>
      </trkpt>
      <trkpt lat="44.06014" lon="5.21636">
        <ele>320.2</ele>
        <time>2019-09-21T09:09:40.999Z</time>
      </trkpt>
      <trkpt lat="44.06019" lon="5.21647">
        <ele>320.13</ele>
        <time>2019-09-21T09:09:42.999Z</time>
      </trkpt>
      <trkpt lat="44.06027" lon="5.21658">
        <ele>320.07</ele>
        <time>2019-09-21T09:09:44.999Z</time>
      </trkpt>
      <trkpt lat="44.06036" lon="5.21662">
        <ele>319.83</ele>
        <time>2019-09-21T09:09:51.999Z</time>
      </trkpt>
      <trkpt lat="44.06042" lon="5.21676">
        <ele>319.53</ele>
        <time>2019-09-21T09:10:00.999Z</time>
      </trkpt>
      <trkpt lat="44.0605" lon="5.21684">
        <ele>319.34</ele>
        <time>2019-09-21T09:10:05.999Z</time>
      </trkpt>
      <trkpt lat="44.0606" lon="5.21694">
        <ele>319.12</ele>
        <time>2019-09-21T09:10:11.999Z</time>
      </trkpt>
      <trkpt lat="44.06068" lon="5.217">
        <ele>319</ele>
        <time>2019-09-21T09:10:14.999Z</time>
      </trkpt>
      <trkpt lat="44.06076" lon="5.21716">
        <ele>318.63</ele>
        <time>2019-09-21T09:10:25.999Z</time>
      </trkpt>
      <trkpt lat="44.06084" lon="5.21722">
        <ele>318.49</ele>
        <time>2019-09-21T09:10:29.999Z</time>
      </trkpt>
      <trkpt lat="44.06094" lon="5.21733">
        <ele>318.26</ele>
        <time>2019-09-21T09:10:35.999Z</time>
      </trkpt>
      <trkpt lat="44.06107" lon="5.21737">
        <ele>317.98</ele>
        <time>2019-09-21T09:10:41.999Z</time>
      </trkpt>
      <trkpt lat="44.06118" lon="5.21746">
        <ele>317.49</ele>
        <time>2019-09-21T09:10:55.999Z</time>
      </trkpt>
      <trkpt lat="44.06127" lon="5.21756">
        <ele>317.34</ele>
        <time>2019-09-21T09:11:01.999Z</time>
      </trkpt>
      <trkpt lat="44.06133" lon="5.2177">
        <ele>317.27</ele>
        <time>2019-09-21T09:11:04.999Z</time>
      </trkpt>
      <trkpt lat="44.06142" lon="5.21776">
        <ele>317.23</ele>
        <time>2019-09-21T09:11:06.999Z</time>
      </trkpt>
      <trkpt lat="44.06151" lon="5.21782">
        <ele>316.73</ele>
        <time>2019-09-21T09:11:25.999Z</time>
      </trkpt>
      <trkpt lat="44.06162" lon="5.2178">
        <ele>316.54</ele>
        <time>2019-09-21T09:11:30.999Z</time>
      </trkpt>
      <trkpt lat="44.06171" lon="5.21789">
        <ele>316.2</ele>
        <time>2019-09-21T09:11:42.999Z</time>
      </trkpt>
      <trkpt lat="44.06182" lon="5.21789">
        <ele>316.11</ele>
        <time>2019-09-21T09:11:54.999Z</time>
      </trkpt>
      <trkpt lat="44.06191" lon="5.21786">
        <ele>316.08</ele>
        <time>2019-09-21T09:12:00.999Z</time>
      </trkpt>
      <trkpt lat="44.06195" lon="5.21774">
        <ele>316.61</ele>
        <time>2019-09-21T09:12:21.999Z</time>
      </trkpt>
      <trkpt lat="44.062" lon="5.21764">
        <ele>316.99</ele>
        <time>2019-09-21T09:12:29.999Z</time>
      </trkpt>
      <trkpt lat="44.06207" lon="5.21754">
        <ele>319.08</ele>
        <time>2019-09-21T09:13:11.999Z</time>
      </trkpt>
      <trkpt lat="44.06215" lon="5.21762">
        <ele>324.74</ele>
        <time>2019-09-21T09:14:13.999Z</time>
      </trkpt>
      <trkpt lat="44.06214" lon="5.21775">
        <ele>326.97</ele>
        <time>2019-09-21T09:14:24.999Z</time>
      </trkpt>
      <trkpt lat="44.06222" lon="5.21783">
        <ele>328.37</ele>
        <time>2019-09-21T09:14:31.999Z</time>
      </trkpt>
      <trkpt lat="44.06227" lon="5.21794">
        <ele>329.12</ele>
        <time>2019-09-21T09:14:35.999Z</time>
      </trkpt>
      <trkpt lat="44.06231" lon="5.21806">
        <ele>330.47</ele>
        <time>2019-09-21T09:14:43.999Z</time>
      </trkpt>
      <trkpt lat="44.0624" lon="5.21812">
        <ele>331.42</ele>
        <time>2019-09-21T09:14:50.000Z</time>
      </trkpt>
      <trkpt lat="44.0625" lon="5.21822">
        <ele>332.34</ele>
        <time>2019-09-21T09:14:56.000Z</time>
      </trkpt>
      <trkpt lat="44.06254" lon="5.21835">
        <ele>333.64</ele>
        <time>2019-09-21T09:15:05.000Z</time>
      </trkpt>
      <trkpt lat="44.06258" lon="5.21846">
        <ele>334.29</ele>
        <time>2019-09-21T09:15:10.000Z</time>
      </trkpt>
      <trkpt lat="44.06264" lon="5.21857">
        <ele>335.14</ele>
        <time>2019-09-21T09:15:17.000Z</time>
      </trkpt>
      <trkpt lat="44.06269" lon="5.21869">
        <ele>335.91</ele>
        <time>2019-09-21T09:15:24.000Z</time>
      </trkpt>
      <trkpt lat="44.06275" lon="5.2188">
        <ele>336.59</ele>
        <time>2019-09-21T09:15:31.000Z</time>
      </trkpt>
      <trkpt lat="44.0628" lon="5.21869">
        <ele>337.63</ele>
        <time>2019-09-21T09:15:47.000Z</time>
      </trkpt>
      <trkpt lat="44.0627" lon="5.21875">
        <ele>338.92</ele>
        <time>2019-09-21T09:16:29.000Z</time>
      </trkpt>
      <trkpt lat="44.06265" lon="5.21863">
        <ele>338.96</ele>
        <time>2019-09-21T09:16:34.000Z</time>
      </trkpt>
      <trkpt lat="44.06259" lon="5.21852">
        <ele>338.85</ele>
        <time>2019-09-21T09:16:39.000Z</time>
      </trkpt>
      <trkpt lat="44.06254" lon="5.21839">
        <ele>338.67</ele>
        <time>2019-09-21T09:16:46.000Z</time>
      </trkpt>
      <trkpt lat="44.06244" lon="5.21832">
        <ele>338.5</ele>
        <time>2019-09-21T09:16:51.000Z</time>
      </trkpt>
      <trkpt lat="44.06236" lon="5.21824">
        <ele>338.37</ele>
        <time>2019-09-21T09:16:55.000Z</time>
      </trkpt>
      <trkpt lat="44.06228" lon="5.21816">
        <ele>338.17</ele>
        <time>2019-09-21T09:17:01.000Z</time>
      </trkpt>
      <trkpt lat="44.06219" lon="5.21813">
        <ele>337.79</ele>
        <time>2019-09-21T09:17:11.000Z</time>
      </trkpt>
      <trkpt lat="44.06208" lon="5.21813">
        <ele>337.59</ele>
        <time>2019-09-21T09:17:16.000Z</time>
      </trkpt>
      <trkpt lat="44.06199" lon="5.21815">
        <ele>337.4</ele>
        <time>2019-09-21T09:17:21.000Z</time>
      </trkpt>
      <trkpt lat="44.06204" lon="5.21827">
        <ele>336.91</ele>
        <time>2019-09-21T09:17:35.000Z</time>
      </trkpt>
      <trkpt lat="44.06213" lon="5.21836">
        <ele>336.88</ele>
        <time>2019-09-21T09:17:40.000Z</time>
      </trkpt>
      <trkpt lat="44.06214" lon="5.2185">
        <ele>336.93</ele>
        <time>2019-09-21T09:17:47.000Z</time>
      </trkpt>
      <trkpt lat="44.06219" lon="5.2186">
        <ele>337.37</ele>
        <time>2019-09-21T09:18:02.000Z</time>
      </trkpt>
      <trkpt lat="44.06229" lon="5.21858">
        <ele>337.58</ele>
        <time>2019-09-21T09:18:07.000Z</time>
      </trkpt>
      <trkpt lat="44.06239" lon="5.2186">
        <ele>337.96</ele>
        <time>2019-09-21T09:18:14.000Z</time>
      </trkpt>
      <trkpt lat="44.06249" lon="5.21868">
        <ele>338.21</ele>
        <time>2019-09-21T09:18:18.000Z</time>
      </trkpt>
      <trkpt lat="44.06258" lon="5.21877">
        <ele>338.58</ele>
        <time>2019-09-21T09:18:24.000Z</time>
      </trkpt>
      <trkpt lat="44.06267" lon="5.21882">
        <ele>339.09</ele>
        <time>2019-09-21T09:18:31.000Z</time>
      </trkpt>
      <trkpt lat="44.06276" lon="5.2189">
        <ele>339.5</ele>
        <time>2019-09-21T09:18:36.000Z</time>
      </trkpt>
      <trkpt lat="44.0628" lon="5.21901">
        <ele>340</ele>
        <time>2019-09-21T09:18:42.000Z</time>
      </trkpt>
      <trkpt lat="44.06287" lon="5.21911">
        <ele>340.45</ele>
        <time>2019-09-21T09:18:47.000Z</time>
      </trkpt>
      <trkpt lat="44.06292" lon="5.21922">
        <ele>341.05</ele>
        <time>2019-09-21T09:18:53.000Z</time>
      </trkpt>
      <trkpt lat="44.063" lon="5.2193">
        <ele>341.83</ele>
        <time>2019-09-21T09:19:01.000Z</time>
      </trkpt>
      <trkpt lat="44.0631" lon="5.21933">
        <ele>342.44</ele>
        <time>2019-09-21T09:19:08.000Z</time>
      </trkpt>
      <trkpt lat="44.06315" lon="5.21922">
        <ele>342.84</ele>
        <time>2019-09-21T09:19:14.000Z</time>
      </trkpt>
      <trkpt lat="44.06321" lon="5.21913">
        <ele>343.24</ele>
        <time>2019-09-21T09:19:21.000Z</time>
      </trkpt>
      <trkpt lat="44.0633" lon="5.21907">
        <ele>343.48</ele>
        <time>2019-09-21T09:19:25.000Z</time>
      </trkpt>
      <trkpt lat="44.0634" lon="5.21904">
        <ele>343.87</ele>
        <time>2019-09-21T09:19:31.000Z</time>
      </trkpt>
      <trkpt lat="44.06349" lon="5.21902">
        <ele>344.31</ele>
        <time>2019-09-21T09:19:37.000Z</time>
      </trkpt>
      <trkpt lat="44.06358" lon="5.21906">
        <ele>344.67</ele>
        <time>2019-09-21T09:19:42.000Z</time>
      </trkpt>
      <trkpt lat="44.06369" lon="5.2191">
        <ele>345.28</ele>
        <time>2019-09-21T09:19:51.000Z</time>
      </trkpt>
      <trkpt lat="44.06379" lon="5.21911">
        <ele>345.52</ele>
        <time>2019-09-21T09:19:55.000Z</time>
      </trkpt>
      <trkpt lat="44.06388" lon="5.21913">
        <ele>345.76</ele>
        <time>2019-09-21T09:19:59.000Z</time>
      </trkpt>
      <trkpt lat="44.06399" lon="5.21913">
        <ele>346.04</ele>
        <time>2019-09-21T09:20:04.000Z</time>
      </trkpt>
      <trkpt lat="44.06408" lon="5.2192">
        <ele>346.42</ele>
        <time>2019-09-21T09:20:10.000Z</time>
      </trkpt>
      <trkpt lat="44.06418" lon="5.21923">
        <ele>346.8</ele>
        <time>2019-09-21T09:20:16.000Z</time>
      </trkpt>
      <trkpt lat="44.06425" lon="5.21915">
        <ele>347.12</ele>
        <time>2019-09-21T09:20:22.000Z</time>
      </trkpt>
      <trkpt lat="44.06417" lon="5.21908">
        <ele>347.45</ele>
        <time>2019-09-21T09:20:29.000Z</time>
      </trkpt>
      <trkpt lat="44.06408" lon="5.21901">
        <ele>347.67</ele>
        <time>2019-09-21T09:20:34.000Z</time>
      </trkpt>
      <trkpt lat="44.064" lon="5.2189">
        <ele>347.88</ele>
        <time>2019-09-21T09:20:40.000Z</time>
      </trkpt>
      <trkpt lat="44.06391" lon="5.21883">
        <ele>348.05</ele>
        <time>2019-09-21T09:20:46.000Z</time>
      </trkpt>
      <trkpt lat="44.06382" lon="5.21876">
        <ele>348.2</ele>
        <time>2019-09-21T09:20:53.000Z</time>
      </trkpt>
      <trkpt lat="44.06374" lon="5.21869">
        <ele>348.29</ele>
        <time>2019-09-21T09:20:59.000Z</time>
      </trkpt>
      <trkpt lat="44.06373" lon="5.21856">
        <ele>348.35</ele>
        <time>2019-09-21T09:21:06.000Z</time>
      </trkpt>
      <trkpt lat="44.06382" lon="5.21851">
        <ele>348.65</ele>
        <time>2019-09-21T09:21:12.000Z</time>
      </trkpt>
      <trkpt lat="44.06392" lon="5.21851">
        <ele>349.21</ele>
        <time>2019-09-21T09:21:18.000Z</time>
      </trkpt>
      <trkpt lat="44.06404" lon="5.21851">
        <ele>349.69</ele>
        <time>2019-09-21T09:21:23.000Z</time>
      </trkpt>
      <trkpt lat="44.06413" lon="5.2185">
        <ele>350.33</ele>
        <time>2019-09-21T09:21:30.000Z</time>
      </trkpt>
      <trkpt lat="44.06422" lon="5.21851">
        <ele>350.87</ele>
        <time>2019-09-21T09:21:36.000Z</time>
      </trkpt>
      <trkpt lat="44.06432" lon="5.21854">
        <ele>351.78</ele>
        <time>2019-09-21T09:21:42.000Z</time>
      </trkpt>
      <trkpt lat="44.0644" lon="5.21852">
        <ele>352.67</ele>
        <time>2019-09-21T09:21:47.000Z</time>
      </trkpt>
      <trkpt lat="44.06451" lon="5.21852">
        <ele>353.62</ele>
        <time>2019-09-21T09:21:52.000Z</time>
      </trkpt>
      <trkpt lat="44.06461" lon="5.21849">
        <ele>354.83</ele>
        <time>2019-09-21T09:21:58.000Z</time>
      </trkpt>
      <trkpt lat="44.06469" lon="5.21844">
        <ele>356.43</ele>
        <time>2019-09-21T09:22:05.000Z</time>
      </trkpt>
      <trkpt lat="44.0648" lon="5.21844">
        <ele>358.25</ele>
        <time>2019-09-21T09:22:13.000Z</time>
      </trkpt>
      <trkpt lat="44.06489" lon="5.21847">
        <ele>362.63</ele>
        <time>2019-09-21T09:22:31.000Z</time>
      </trkpt>
      <trkpt lat="44.065" lon="5.21848">
        <ele>363.83</ele>
        <time>2019-09-21T09:22:36.000Z</time>
      </trkpt>
      <trkpt lat="44.06511" lon="5.2185">
        <ele>364.73</ele>
        <time>2019-09-21T09:22:40.000Z</time>
      </trkpt>
      <trkpt lat="44.06521" lon="5.21848">
        <ele>365.37</ele>
        <time>2019-09-21T09:22:43.000Z</time>
      </trkpt>
      <trkpt lat="44.06531" lon="5.21848">
        <ele>366.39</ele>
        <time>2019-09-21T09:22:48.000Z</time>
      </trkpt>
      <trkpt lat="44.06542" lon="5.21847">
        <ele>367.2</ele>
        <time>2019-09-21T09:22:52.000Z</time>
      </trkpt>
      <trkpt lat="44.06556" lon="5.21845">
        <ele>368.57</ele>
        <time>2019-09-21T09:22:59.000Z</time>
      </trkpt>
      <trkpt lat="44.06565" lon="5.21843">
        <ele>369.64</ele>
        <time>2019-09-21T09:23:05.000Z</time>
      </trkpt>
      <trkpt lat="44.06575" lon="5.21839">
        <ele>371.07</ele>
        <time>2019-09-21T09:23:14.000Z</time>
      </trkpt>
      <trkpt lat="44.06584" lon="5.21835">
        <ele>372.28</ele>
        <time>2019-09-21T09:23:23.000Z</time>
      </trkpt>
      <trkpt lat="44.06592" lon="5.2183">
        <ele>372.74</ele>
        <time>2019-09-21T09:23:26.000Z</time>
      </trkpt>
      <trkpt lat="44.06603" lon="5.21829">
        <ele>373.84</ele>
        <time>2019-09-21T09:23:33.000Z</time>
      </trkpt>
      <trkpt lat="44.06614" lon="5.21828">
        <ele>374.64</ele>
        <time>2019-09-21T09:23:38.000Z</time>
      </trkpt>
      <trkpt lat="44.06624" lon="5.2182">
        <ele>375.59</ele>
        <time>2019-09-21T09:23:44.000Z</time>
      </trkpt>
      <trkpt lat="44.06633" lon="5.21816">
        <ele>376.23</ele>
        <time>2019-09-21T09:23:48.000Z</time>
      </trkpt>
      <trkpt lat="44.06643" lon="5.21819">
        <ele>376.74</ele>
        <time>2019-09-21T09:23:51.000Z</time>
      </trkpt>
      <trkpt lat="44.06652" lon="5.21822">
        <ele>377.63</ele>
        <time>2019-09-21T09:23:56.000Z</time>
      </trkpt>
      <trkpt lat="44.06661" lon="5.21829">
        <ele>379.73</ele>
        <time>2019-09-21T09:23:59.000Z</time>
      </trkpt>
      <trkpt lat="44.0667" lon="5.21837">
        <ele>380.32</ele>
        <time>2019-09-21T09:24:03.000Z</time>
      </trkpt>
      <trkpt lat="44.06677" lon="5.21846">
        <ele>381.05</ele>
        <time>2019-09-21T09:24:08.000Z</time>
      </trkpt>
      <trkpt lat="44.06685" lon="5.21855">
        <ele>381.81</ele>
        <time>2019-09-21T09:24:13.000Z</time>
      </trkpt>
      <trkpt lat="44.06693" lon="5.21863">
        <ele>382.58</ele>
        <time>2019-09-21T09:24:18.000Z</time>
      </trkpt>
      <trkpt lat="44.06704" lon="5.21866">
        <ele>383.21</ele>
        <time>2019-09-21T09:24:22.000Z</time>
      </trkpt>
      <trkpt lat="44.06714" lon="5.21867">
        <ele>384</ele>
        <time>2019-09-21T09:24:27.000Z</time>
      </trkpt>
      <trkpt lat="44.06723" lon="5.21872">
        <ele>384.8</ele>
        <time>2019-09-21T09:24:32.000Z</time>
      </trkpt>
      <trkpt lat="44.06733" lon="5.21874">
        <ele>388.75</ele>
        <time>2019-09-21T09:24:35.000Z</time>
      </trkpt>
      <trkpt lat="44.06744" lon="5.21878">
        <ele>390.87</ele>
        <time>2019-09-21T09:24:38.000Z</time>
      </trkpt>
      <trkpt lat="44.06753" lon="5.21882">
        <ele>391.74</ele>
        <time>2019-09-21T09:24:40.000Z</time>
      </trkpt>
      <trkpt lat="44.06765" lon="5.21887">
        <ele>392.65</ele>
        <time>2019-09-21T09:24:43.000Z</time>
      </trkpt>
      <trkpt lat="44.06777" lon="5.21888">
        <ele>392.92</ele>
        <time>2019-09-21T09:24:46.000Z</time>
      </trkpt>
      <trkpt lat="44.06787" lon="5.2188">
        <ele>393.19</ele>
        <time>2019-09-21T09:24:48.000Z</time>
      </trkpt>
      <trkpt lat="44.06796" lon="5.2188">
        <ele>393.28</ele>
        <time>2019-09-21T09:24:50.000Z</time>
      </trkpt>
      <trkpt lat="44.06805" lon="5.2188">
        <ele>393.31</ele>
        <time>2019-09-21T09:24:53.000Z</time>
      </trkpt>
      <trkpt lat="44.06815" lon="5.21882">
        <ele>393.34</ele>
        <time>2019-09-21T09:24:57.000Z</time>
      </trkpt>
      <trkpt lat="44.0682" lon="5.21871">
        <ele>393.42</ele>
        <time>2019-09-21T09:25:07.000Z</time>
      </trkpt>
      <trkpt lat="44.06831" lon="5.21872">
        <ele>393.49</ele>
        <time>2019-09-21T09:25:12.000Z</time>
      </trkpt>
      <trkpt lat="44.06839" lon="5.2188">
        <ele>393.53</ele>
        <time>2019-09-21T09:25:14.000Z</time>
      </trkpt>
      <trkpt lat="44.06843" lon="5.21896">
        <ele>393.48</ele>
        <time>2019-09-21T09:25:17.000Z</time>
      </trkpt>
      <trkpt lat="44.06854" lon="5.21907">
        <ele>393.39</ele>
        <time>2019-09-21T09:25:20.000Z</time>
      </trkpt>
      <trkpt lat="44.06863" lon="5.21914">
        <ele>393.38</ele>
        <time>2019-09-21T09:25:24.000Z</time>
      </trkpt>
      <trkpt lat="44.06872" lon="5.21918">
        <ele>393.37</ele>
        <time>2019-09-21T09:25:28.000Z</time>
      </trkpt>
      <trkpt lat="44.06882" lon="5.21927">
        <ele>393.37</ele>
        <time>2019-09-21T09:25:32.000Z</time>
      </trkpt>
      <trkpt lat="44.06889" lon="5.21937">
        <ele>393.41</ele>
        <time>2019-09-21T09:25:35.000Z</time>
      </trkpt>
      <trkpt lat="44.06893" lon="5.2195">
        <ele>393.41</ele>
        <time>2019-09-21T09:25:38.000Z</time>
      </trkpt>
      <trkpt lat="44.06902" lon="5.2195">
        <ele>393.48</ele>
        <time>2019-09-21T09:25:47.000Z</time>
      </trkpt>
      <trkpt lat="44.06911" lon="5.2194">
        <ele>393.5</ele>
        <time>2019-09-21T09:25:51.000Z</time>
      </trkpt>
      <trkpt lat="44.0692" lon="5.21941">
        <ele>393.5</ele>
        <time>2019-09-21T09:25:54.000Z</time>
      </trkpt>
      <trkpt lat="44.06929" lon="5.21949">
        <ele>393.52</ele>
        <time>2019-09-21T09:25:57.000Z</time>
      </trkpt>
      <trkpt lat="44.06938" lon="5.21953">
        <ele>393.54</ele>
        <time>2019-09-21T09:26:00.000Z</time>
      </trkpt>
      <trkpt lat="44.06948" lon="5.21961">
        <ele>393.55</ele>
        <time>2019-09-21T09:26:03.000Z</time>
      </trkpt>
      <trkpt lat="44.06955" lon="5.21971">
        <ele>393.56</ele>
        <time>2019-09-21T09:26:06.000Z</time>
      </trkpt>
      <trkpt lat="44.06964" lon="5.21975">
        <ele>393.57</ele>
        <time>2019-09-21T09:26:09.000Z</time>
      </trkpt>
      <trkpt lat="44.06972" lon="5.21979">
        <ele>393.58</ele>
        <time>2019-09-21T09:26:12.000Z</time>
      </trkpt>
      <trkpt lat="44.06982" lon="5.21986">
        <ele>393.6</ele>
        <time>2019-09-21T09:26:16.000Z</time>
      </trkpt>
      <trkpt lat="44.06991" lon="5.21992">
        <ele>393.61</ele>
        <time>2019-09-21T09:26:19.000Z</time>
      </trkpt>
      <trkpt lat="44.07001" lon="5.21991">
        <ele>393.64</ele>
        <time>2019-09-21T09:26:23.000Z</time>
      </trkpt>
      <trkpt lat="44.07011" lon="5.2199">
        <ele>393.68</ele>
        <time>2019-09-21T09:26:28.000Z</time>
      </trkpt>
      <trkpt lat="44.07023" lon="5.21991">
        <ele>393.72</ele>
        <time>2019-09-21T09:26:31.000Z</time>
      </trkpt>
      <trkpt lat="44.07033" lon="5.21991">
        <ele>393.84</ele>
        <time>2019-09-21T09:26:33.000Z</time>
      </trkpt>
      <trkpt lat="44.07045" lon="5.2199">
        <ele>394</ele>
        <time>2019-09-21T09:26:35.000Z</time>
      </trkpt>
      <trkpt lat="44.07055" lon="5.2199">
        <ele>394</ele>
        <time>2019-09-21T09:26:37.000Z</time>
      </trkpt>
      <trkpt lat="44.07067" lon="5.21991">
        <ele>394.02</ele>
        <time>2019-09-21T09:26:40.000Z</time>
      </trkpt>
      <trkpt lat="44.07079" lon="5.21987">
        <ele>393.98</ele>
        <time>2019-09-21T09:26:42.000Z</time>
      </trkpt>
      <trkpt lat="44.07089" lon="5.21986">
        <ele>393.96</ele>
        <time>2019-09-21T09:26:45.000Z</time>
      </trkpt>
      <trkpt lat="44.071" lon="5.21981">
        <ele>393.96</ele>
        <time>2019-09-21T09:26:49.000Z</time>
      </trkpt>
      <trkpt lat="44.07111" lon="5.21978">
        <ele>393.91</ele>
        <time>2019-09-21T09:26:53.000Z</time>
      </trkpt>
      <trkpt lat="44.07119" lon="5.21974">
        <ele>393.83</ele>
        <time>2019-09-21T09:27:00.000Z</time>
      </trkpt>
      <trkpt lat="44.07129" lon="5.21968">
        <ele>393.75</ele>
        <time>2019-09-21T09:27:06.000Z</time>
      </trkpt>
      <trkpt lat="44.07138" lon="5.21969">
        <ele>393.73</ele>
        <time>2019-09-21T09:27:10.000Z</time>
      </trkpt>
      <trkpt lat="44.07147" lon="5.21968">
        <ele>393.72</ele>
        <time>2019-09-21T09:27:14.000Z</time>
      </trkpt>
      <trkpt lat="44.07156" lon="5.21966">
        <ele>393.71</ele>
        <time>2019-09-21T09:27:18.000Z</time>
      </trkpt>
      <trkpt lat="44.07167" lon="5.21967">
        <ele>393.69</ele>
        <time>2019-09-21T09:27:22.000Z</time>
      </trkpt>
      <trkpt lat="44.07177" lon="5.21967">
        <ele>393.67</ele>
        <time>2019-09-21T09:27:26.000Z</time>
      </trkpt>
      <trkpt lat="44.07187" lon="5.21965">
        <ele>393.65</ele>
        <time>2019-09-21T09:27:30.000Z</time>
      </trkpt>
      <trkpt lat="44.07196" lon="5.21964">
        <ele>393.66</ele>
        <time>2019-09-21T09:27:34.000Z</time>
      </trkpt>
      <trkpt lat="44.07206" lon="5.21964">
        <ele>393.69</ele>
        <time>2019-09-21T09:27:37.000Z</time>
      </trkpt>
      <trkpt lat="44.07216" lon="5.21963">
        <ele>393.78</ele>
        <time>2019-09-21T09:27:42.000Z</time>
      </trkpt>
      <trkpt lat="44.07226" lon="5.21966">
        <ele>394.08</ele>
        <time>2019-09-21T09:27:47.000Z</time>
      </trkpt>
      <trkpt lat="44.07231" lon="5.2198">
        <ele>394.27</ele>
        <time>2019-09-21T09:27:49.000Z</time>
      </trkpt>
      <trkpt lat="44.07233" lon="5.21994">
        <ele>394.31</ele>
        <time>2019-09-21T09:27:52.000Z</time>
      </trkpt>
      <trkpt lat="44.07232" lon="5.22008">
        <ele>394.37</ele>
        <time>2019-09-21T09:27:56.000Z</time>
      </trkpt>
      <trkpt lat="44.07231" lon="5.22021">
        <ele>394.62</ele>
        <time>2019-09-21T09:27:58.000Z</time>
      </trkpt>
      <trkpt lat="44.0723" lon="5.22038">
        <ele>394.8</ele>
        <time>2019-09-21T09:28:00.000Z</time>
      </trkpt>
      <trkpt lat="44.07232" lon="5.22052">
        <ele>394.81</ele>
        <time>2019-09-21T09:28:03.000Z</time>
      </trkpt>
      <trkpt lat="44.07229" lon="5.22064">
        <ele>394.8</ele>
        <time>2019-09-21T09:28:10.000Z</time>
      </trkpt>
      <trkpt lat="44.0723" lon="5.22078">
        <ele>394.78</ele>
        <time>2019-09-21T09:28:15.000Z</time>
      </trkpt>
      <trkpt lat="44.07235" lon="5.22089">
        <ele>394.77</ele>
        <time>2019-09-21T09:28:18.000Z</time>
      </trkpt>
      <trkpt lat="44.07241" lon="5.221">
        <ele>394.69</ele>
        <time>2019-09-21T09:28:21.000Z</time>
      </trkpt>
      <trkpt lat="44.07251" lon="5.22107">
        <ele>394.67</ele>
        <time>2019-09-21T09:28:25.000Z</time>
      </trkpt>
      <trkpt lat="44.07262" lon="5.22104">
        <ele>394.66</ele>
        <time>2019-09-21T09:28:28.000Z</time>
      </trkpt>
      <trkpt lat="44.07264" lon="5.2212">
        <ele>394.58</ele>
        <time>2019-09-21T09:28:31.000Z</time>
      </trkpt>
      <trkpt lat="44.07268" lon="5.22131">
        <ele>394.56</ele>
        <time>2019-09-21T09:28:34.000Z</time>
      </trkpt>
      <trkpt lat="44.07281" lon="5.22134">
        <ele>394.48</ele>
        <time>2019-09-21T09:28:37.000Z</time>
      </trkpt>
      <trkpt lat="44.07291" lon="5.22137">
        <ele>394.42</ele>
        <time>2019-09-21T09:28:39.000Z</time>
      </trkpt>
      <trkpt lat="44.07302" lon="5.22142">
        <ele>394.28</ele>
        <time>2019-09-21T09:28:42.000Z</time>
      </trkpt>
      <trkpt lat="44.07309" lon="5.22149">
        <ele>394.27</ele>
        <time>2019-09-21T09:28:44.000Z</time>
      </trkpt>
      <trkpt lat="44.07318" lon="5.22152">
        <ele>394.26</ele>
        <time>2019-09-21T09:28:46.000Z</time>
      </trkpt>
      <trkpt lat="44.07328" lon="5.22147">
        <ele>394.22</ele>
        <time>2019-09-21T09:28:50.000Z</time>
      </trkpt>
      <trkpt lat="44.07338" lon="5.22147">
        <ele>394.16</ele>
        <time>2019-09-21T09:28:55.000Z</time>
      </trkpt>
      <trkpt lat="44.07346" lon="5.22142">
        <ele>394.13</ele>
        <time>2019-09-21T09:28:58.000Z</time>
      </trkpt>
      <trkpt lat="44.07357" lon="5.22144">
        <ele>394.09</ele>
        <time>2019-09-21T09:29:02.000Z</time>
      </trkpt>
      <trkpt lat="44.07364" lon="5.22132">
        <ele>394.04</ele>
        <time>2019-09-21T09:29:07.000Z</time>
      </trkpt>
      <trkpt lat="44.07366" lon="5.2212">
        <ele>393.98</ele>
        <time>2019-09-21T09:29:13.000Z</time>
      </trkpt>
      <trkpt lat="44.07371" lon="5.22108">
        <ele>393.83</ele>
        <time>2019-09-21T09:29:16.000Z</time>
      </trkpt>
      <trkpt lat="44.07371" lon="5.22094">
        <ele>393.8</ele>
        <time>2019-09-21T09:29:19.000Z</time>
      </trkpt>
      <trkpt lat="44.0738" lon="5.22101">
        <ele>393.68</ele>
        <time>2019-09-21T09:30:06.000Z</time>
      </trkpt>
      <trkpt lat="44.07389" lon="5.22107">
        <ele>393.68</ele>
        <time>2019-09-21T09:30:16.000Z</time>
      </trkpt>
      <trkpt lat="44.07398" lon="5.22117">
        <ele>393.69</ele>
        <time>2019-09-21T09:30:22.000Z</time>
      </trkpt>
      <trkpt lat="44.07408" lon="5.22122">
        <ele>393.69</ele>
        <time>2019-09-21T09:30:25.000Z</time>
      </trkpt>
      <trkpt lat="44.07418" lon="5.22115">
        <ele>393.69</ele>
        <time>2019-09-21T09:30:27.000Z</time>
      </trkpt>
      <trkpt lat="44.07428" lon="5.22115">
        <ele>393.7</ele>
        <time>2019-09-21T09:30:29.000Z</time>
      </trkpt>
      <trkpt lat="44.07438" lon="5.22116">
        <ele>393.74</ele>
        <time>2019-09-21T09:30:33.000Z</time>
      </trkpt>
      <trkpt lat="44.07447" lon="5.22122">
        <ele>393.77</ele>
        <time>2019-09-21T09:30:37.000Z</time>
      </trkpt>
      <trkpt lat="44.07456" lon="5.22128">
        <ele>393.78</ele>
        <time>2019-09-21T09:30:39.000Z</time>
      </trkpt>
      <trkpt lat="44.07465" lon="5.22134">
        <ele>393.8</ele>
        <time>2019-09-21T09:30:41.000Z</time>
      </trkpt>
      <trkpt lat="44.07474" lon="5.22141">
        <ele>393.83</ele>
        <time>2019-09-21T09:30:45.000Z</time>
      </trkpt>
      <trkpt lat="44.07483" lon="5.22148">
        <ele>393.85</ele>
        <time>2019-09-21T09:30:47.000Z</time>
      </trkpt>
      <trkpt lat="44.07493" lon="5.22152">
        <ele>393.9</ele>
        <time>2019-09-21T09:30:52.000Z</time>
      </trkpt>
      <trkpt lat="44.07502" lon="5.22156">
        <ele>393.94</ele>
        <time>2019-09-21T09:30:56.000Z</time>
      </trkpt>
      <trkpt lat="44.07512" lon="5.22165">
        <ele>393.97</ele>
        <time>2019-09-21T09:31:00.000Z</time>
      </trkpt>
      <trkpt lat="44.07517" lon="5.22178">
        <ele>394.08</ele>
        <time>2019-09-21T09:31:04.000Z</time>
      </trkpt>
      <trkpt lat="44.07525" lon="5.22188">
        <ele>394.12</ele>
        <time>2019-09-21T09:31:07.000Z</time>
      </trkpt>
      <trkpt lat="44.07534" lon="5.22197">
        <ele>394.2</ele>
        <time>2019-09-21T09:31:11.000Z</time>
      </trkpt>
      <trkpt lat="44.07539" lon="5.22207">
        <ele>394.26</ele>
        <time>2019-09-21T09:31:13.000Z</time>
      </trkpt>
      <trkpt lat="44.07549" lon="5.22211">
        <ele>394.45</ele>
        <time>2019-09-21T09:31:20.000Z</time>
      </trkpt>
      <trkpt lat="44.0756" lon="5.22215">
        <ele>394.62</ele>
        <time>2019-09-21T09:31:26.000Z</time>
      </trkpt>
      <trkpt lat="44.07569" lon="5.22219">
        <ele>394.75</ele>
        <time>2019-09-21T09:31:30.000Z</time>
      </trkpt>
      <trkpt lat="44.07579" lon="5.22225">
        <ele>394.87</ele>
        <time>2019-09-21T09:31:34.000Z</time>
      </trkpt>
      <trkpt lat="44.0759" lon="5.22231">
        <ele>395.22</ele>
        <time>2019-09-21T09:31:37.000Z</time>
      </trkpt>
      <trkpt lat="44.07599" lon="5.22239">
        <ele>395.3</ele>
        <time>2019-09-21T09:31:40.000Z</time>
      </trkpt>
      <trkpt lat="44.07608" lon="5.22245">
        <ele>395.42</ele>
        <time>2019-09-21T09:31:44.000Z</time>
      </trkpt>
      <trkpt lat="44.07613" lon="5.22255">
        <ele>396.04</ele>
        <time>2019-09-21T09:32:15.000Z</time>
      </trkpt>
      <trkpt lat="44.07608" lon="5.22269">
        <ele>396.9</ele>
        <time>2019-09-21T09:32:19.000Z</time>
      </trkpt>
      <trkpt lat="44.076" lon="5.22277">
        <ele>397.46</ele>
        <time>2019-09-21T09:32:21.000Z</time>
      </trkpt>
      <trkpt lat="44.07597" lon="5.2229">
        <ele>397.54</ele>
        <time>2019-09-21T09:32:23.000Z</time>
      </trkpt>
      <trkpt lat="44.07593" lon="5.22306">
        <ele>397.78</ele>
        <time>2019-09-21T09:32:29.000Z</time>
      </trkpt>
      <trkpt lat="44.07599" lon="5.22315">
        <ele>397.88</ele>
        <time>2019-09-21T09:32:32.000Z</time>
      </trkpt>
      <trkpt lat="44.07596" lon="5.2233">
        <ele>397.99</ele>
        <time>2019-09-21T09:32:35.000Z</time>
      </trkpt>
      <trkpt lat="44.07603" lon="5.22345">
        <ele>398.1</ele>
        <time>2019-09-21T09:32:38.000Z</time>
      </trkpt>
      <trkpt lat="44.0761" lon="5.22357">
        <ele>398.19</ele>
        <time>2019-09-21T09:32:41.000Z</time>
      </trkpt>
      <trkpt lat="44.07617" lon="5.22369">
        <ele>398.33</ele>
        <time>2019-09-21T09:32:46.000Z</time>
      </trkpt>
      <trkpt lat="44.07619" lon="5.22384">
        <ele>398.44</ele>
        <time>2019-09-21T09:32:50.000Z</time>
      </trkpt>
      <trkpt lat="44.07622" lon="5.22396">
        <ele>398.65</ele>
        <time>2019-09-21T09:32:56.000Z</time>
      </trkpt>
      <trkpt lat="44.07629" lon="5.22405">
        <ele>398.81</ele>
        <time>2019-09-21T09:33:01.000Z</time>
      </trkpt>
      <trkpt lat="44.07637" lon="5.22416">
        <ele>398.92</ele>
        <time>2019-09-21T09:33:05.000Z</time>
      </trkpt>
      <trkpt lat="44.07643" lon="5.22426">
        <ele>399.03</ele>
        <time>2019-09-21T09:33:09.000Z</time>
      </trkpt>
      <trkpt lat="44.07653" lon="5.22433">
        <ele>399.17</ele>
        <time>2019-09-21T09:33:15.000Z</time>
      </trkpt>
      <trkpt lat="44.07661" lon="5.22442">
        <ele>399.26</ele>
        <time>2019-09-21T09:33:21.000Z</time>
      </trkpt>
      <trkpt lat="44.0767" lon="5.22449">
        <ele>399.34</ele>
        <time>2019-09-21T09:33:27.000Z</time>
      </trkpt>
      <trkpt lat="44.07679" lon="5.22452">
        <ele>399.41</ele>
        <time>2019-09-21T09:33:32.000Z</time>
      </trkpt>
      <trkpt lat="44.07674" lon="5.22441">
        <ele>400.33</ele>
        <time>2019-09-21T09:34:27.999Z</time>
      </trkpt>
      <trkpt lat="44.07681" lon="5.22432">
        <ele>400.91</ele>
        <time>2019-09-21T09:35:08.999Z</time>
      </trkpt>
      <trkpt lat="44.0769" lon="5.22434">
        <ele>401.02</ele>
        <time>2019-09-21T09:35:15.999Z</time>
      </trkpt>
      <trkpt lat="44.07702" lon="5.22438">
        <ele>401.07</ele>
        <time>2019-09-21T09:35:19.999Z</time>
      </trkpt>
      <trkpt lat="44.07712" lon="5.22437">
        <ele>401.15</ele>
        <time>2019-09-21T09:35:25.999Z</time>
      </trkpt>
      <trkpt lat="44.07719" lon="5.22446">
        <ele>401.2</ele>
        <time>2019-09-21T09:35:30.999Z</time>
      </trkpt>
      <trkpt lat="44.07728" lon="5.22455">
        <ele>401.24</ele>
        <time>2019-09-21T09:35:34.999Z</time>
      </trkpt>
      <trkpt lat="44.07737" lon="5.22462">
        <ele>401.31</ele>
        <time>2019-09-21T09:35:40.999Z</time>
      </trkpt>
      <trkpt lat="44.07748" lon="5.22464">
        <ele>401.35</ele>
        <time>2019-09-21T09:35:44.999Z</time>
      </trkpt>
      <trkpt lat="44.07757" lon="5.22457">
        <ele>401.4</ele>
        <time>2019-09-21T09:35:49.999Z</time>
      </trkpt>
      <trkpt lat="44.07763" lon="5.22444">
        <ele>401.49</ele>
        <time>2019-09-21T09:35:55.999Z</time>
      </trkpt>
      <trkpt lat="44.07767" lon="5.22432">
        <ele>401.58</ele>
        <time>2019-09-21T09:36:00.999Z</time>
      </trkpt>
      <trkpt lat="44.07773" lon="5.22419">
        <ele>401.69</ele>
        <time>2019-09-21T09:36:06.999Z</time>
      </trkpt>
      <trkpt lat="44.07776" lon="5.22407">
        <ele>401.9</ele>
        <time>2019-09-21T09:36:15.999Z</time>
      </trkpt>
      <trkpt lat="44.07774" lon="5.22395">
        <ele>402.04</ele>
        <time>2019-09-21T09:36:21.999Z</time>
      </trkpt>
      <trkpt lat="44.07772" lon="5.22381">
        <ele>402.2</ele>
        <time>2019-09-21T09:36:27.999Z</time>
      </trkpt>
      <trkpt lat="44.0777" lon="5.22366">
        <ele>402.38</ele>
        <time>2019-09-21T09:36:34.999Z</time>
      </trkpt>
      <trkpt lat="44.0777" lon="5.22352">
        <ele>402.54</ele>
        <time>2019-09-21T09:36:40.999Z</time>
      </trkpt>
      <trkpt lat="44.0777" lon="5.22337">
        <ele>402.65</ele>
        <time>2019-09-21T09:36:44.999Z</time>
      </trkpt>
      <trkpt lat="44.07774" lon="5.22325">
        <ele>402.73</ele>
        <time>2019-09-21T09:36:47.999Z</time>
      </trkpt>
      <trkpt lat="44.07776" lon="5.22311">
        <ele>402.83</ele>
        <time>2019-09-21T09:36:51.999Z</time>
      </trkpt>
      <trkpt lat="44.07783" lon="5.223">
        <ele>403.04</ele>
        <time>2019-09-21T09:37:00.999Z</time>
      </trkpt>
      <trkpt lat="44.07782" lon="5.22286">
        <ele>403.13</ele>
        <time>2019-09-21T09:37:04.999Z</time>
      </trkpt>
      <trkpt lat="44.07778" lon="5.22272">
        <ele>403.21</ele>
        <time>2019-09-21T09:37:08.999Z</time>
      </trkpt>
      <trkpt lat="44.07781" lon="5.22257">
        <ele>403.32</ele>
        <time>2019-09-21T09:37:13.999Z</time>
      </trkpt>
      <trkpt lat="44.0778" lon="5.22244">
        <ele>403.4</ele>
        <time>2019-09-21T09:37:17.999Z</time>
      </trkpt>
      <trkpt lat="44.07782" lon="5.22231">
        <ele>403.48</ele>
        <time>2019-09-21T09:37:21.999Z</time>
      </trkpt>
      <trkpt lat="44.07783" lon="5.22218">
        <ele>403.57</ele>
        <time>2019-09-21T09:37:25.999Z</time>
      </trkpt>
      <trkpt lat="44.07785" lon="5.22205">
        <ele>403.97</ele>
        <time>2019-09-21T09:37:38.999Z</time>
      </trkpt>
      <trkpt lat="44.07795" lon="5.22199">
        <ele>404.18</ele>
        <time>2019-09-21T09:37:43.999Z</time>
      </trkpt>
      <trkpt lat="44.07806" lon="5.22192">
        <ele>404.69</ele>
        <time>2019-09-21T09:37:46.999Z</time>
      </trkpt>
      <trkpt lat="44.07815" lon="5.22182">
        <ele>405.49</ele>
        <time>2019-09-21T09:37:48.999Z</time>
      </trkpt>
      <trkpt lat="44.07826" lon="5.22174">
        <ele>406.06</ele>
        <time>2019-09-21T09:37:50.999Z</time>
      </trkpt>
      <trkpt lat="44.07839" lon="5.22165">
        <ele>406.57</ele>
        <time>2019-09-21T09:37:52.999Z</time>
      </trkpt>
      <trkpt lat="44.07849" lon="5.22155">
        <ele>406.98</ele>
        <time>2019-09-21T09:37:54.999Z</time>
      </trkpt>
      <trkpt lat="44.07862" lon="5.2215">
        <ele>407.37</ele>
        <time>2019-09-21T09:37:56.999Z</time>
      </trkpt>
      <trkpt lat="44.07872" lon="5.22147">
        <ele>407.72</ele>
        <time>2019-09-21T09:37:58.999Z</time>
      </trkpt>
      <trkpt lat="44.07876" lon="5.22135">
        <ele>407.96</ele>
        <time>2019-09-21T09:38:00.999Z</time>
      </trkpt>
      <trkpt lat="44.07873" lon="5.22121">
        <ele>408.06</ele>
        <time>2019-09-21T09:38:02.999Z</time>
      </trkpt>
      <trkpt lat="44.07864" lon="5.2211">
        <ele>408.11</ele>
        <time>2019-09-21T09:38:04.999Z</time>
      </trkpt>
      <trkpt lat="44.07859" lon="5.22095">
        <ele>408.16</ele>
        <time>2019-09-21T09:38:06.999Z</time>
      </trkpt>
      <trkpt lat="44.07855" lon="5.22081">
        <ele>408.16</ele>
        <time>2019-09-21T09:38:08.999Z</time>
      </trkpt>
      <trkpt lat="44.07853" lon="5.22068">
        <ele>408.12</ele>
        <time>2019-09-21T09:38:10.999Z</time>
      </trkpt>
      <trkpt lat="44.0785" lon="5.22053">
        <ele>408.12</ele>
        <time>2019-09-21T09:38:12.999Z</time>
      </trkpt>
      <trkpt lat="44.0784" lon="5.22042">
        <ele>408.14</ele>
        <time>2019-09-21T09:38:14.999Z</time>
      </trkpt>
      <trkpt lat="44.07835" lon="5.22026">
        <ele>408.09</ele>
        <time>2019-09-21T09:38:16.999Z</time>
      </trkpt>
      <trkpt lat="44.07839" lon="5.2201">
        <ele>408.06</ele>
        <time>2019-09-21T09:38:18.999Z</time>
      </trkpt>
      <trkpt lat="44.07848" lon="5.22008">
        <ele>408</ele>
        <time>2019-09-21T09:38:20.999Z</time>
      </trkpt>
      <trkpt lat="44.07858" lon="5.22">
        <ele>407.92</ele>
        <time>2019-09-21T09:38:23.999Z</time>
      </trkpt>
      <trkpt lat="44.07869" lon="5.21992">
        <ele>407.96</ele>
        <time>2019-09-21T09:38:25.999Z</time>
      </trkpt>
      <trkpt lat="44.07879" lon="5.21998">
        <ele>407.97</ele>
        <time>2019-09-21T09:38:27.999Z</time>
      </trkpt>
      <trkpt lat="44.07889" lon="5.21984">
        <ele>407.85</ele>
        <time>2019-09-21T09:38:30.999Z</time>
      </trkpt>
      <trkpt lat="44.07892" lon="5.21966">
        <ele>407.7</ele>
        <time>2019-09-21T09:38:34.999Z</time>
      </trkpt>
      <trkpt lat="44.07902" lon="5.21961">
        <ele>407.63</ele>
        <time>2019-09-21T09:38:39.999Z</time>
      </trkpt>
      <trkpt lat="44.0791" lon="5.21954">
        <ele>407.14</ele>
        <time>2019-09-21T09:38:59.999Z</time>
      </trkpt>
      <trkpt lat="44.07903" lon="5.21945">
        <ele>406.7</ele>
        <time>2019-09-21T09:39:06.999Z</time>
      </trkpt>
      <trkpt lat="44.07894" lon="5.21936">
        <ele>406.28</ele>
        <time>2019-09-21T09:39:19.999Z</time>
      </trkpt>
      <trkpt lat="44.07889" lon="5.21925">
        <ele>405.91</ele>
        <time>2019-09-21T09:39:32.999Z</time>
      </trkpt>
      <trkpt lat="44.0789" lon="5.21909">
        <ele>405.4</ele>
        <time>2019-09-21T09:39:59.999Z</time>
      </trkpt>
      <trkpt lat="44.07892" lon="5.21892">
        <ele>405.32</ele>
        <time>2019-09-21T09:40:02.999Z</time>
      </trkpt>
      <trkpt lat="44.07887" lon="5.21877">
        <ele>405.24</ele>
        <time>2019-09-21T09:40:06.999Z</time>
      </trkpt>
      <trkpt lat="44.07881" lon="5.21867">
        <ele>405.14</ele>
        <time>2019-09-21T09:40:12.999Z</time>
      </trkpt>
      <trkpt lat="44.07872" lon="5.21858">
        <ele>405.06</ele>
        <time>2019-09-21T09:40:17.999Z</time>
      </trkpt>
      <trkpt lat="44.07875" lon="5.21841">
        <ele>404.79</ele>
        <time>2019-09-21T09:40:22.999Z</time>
      </trkpt>
      <trkpt lat="44.07872" lon="5.21826">
        <ele>404.76</ele>
        <time>2019-09-21T09:40:25.999Z</time>
      </trkpt>
      <trkpt lat="44.07868" lon="5.21813">
        <ele>404.61</ele>
        <time>2019-09-21T09:40:28.999Z</time>
      </trkpt>
      <trkpt lat="44.07867" lon="5.21797">
        <ele>404.4</ele>
        <time>2019-09-21T09:40:31.999Z</time>
      </trkpt>
      <trkpt lat="44.07866" lon="5.21783">
        <ele>404.28</ele>
        <time>2019-09-21T09:40:33.999Z</time>
      </trkpt>
      <trkpt lat="44.07863" lon="5.21769">
        <ele>404.21</ele>
        <time>2019-09-21T09:40:36.999Z</time>
      </trkpt>
      <trkpt lat="44.0786" lon="5.21755">
        <ele>404.13</ele>
        <time>2019-09-21T09:40:38.999Z</time>
      </trkpt>
      <trkpt lat="44.07854" lon="5.21743">
        <ele>404.11</ele>
        <time>2019-09-21T09:40:41.999Z</time>
      </trkpt>
      <trkpt lat="44.07861" lon="5.21732">
        <ele>404.07</ele>
        <time>2019-09-21T09:40:44.999Z</time>
      </trkpt>
      <trkpt lat="44.0787" lon="5.21725">
        <ele>404.01</ele>
        <time>2019-09-21T09:40:47.999Z</time>
      </trkpt>
      <trkpt lat="44.0787" lon="5.21713">
        <ele>403.94</ele>
        <time>2019-09-21T09:40:51.999Z</time>
      </trkpt>
      <trkpt lat="44.07871" lon="5.21699">
        <ele>403.85</ele>
        <time>2019-09-21T09:40:55.999Z</time>
      </trkpt>
      <trkpt lat="44.07872" lon="5.21686">
        <ele>403.6</ele>
        <time>2019-09-21T09:40:57.999Z</time>
      </trkpt>
      <trkpt lat="44.0787" lon="5.21671">
        <ele>403.54</ele>
        <time>2019-09-21T09:41:00.999Z</time>
      </trkpt>
      <trkpt lat="44.07864" lon="5.21657">
        <ele>403.45</ele>
        <time>2019-09-21T09:41:04.999Z</time>
      </trkpt>
      <trkpt lat="44.0786" lon="5.21644">
        <ele>403.39</ele>
        <time>2019-09-21T09:41:07.999Z</time>
      </trkpt>
      <trkpt lat="44.07857" lon="5.21632">
        <ele>403.05</ele>
        <time>2019-09-21T09:41:09.999Z</time>
      </trkpt>
      <trkpt lat="44.07853" lon="5.21615">
        <ele>402.78</ele>
        <time>2019-09-21T09:41:12.999Z</time>
      </trkpt>
      <trkpt lat="44.07849" lon="5.21598">
        <ele>402.59</ele>
        <time>2019-09-21T09:41:15.999Z</time>
      </trkpt>
      <trkpt lat="44.07846" lon="5.21582">
        <ele>402.43</ele>
        <time>2019-09-21T09:41:17.999Z</time>
      </trkpt>
      <trkpt lat="44.07841" lon="5.21564">
        <ele>402.27</ele>
        <time>2019-09-21T09:41:19.999Z</time>
      </trkpt>
      <trkpt lat="44.07834" lon="5.21545">
        <ele>402.12</ele>
        <time>2019-09-21T09:41:21.999Z</time>
      </trkpt>
      <trkpt lat="44.07828" lon="5.21525">
        <ele>402.04</ele>
        <time>2019-09-21T09:41:23.999Z</time>
      </trkpt>
      <trkpt lat="44.07823" lon="5.21509">
        <ele>402.01</ele>
        <time>2019-09-21T09:41:25.999Z</time>
      </trkpt>
      <trkpt lat="44.07817" lon="5.21493">
        <ele>402</ele>
        <time>2019-09-21T09:41:27.999Z</time>
      </trkpt>
      <trkpt lat="44.07808" lon="5.21474">
        <ele>402.03</ele>
        <time>2019-09-21T09:41:29.999Z</time>
      </trkpt>
      <trkpt lat="44.07802" lon="5.21451">
        <ele>401.98</ele>
        <time>2019-09-21T09:41:31.999Z</time>
      </trkpt>
      <trkpt lat="44.07797" lon="5.21433">
        <ele>401.78</ele>
        <time>2019-09-21T09:41:33.999Z</time>
      </trkpt>
      <trkpt lat="44.07791" lon="5.21416">
        <ele>401.47</ele>
        <time>2019-09-21T09:41:35.999Z</time>
      </trkpt>
      <trkpt lat="44.07783" lon="5.21401">
        <ele>401.17</ele>
        <time>2019-09-21T09:41:37.999Z</time>
      </trkpt>
      <trkpt lat="44.07772" lon="5.21388">
        <ele>401.02</ele>
        <time>2019-09-21T09:41:39.999Z</time>
      </trkpt>
      <trkpt lat="44.07761" lon="5.21377">
        <ele>401.11</ele>
        <time>2019-09-21T09:41:41.999Z</time>
      </trkpt>
      <trkpt lat="44.0775" lon="5.21367">
        <ele>401.3</ele>
        <time>2019-09-21T09:41:43.999Z</time>
      </trkpt>
      <trkpt lat="44.07742" lon="5.21354">
        <ele>401.34</ele>
        <time>2019-09-21T09:41:45.999Z</time>
      </trkpt>
      <trkpt lat="44.07732" lon="5.21342">
        <ele>401.26</ele>
        <time>2019-09-21T09:41:47.999Z</time>
      </trkpt>
      <trkpt lat="44.0772" lon="5.21335">
        <ele>401.15</ele>
        <time>2019-09-21T09:41:49.999Z</time>
      </trkpt>
      <trkpt lat="44.0771" lon="5.21331">
        <ele>401.14</ele>
        <time>2019-09-21T09:41:54.999Z</time>
      </trkpt>
      <trkpt lat="44.07701" lon="5.21324">
        <ele>401.09</ele>
        <time>2019-09-21T09:41:59.999Z</time>
      </trkpt>
      <trkpt lat="44.07692" lon="5.21322">
        <ele>400.99</ele>
        <time>2019-09-21T09:42:05.999Z</time>
      </trkpt>
      <trkpt lat="44.07681" lon="5.21321">
        <ele>400.97</ele>
        <time>2019-09-21T09:42:15.999Z</time>
      </trkpt>
      <trkpt lat="44.07672" lon="5.21321">
        <ele>400.99</ele>
        <time>2019-09-21T09:42:20.999Z</time>
      </trkpt>
      <trkpt lat="44.07662" lon="5.21322">
        <ele>401.02</ele>
        <time>2019-09-21T09:42:25.999Z</time>
      </trkpt>
      <trkpt lat="44.07652" lon="5.21324">
        <ele>401.04</ele>
        <time>2019-09-21T09:42:29.999Z</time>
      </trkpt>
      <trkpt lat="44.07643" lon="5.21326">
        <ele>401.05</ele>
        <time>2019-09-21T09:42:33.999Z</time>
      </trkpt>
      <trkpt lat="44.07633" lon="5.21322">
        <ele>401.05</ele>
        <time>2019-09-21T09:42:37.999Z</time>
      </trkpt>
      <trkpt lat="44.07621" lon="5.21318">
        <ele>401.04</ele>
        <time>2019-09-21T09:42:42.999Z</time>
      </trkpt>
      <trkpt lat="44.07612" lon="5.21318">
        <ele>401.02</ele>
        <time>2019-09-21T09:42:46.999Z</time>
      </trkpt>
      <trkpt lat="44.07602" lon="5.21315">
        <ele>401.01</ele>
        <time>2019-09-21T09:42:50.999Z</time>
      </trkpt>
      <trkpt lat="44.07592" lon="5.21313">
        <ele>401</ele>
        <time>2019-09-21T09:42:54.999Z</time>
      </trkpt>
      <trkpt lat="44.07582" lon="5.2131">
        <ele>400.99</ele>
        <time>2019-09-21T09:42:58.999Z</time>
      </trkpt>
      <trkpt lat="44.07574" lon="5.21304">
        <ele>400.98</ele>
        <time>2019-09-21T09:43:01.999Z</time>
      </trkpt>
      <trkpt lat="44.07566" lon="5.21296">
        <ele>400.97</ele>
        <time>2019-09-21T09:43:04.999Z</time>
      </trkpt>
      <trkpt lat="44.07558" lon="5.21287">
        <ele>401.01</ele>
        <time>2019-09-21T09:43:08.999Z</time>
      </trkpt>
      <trkpt lat="44.07548" lon="5.21276">
        <ele>401.09</ele>
        <time>2019-09-21T09:43:12.999Z</time>
      </trkpt>
      <trkpt lat="44.07537" lon="5.21266">
        <ele>401.88</ele>
        <time>2019-09-21T09:43:15.999Z</time>
      </trkpt>
      <trkpt lat="44.07528" lon="5.2126">
        <ele>402.4</ele>
        <time>2019-09-21T09:43:17.999Z</time>
      </trkpt>
      <trkpt lat="44.0752" lon="5.21255">
        <ele>402.78</ele>
        <time>2019-09-21T09:43:19.999Z</time>
      </trkpt>
      <trkpt lat="44.07509" lon="5.21248">
        <ele>403.14</ele>
        <time>2019-09-21T09:43:22.999Z</time>
      </trkpt>
      <trkpt lat="44.07497" lon="5.2124">
        <ele>403.33</ele>
        <time>2019-09-21T09:43:25.999Z</time>
      </trkpt>
      <trkpt lat="44.07489" lon="5.21234">
        <ele>403.41</ele>
        <time>2019-09-21T09:43:27.999Z</time>
      </trkpt>
      <trkpt lat="44.07479" lon="5.21229">
        <ele>403.45</ele>
        <time>2019-09-21T09:43:29.999Z</time>
      </trkpt>
      <trkpt lat="44.07469" lon="5.21222">
        <ele>403.46</ele>
        <time>2019-09-21T09:43:31.999Z</time>
      </trkpt>
      <trkpt lat="44.07458" lon="5.21217">
        <ele>403.49</ele>
        <time>2019-09-21T09:43:33.999Z</time>
      </trkpt>
      <trkpt lat="44.07448" lon="5.21211">
        <ele>403.56</ele>
        <time>2019-09-21T09:43:35.999Z</time>
      </trkpt>
      <trkpt lat="44.07438" lon="5.21206">
        <ele>403.65</ele>
        <time>2019-09-21T09:43:37.999Z</time>
      </trkpt>
      <trkpt lat="44.07429" lon="5.21202">
        <ele>403.75</ele>
        <time>2019-09-21T09:43:39.999Z</time>
      </trkpt>
      <trkpt lat="44.0742" lon="5.21192">
        <ele>403.83</ele>
        <time>2019-09-21T09:43:42.999Z</time>
      </trkpt>
      <trkpt lat="44.07421" lon="5.21177">
        <ele>403.86</ele>
        <time>2019-09-21T09:43:45.999Z</time>
      </trkpt>
      <trkpt lat="44.07423" lon="5.21161">
        <ele>403.88</ele>
        <time>2019-09-21T09:43:49.999Z</time>
      </trkpt>
      <trkpt lat="44.07425" lon="5.21148">
        <ele>403.98</ele>
        <time>2019-09-21T09:43:52.999Z</time>
      </trkpt>
      <trkpt lat="44.07426" lon="5.21133">
        <ele>404.15</ele>
        <time>2019-09-21T09:43:55.999Z</time>
      </trkpt>
      <trkpt lat="44.07428" lon="5.21118">
        <ele>404.28</ele>
        <time>2019-09-21T09:43:58.999Z</time>
      </trkpt>
      <trkpt lat="44.07428" lon="5.21104">
        <ele>404.35</ele>
        <time>2019-09-21T09:44:01.999Z</time>
      </trkpt>
      <trkpt lat="44.07428" lon="5.21087">
        <ele>404.3</ele>
        <time>2019-09-21T09:44:04.999Z</time>
      </trkpt>
      <trkpt lat="44.07426" lon="5.2107">
        <ele>404.2</ele>
        <time>2019-09-21T09:44:07.999Z</time>
      </trkpt>
      <trkpt lat="44.07423" lon="5.21053">
        <ele>404.05</ele>
        <time>2019-09-21T09:44:10.999Z</time>
      </trkpt>
      <trkpt lat="44.0742" lon="5.21039">
        <ele>403.92</ele>
        <time>2019-09-21T09:44:12.999Z</time>
      </trkpt>
      <trkpt lat="44.07417" lon="5.21026">
        <ele>403.75</ele>
        <time>2019-09-21T09:44:14.999Z</time>
      </trkpt>
      <trkpt lat="44.07414" lon="5.21013">
        <ele>403.54</ele>
        <time>2019-09-21T09:44:16.999Z</time>
      </trkpt>
      <trkpt lat="44.0741" lon="5.21">
        <ele>403.31</ele>
        <time>2019-09-21T09:44:18.999Z</time>
      </trkpt>
      <trkpt lat="44.07407" lon="5.20985">
        <ele>403.1</ele>
        <time>2019-09-21T09:44:20.999Z</time>
      </trkpt>
      <trkpt lat="44.07404" lon="5.20969">
        <ele>402.89</ele>
        <time>2019-09-21T09:44:22.999Z</time>
      </trkpt>
      <trkpt lat="44.07402" lon="5.20953">
        <ele>402.68</ele>
        <time>2019-09-21T09:44:24.999Z</time>
      </trkpt>
      <trkpt lat="44.074" lon="5.20937">
        <ele>402.49</ele>
        <time>2019-09-21T09:44:26.999Z</time>
      </trkpt>
      <trkpt lat="44.07399" lon="5.20923">
        <ele>402.32</ele>
        <time>2019-09-21T09:44:28.999Z</time>
      </trkpt>
      <trkpt lat="44.07398" lon="5.20906">
        <ele>402.15</ele>
        <time>2019-09-21T09:44:30.999Z</time>
      </trkpt>
      <trkpt lat="44.07396" lon="5.20889">
        <ele>402.01</ele>
        <time>2019-09-21T09:44:32.999Z</time>
      </trkpt>
      <trkpt lat="44.07396" lon="5.20876">
        <ele>401.87</ele>
        <time>2019-09-21T09:44:34.999Z</time>
      </trkpt>
      <trkpt lat="44.07397" lon="5.20857">
        <ele>401.75</ele>
        <time>2019-09-21T09:44:36.999Z</time>
      </trkpt>
      <trkpt lat="44.07398" lon="5.2084">
        <ele>401.64</ele>
        <time>2019-09-21T09:44:38.999Z</time>
      </trkpt>
      <trkpt lat="44.07398" lon="5.20825">
        <ele>401.56</ele>
        <time>2019-09-21T09:44:40.999Z</time>
      </trkpt>
      <trkpt lat="44.07399" lon="5.20806">
        <ele>401.5</ele>
        <time>2019-09-21T09:44:42.999Z</time>
      </trkpt>
      <trkpt lat="44.074" lon="5.20788">
        <ele>401.48</ele>
        <time>2019-09-21T09:44:44.999Z</time>
      </trkpt>
      <trkpt lat="44.07398" lon="5.2077">
        <ele>401.45</ele>
        <time>2019-09-21T09:44:46.999Z</time>
      </trkpt>
      <trkpt lat="44.07397" lon="5.2075">
        <ele>401.41</ele>
        <time>2019-09-21T09:44:48.999Z</time>
      </trkpt>
      <trkpt lat="44.07398" lon="5.20729">
        <ele>401.37</ele>
        <time>2019-09-21T09:44:50.999Z</time>
      </trkpt>
      <trkpt lat="44.07396" lon="5.20709">
        <ele>401.24</ele>
        <time>2019-09-21T09:44:52.999Z</time>
      </trkpt>
      <trkpt lat="44.07395" lon="5.20688">
        <ele>400.97</ele>
        <time>2019-09-21T09:44:54.999Z</time>
      </trkpt>
      <trkpt lat="44.074" lon="5.20667">
        <ele>400.47</ele>
        <time>2019-09-21T09:44:56.999Z</time>
      </trkpt>
      <trkpt lat="44.07409" lon="5.20645">
        <ele>399.71</ele>
        <time>2019-09-21T09:44:58.999Z</time>
      </trkpt>
      <trkpt lat="44.07412" lon="5.20633">
        <ele>399.18</ele>
        <time>2019-09-21T09:44:59.999Z</time>
      </trkpt>
      <trkpt lat="44.07413" lon="5.20607">
        <ele>398.02</ele>
        <time>2019-09-21T09:45:01.999Z</time>
      </trkpt>
      <trkpt lat="44.07412" lon="5.20593">
        <ele>397.34</ele>
        <time>2019-09-21T09:45:02.999Z</time>
      </trkpt>
      <trkpt lat="44.07411" lon="5.20577">
        <ele>396.64</ele>
        <time>2019-09-21T09:45:03.999Z</time>
      </trkpt>
      <trkpt lat="44.07409" lon="5.20561">
        <ele>395.21</ele>
        <time>2019-09-21T09:45:04.999Z</time>
      </trkpt>
      <trkpt lat="44.07407" lon="5.20544">
        <ele>393.59</ele>
        <time>2019-09-21T09:45:05.999Z</time>
      </trkpt>
      <trkpt lat="44.07405" lon="5.20529">
        <ele>392.2</ele>
        <time>2019-09-21T09:45:06.999Z</time>
      </trkpt>
      <trkpt lat="44.07404" lon="5.20512">
        <ele>390.66</ele>
        <time>2019-09-21T09:45:07.999Z</time>
      </trkpt>
      <trkpt lat="44.07402" lon="5.20496">
        <ele>389.18</ele>
        <time>2019-09-21T09:45:08.999Z</time>
      </trkpt>
      <trkpt lat="44.074" lon="5.20479">
        <ele>387.73</ele>
        <time>2019-09-21T09:45:09.999Z</time>
      </trkpt>
      <trkpt lat="44.07398" lon="5.20463">
        <ele>386.49</ele>
        <time>2019-09-21T09:45:10.999Z</time>
      </trkpt>
      <trkpt lat="44.07396" lon="5.20446">
        <ele>385.12</ele>
        <time>2019-09-21T09:45:11.999Z</time>
      </trkpt>
      <trkpt lat="44.07395" lon="5.2043">
        <ele>383.91</ele>
        <time>2019-09-21T09:45:12.999Z</time>
      </trkpt>
      <trkpt lat="44.07393" lon="5.20414">
        <ele>382.77</ele>
        <time>2019-09-21T09:45:13.999Z</time>
      </trkpt>
      <trkpt lat="44.07392" lon="5.20396">
        <ele>381.82</ele>
        <time>2019-09-21T09:45:14.999Z</time>
      </trkpt>
      <trkpt lat="44.07389" lon="5.20378">
        <ele>380.94</ele>
        <time>2019-09-21T09:45:15.999Z</time>
      </trkpt>
      <trkpt lat="44.07385" lon="5.20361">
        <ele>379.95</ele>
        <time>2019-09-21T09:45:16.999Z</time>
      </trkpt>
      <trkpt lat="44.07381" lon="5.20344">
        <ele>379.06</ele>
        <time>2019-09-21T09:45:17.999Z</time>
      </trkpt>
      <trkpt lat="44.07375" lon="5.20326">
        <ele>378.15</ele>
        <time>2019-09-21T09:45:18.999Z</time>
      </trkpt>
      <trkpt lat="44.07369" lon="5.20308">
        <ele>377.29</ele>
        <time>2019-09-21T09:45:19.999Z</time>
      </trkpt>
      <trkpt lat="44.07362" lon="5.2029">
        <ele>376.51</ele>
        <time>2019-09-21T09:45:20.999Z</time>
      </trkpt>
      <trkpt lat="44.07356" lon="5.20272">
        <ele>375.69</ele>
        <time>2019-09-21T09:45:21.999Z</time>
      </trkpt>
      <trkpt lat="44.0735" lon="5.20254">
        <ele>374.77</ele>
        <time>2019-09-21T09:45:22.999Z</time>
      </trkpt>
      <trkpt lat="44.07343" lon="5.20235">
        <ele>373.88</ele>
        <time>2019-09-21T09:45:23.999Z</time>
      </trkpt>
      <trkpt lat="44.07338" lon="5.20217">
        <ele>372.85</ele>
        <time>2019-09-21T09:45:24.999Z</time>
      </trkpt>
      <trkpt lat="44.07334" lon="5.20197">
        <ele>372.05</ele>
        <time>2019-09-21T09:45:25.999Z</time>
      </trkpt>
      <trkpt lat="44.07332" lon="5.20181">
        <ele>370.88</ele>
        <time>2019-09-21T09:45:26.999Z</time>
      </trkpt>
      <trkpt lat="44.07333" lon="5.20163">
        <ele>369.66</ele>
        <time>2019-09-21T09:45:27.999Z</time>
      </trkpt>
      <trkpt lat="44.07336" lon="5.20146">
        <ele>368.83</ele>
        <time>2019-09-21T09:45:28.999Z</time>
      </trkpt>
      <trkpt lat="44.07341" lon="5.20131">
        <ele>368.24</ele>
        <time>2019-09-21T09:45:29.999Z</time>
      </trkpt>
      <trkpt lat="44.07348" lon="5.20118">
        <ele>367.85</ele>
        <time>2019-09-21T09:45:30.999Z</time>
      </trkpt>
      <trkpt lat="44.07353" lon="5.20107">
        <ele>367.54</ele>
        <time>2019-09-21T09:45:31.999Z</time>
      </trkpt>
      <trkpt lat="44.07352" lon="5.20089">
        <ele>367.1</ele>
        <time>2019-09-21T09:45:33.999Z</time>
      </trkpt>
      <trkpt lat="44.07344" lon="5.20077">
        <ele>366.02</ele>
        <time>2019-09-21T09:45:35.999Z</time>
      </trkpt>
      <trkpt lat="44.07334" lon="5.20071">
        <ele>363.4</ele>
        <time>2019-09-21T09:45:38.999Z</time>
      </trkpt>
      <trkpt lat="44.07325" lon="5.20064">
        <ele>362.7</ele>
        <time>2019-09-21T09:45:41.999Z</time>
      </trkpt>
      <trkpt lat="44.07318" lon="5.20054">
        <ele>362.01</ele>
        <time>2019-09-21T09:45:44.999Z</time>
      </trkpt>
      <trkpt lat="44.07313" lon="5.20042">
        <ele>360.69</ele>
        <time>2019-09-21T09:45:47.999Z</time>
      </trkpt>
      <trkpt lat="44.07308" lon="5.20028">
        <ele>360.06</ele>
        <time>2019-09-21T09:45:50.999Z</time>
      </trkpt>
      <trkpt lat="44.07304" lon="5.20014">
        <ele>359.91</ele>
        <time>2019-09-21T09:45:54.999Z</time>
      </trkpt>
      <trkpt lat="44.07301" lon="5.20001">
        <ele>359.71</ele>
        <time>2019-09-21T09:45:57.999Z</time>
      </trkpt>
      <trkpt lat="44.07297" lon="5.1999">
        <ele>359.36</ele>
        <time>2019-09-21T09:46:00.999Z</time>
      </trkpt>
      <trkpt lat="44.07293" lon="5.19978">
        <ele>358.84</ele>
        <time>2019-09-21T09:46:04.999Z</time>
      </trkpt>
      <trkpt lat="44.07291" lon="5.19964">
        <ele>358.35</ele>
        <time>2019-09-21T09:46:08.999Z</time>
      </trkpt>
      <trkpt lat="44.07289" lon="5.1995">
        <ele>358.03</ele>
        <time>2019-09-21T09:46:11.999Z</time>
      </trkpt>
      <trkpt lat="44.07285" lon="5.19932">
        <ele>355.57</ele>
        <time>2019-09-21T09:46:14.999Z</time>
      </trkpt>
      <trkpt lat="44.07282" lon="5.19918">
        <ele>354.69</ele>
        <time>2019-09-21T09:46:16.999Z</time>
      </trkpt>
      <trkpt lat="44.07281" lon="5.19904">
        <ele>354.06</ele>
        <time>2019-09-21T09:46:18.999Z</time>
      </trkpt>
      <trkpt lat="44.07277" lon="5.1989">
        <ele>353.64</ele>
        <time>2019-09-21T09:46:20.999Z</time>
      </trkpt>
      <trkpt lat="44.07274" lon="5.19876">
        <ele>353.31</ele>
        <time>2019-09-21T09:46:22.999Z</time>
      </trkpt>
      <trkpt lat="44.07271" lon="5.19859">
        <ele>353.04</ele>
        <time>2019-09-21T09:46:24.999Z</time>
      </trkpt>
      <trkpt lat="44.07267" lon="5.19839">
        <ele>352.83</ele>
        <time>2019-09-21T09:46:26.999Z</time>
      </trkpt>
      <trkpt lat="44.07263" lon="5.19819">
        <ele>352.59</ele>
        <time>2019-09-21T09:46:28.999Z</time>
      </trkpt>
      <trkpt lat="44.07259" lon="5.19799">
        <ele>352.17</ele>
        <time>2019-09-21T09:46:30.999Z</time>
      </trkpt>
      <trkpt lat="44.07256" lon="5.19777">
        <ele>351.54</ele>
        <time>2019-09-21T09:46:32.999Z</time>
      </trkpt>
      <trkpt lat="44.07253" lon="5.19755">
        <ele>350.77</ele>
        <time>2019-09-21T09:46:34.999Z</time>
      </trkpt>
      <trkpt lat="44.07253" lon="5.19732">
        <ele>350.03</ele>
        <time>2019-09-21T09:46:36.999Z</time>
      </trkpt>
      <trkpt lat="44.07252" lon="5.19709">
        <ele>349.5</ele>
        <time>2019-09-21T09:46:38.999Z</time>
      </trkpt>
      <trkpt lat="44.0725" lon="5.19686">
        <ele>348.96</ele>
        <time>2019-09-21T09:46:40.999Z</time>
      </trkpt>
      <trkpt lat="44.07247" lon="5.19663">
        <ele>347.99</ele>
        <time>2019-09-21T09:46:42.999Z</time>
      </trkpt>
      <trkpt lat="44.07242" lon="5.19641">
        <ele>347.05</ele>
        <time>2019-09-21T09:46:44.999Z</time>
      </trkpt>
      <trkpt lat="44.07234" lon="5.19622">
        <ele>346.37</ele>
        <time>2019-09-21T09:46:46.999Z</time>
      </trkpt>
      <trkpt lat="44.07225" lon="5.19604">
        <ele>345.58</ele>
        <time>2019-09-21T09:46:48.999Z</time>
      </trkpt>
      <trkpt lat="44.07217" lon="5.19586">
        <ele>344.66</ele>
        <time>2019-09-21T09:46:50.999Z</time>
      </trkpt>
      <trkpt lat="44.07209" lon="5.1957">
        <ele>343.8</ele>
        <time>2019-09-21T09:46:52.999Z</time>
      </trkpt>
      <trkpt lat="44.07201" lon="5.19554">
        <ele>342.85</ele>
        <time>2019-09-21T09:46:54.999Z</time>
      </trkpt>
      <trkpt lat="44.07194" lon="5.1954">
        <ele>341.79</ele>
        <time>2019-09-21T09:46:56.999Z</time>
      </trkpt>
      <trkpt lat="44.07186" lon="5.19526">
        <ele>340.32</ele>
        <time>2019-09-21T09:46:58.999Z</time>
      </trkpt>
      <trkpt lat="44.07179" lon="5.19513">
        <ele>338.85</ele>
        <time>2019-09-21T09:47:00.999Z</time>
      </trkpt>
      <trkpt lat="44.07174" lon="5.19502">
        <ele>337.49</ele>
        <time>2019-09-21T09:47:02.999Z</time>
      </trkpt>
      <trkpt lat="44.07167" lon="5.19489">
        <ele>336.31</ele>
        <time>2019-09-21T09:47:04.999Z</time>
      </trkpt>
      <trkpt lat="44.07162" lon="5.19473">
        <ele>335.39</ele>
        <time>2019-09-21T09:47:06.999Z</time>
      </trkpt>
      <trkpt lat="44.07155" lon="5.19454">
        <ele>334.56</ele>
        <time>2019-09-21T09:47:08.999Z</time>
      </trkpt>
      <trkpt lat="44.07148" lon="5.19437">
        <ele>333.69</ele>
        <time>2019-09-21T09:47:10.999Z</time>
      </trkpt>
      <trkpt lat="44.07139" lon="5.19421">
        <ele>333.06</ele>
        <time>2019-09-21T09:47:12.999Z</time>
      </trkpt>
      <trkpt lat="44.0713" lon="5.19404">
        <ele>332.35</ele>
        <time>2019-09-21T09:47:14.999Z</time>
      </trkpt>
      <trkpt lat="44.07121" lon="5.19386">
        <ele>331.75</ele>
        <time>2019-09-21T09:47:16.999Z</time>
      </trkpt>
      <trkpt lat="44.07113" lon="5.19368">
        <ele>331.31</ele>
        <time>2019-09-21T09:47:18.999Z</time>
      </trkpt>
      <trkpt lat="44.07104" lon="5.19348">
        <ele>330.8</ele>
        <time>2019-09-21T09:47:20.999Z</time>
      </trkpt>
      <trkpt lat="44.07097" lon="5.19329">
        <ele>330.35</ele>
        <time>2019-09-21T09:47:22.999Z</time>
      </trkpt>
      <trkpt lat="44.07091" lon="5.19309">
        <ele>330.11</ele>
        <time>2019-09-21T09:47:24.999Z</time>
      </trkpt>
      <trkpt lat="44.07086" lon="5.19292">
        <ele>329.83</ele>
        <time>2019-09-21T09:47:26.999Z</time>
      </trkpt>
      <trkpt lat="44.07079" lon="5.19278">
        <ele>329.49</ele>
        <time>2019-09-21T09:47:28.999Z</time>
      </trkpt>
      <trkpt lat="44.07074" lon="5.19262">
        <ele>329.44</ele>
        <time>2019-09-21T09:47:30.999Z</time>
      </trkpt>
      <trkpt lat="44.07067" lon="5.19245">
        <ele>329.59</ele>
        <time>2019-09-21T09:47:32.999Z</time>
      </trkpt>
      <trkpt lat="44.07064" lon="5.19226">
        <ele>329.68</ele>
        <time>2019-09-21T09:47:34.999Z</time>
      </trkpt>
      <trkpt lat="44.07061" lon="5.19211">
        <ele>329.49</ele>
        <time>2019-09-21T09:47:36.999Z</time>
      </trkpt>
      <trkpt lat="44.0706" lon="5.19196">
        <ele>329.12</ele>
        <time>2019-09-21T09:47:38.999Z</time>
      </trkpt>
      <trkpt lat="44.07057" lon="5.19183">
        <ele>328.52</ele>
        <time>2019-09-21T09:47:40.999Z</time>
      </trkpt>
      <trkpt lat="44.07054" lon="5.19169">
        <ele>327.8</ele>
        <time>2019-09-21T09:47:42.999Z</time>
      </trkpt>
      <trkpt lat="44.07049" lon="5.19156">
        <ele>327.42</ele>
        <time>2019-09-21T09:47:44.999Z</time>
      </trkpt>
      <trkpt lat="44.07043" lon="5.19143">
        <ele>326.94</ele>
        <time>2019-09-21T09:47:46.999Z</time>
      </trkpt>
      <trkpt lat="44.07039" lon="5.1913">
        <ele>325.94</ele>
        <time>2019-09-21T09:47:48.999Z</time>
      </trkpt>
      <trkpt lat="44.07034" lon="5.19115">
        <ele>324.85</ele>
        <time>2019-09-21T09:47:50.999Z</time>
      </trkpt>
      <trkpt lat="44.0703" lon="5.19101">
        <ele>323.59</ele>
        <time>2019-09-21T09:47:52.999Z</time>
      </trkpt>
      <trkpt lat="44.07026" lon="5.19085">
        <ele>322.61</ele>
        <time>2019-09-21T09:47:54.999Z</time>
      </trkpt>
      <trkpt lat="44.07023" lon="5.1907">
        <ele>321.73</ele>
        <time>2019-09-21T09:47:56.999Z</time>
      </trkpt>
      <trkpt lat="44.07021" lon="5.19055">
        <ele>321.15</ele>
        <time>2019-09-21T09:47:58.999Z</time>
      </trkpt>
      <trkpt lat="44.07018" lon="5.19041">
        <ele>320.66</ele>
        <time>2019-09-21T09:48:00.999Z</time>
      </trkpt>
      <trkpt lat="44.07015" lon="5.19025">
        <ele>320.32</ele>
        <time>2019-09-21T09:48:02.999Z</time>
      </trkpt>
      <trkpt lat="44.07012" lon="5.19007">
        <ele>320.28</ele>
        <time>2019-09-21T09:48:04.999Z</time>
      </trkpt>
      <trkpt lat="44.07011" lon="5.18992">
        <ele>319.89</ele>
        <time>2019-09-21T09:48:06.999Z</time>
      </trkpt>
      <trkpt lat="44.07011" lon="5.18973">
        <ele>319.49</ele>
        <time>2019-09-21T09:48:08.999Z</time>
      </trkpt>
      <trkpt lat="44.07011" lon="5.18956">
        <ele>318.31</ele>
        <time>2019-09-21T09:48:10.999Z</time>
      </trkpt>
      <trkpt lat="44.07012" lon="5.18937">
        <ele>317.06</ele>
        <time>2019-09-21T09:48:12.999Z</time>
      </trkpt>
      <trkpt lat="44.07012" lon="5.18922">
        <ele>316.02</ele>
        <time>2019-09-21T09:48:14.999Z</time>
      </trkpt>
      <trkpt lat="44.07011" lon="5.18909">
        <ele>315.03</ele>
        <time>2019-09-21T09:48:16.999Z</time>
      </trkpt>
      <trkpt lat="44.07013" lon="5.18894">
        <ele>313.49</ele>
        <time>2019-09-21T09:48:18.999Z</time>
      </trkpt>
      <trkpt lat="44.07013" lon="5.18875">
        <ele>311.64</ele>
        <time>2019-09-21T09:48:20.999Z</time>
      </trkpt>
      <trkpt lat="44.07011" lon="5.18855">
        <ele>309.7</ele>
        <time>2019-09-21T09:48:22.999Z</time>
      </trkpt>
      <trkpt lat="44.07009" lon="5.18831">
        <ele>308.04</ele>
        <time>2019-09-21T09:48:24.999Z</time>
      </trkpt>
      <trkpt lat="44.07002" lon="5.18809">
        <ele>306.59</ele>
        <time>2019-09-21T09:48:26.999Z</time>
      </trkpt>
      <trkpt lat="44.06997" lon="5.18792">
        <ele>305.11</ele>
        <time>2019-09-21T09:48:28.999Z</time>
      </trkpt>
      <trkpt lat="44.06993" lon="5.18776">
        <ele>304.05</ele>
        <time>2019-09-21T09:48:30.999Z</time>
      </trkpt>
      <trkpt lat="44.06992" lon="5.18763">
        <ele>303.59</ele>
        <time>2019-09-21T09:48:32.999Z</time>
      </trkpt>
      <trkpt lat="44.06988" lon="5.18751">
        <ele>303.29</ele>
        <time>2019-09-21T09:48:36.999Z</time>
      </trkpt>
      <trkpt lat="44.06981" lon="5.18742">
        <ele>303.13</ele>
        <time>2019-09-21T09:48:39.999Z</time>
      </trkpt>
      <trkpt lat="44.06978" lon="5.18724">
        <ele>302.05</ele>
        <time>2019-09-21T09:48:42.999Z</time>
      </trkpt>
      <trkpt lat="44.06975" lon="5.1871">
        <ele>300.94</ele>
        <time>2019-09-21T09:48:44.999Z</time>
      </trkpt>
      <trkpt lat="44.06971" lon="5.18696">
        <ele>300.28</ele>
        <time>2019-09-21T09:48:46.999Z</time>
      </trkpt>
      <trkpt lat="44.06967" lon="5.18681">
        <ele>299.74</ele>
        <time>2019-09-21T09:48:48.999Z</time>
      </trkpt>
      <trkpt lat="44.06964" lon="5.18668">
        <ele>298.86</ele>
        <time>2019-09-21T09:48:50.999Z</time>
      </trkpt>
      <trkpt lat="44.0696" lon="5.18656">
        <ele>298.32</ele>
        <time>2019-09-21T09:48:52.999Z</time>
      </trkpt>
      <trkpt lat="44.06955" lon="5.1864">
        <ele>298.18</ele>
        <time>2019-09-21T09:48:55.999Z</time>
      </trkpt>
      <trkpt lat="44.0695" lon="5.18626">
        <ele>298.39</ele>
        <time>2019-09-21T09:48:58.999Z</time>
      </trkpt>
      <trkpt lat="44.06946" lon="5.18611">
        <ele>298.57</ele>
        <time>2019-09-21T09:49:02.999Z</time>
      </trkpt>
      <trkpt lat="44.06943" lon="5.18596">
        <ele>298.7</ele>
        <time>2019-09-21T09:49:06.999Z</time>
      </trkpt>
      <trkpt lat="44.0694" lon="5.18583">
        <ele>298.81</ele>
        <time>2019-09-21T09:49:09.999Z</time>
      </trkpt>
      <trkpt lat="44.06936" lon="5.18569">
        <ele>298.97</ele>
        <time>2019-09-21T09:49:12.999Z</time>
      </trkpt>
      <trkpt lat="44.06936" lon="5.18554">
        <ele>299.12</ele>
        <time>2019-09-21T09:49:15.999Z</time>
      </trkpt>
      <trkpt lat="44.06936" lon="5.1854">
        <ele>299.29</ele>
        <time>2019-09-21T09:49:18.999Z</time>
      </trkpt>
      <trkpt lat="44.06933" lon="5.18525">
        <ele>299.5</ele>
        <time>2019-09-21T09:49:22.999Z</time>
      </trkpt>
      <trkpt lat="44.0693" lon="5.1851">
        <ele>299.72</ele>
        <time>2019-09-21T09:49:26.999Z</time>
      </trkpt>
      <trkpt lat="44.0693" lon="5.18497">
        <ele>300.89</ele>
        <time>2019-09-21T09:49:28.999Z</time>
      </trkpt>
      <trkpt lat="44.0693" lon="5.18479">
        <ele>302.01</ele>
        <time>2019-09-21T09:49:31.999Z</time>
      </trkpt>
      <trkpt lat="44.0693" lon="5.18466">
        <ele>302.51</ele>
        <time>2019-09-21T09:49:33.999Z</time>
      </trkpt>
      <trkpt lat="44.06929" lon="5.18453">
        <ele>302.85</ele>
        <time>2019-09-21T09:49:35.999Z</time>
      </trkpt>
      <trkpt lat="44.06927" lon="5.18439">
        <ele>303.13</ele>
        <time>2019-09-21T09:49:37.999Z</time>
      </trkpt>
      <trkpt lat="44.06923" lon="5.18426">
        <ele>303.4</ele>
        <time>2019-09-21T09:49:39.999Z</time>
      </trkpt>
      <trkpt lat="44.06918" lon="5.18415">
        <ele>303.65</ele>
        <time>2019-09-21T09:49:41.999Z</time>
      </trkpt>
      <trkpt lat="44.06913" lon="5.18402">
        <ele>303.84</ele>
        <time>2019-09-21T09:49:43.999Z</time>
      </trkpt>
      <trkpt lat="44.06906" lon="5.18391">
        <ele>303.99</ele>
        <time>2019-09-21T09:49:45.999Z</time>
      </trkpt>
      <trkpt lat="44.069" lon="5.18381">
        <ele>304.12</ele>
        <time>2019-09-21T09:49:47.999Z</time>
      </trkpt>
      <trkpt lat="44.06895" lon="5.18369">
        <ele>304.2</ele>
        <time>2019-09-21T09:49:49.999Z</time>
      </trkpt>
      <trkpt lat="44.06889" lon="5.18357">
        <ele>304.3</ele>
        <time>2019-09-21T09:49:51.999Z</time>
      </trkpt>
      <trkpt lat="44.06885" lon="5.18343">
        <ele>304.5</ele>
        <time>2019-09-21T09:49:53.999Z</time>
      </trkpt>
      <trkpt lat="44.06881" lon="5.18329">
        <ele>304.57</ele>
        <time>2019-09-21T09:49:56.999Z</time>
      </trkpt>
      <trkpt lat="44.06877" lon="5.18318">
        <ele>304.72</ele>
        <time>2019-09-21T09:50:00.999Z</time>
      </trkpt>
      <trkpt lat="44.06869" lon="5.18308">
        <ele>305.08</ele>
        <time>2019-09-21T09:50:24.999Z</time>
      </trkpt>
      <trkpt lat="44.0686" lon="5.18301">
        <ele>305.15</ele>
        <time>2019-09-21T09:50:30.999Z</time>
      </trkpt>
      <trkpt lat="44.06851" lon="5.18302">
        <ele>305.19</ele>
        <time>2019-09-21T09:50:35.999Z</time>
      </trkpt>
      <trkpt lat="44.06841" lon="5.18304">
        <ele>305.23</ele>
        <time>2019-09-21T09:50:39.999Z</time>
      </trkpt>
      <trkpt lat="44.06832" lon="5.18301">
        <ele>305.3</ele>
        <time>2019-09-21T09:50:47.999Z</time>
      </trkpt>
      <trkpt lat="44.06823" lon="5.18299">
        <ele>305.33</ele>
        <time>2019-09-21T09:50:51.999Z</time>
      </trkpt>
      <trkpt lat="44.06812" lon="5.18295">
        <ele>305.37</ele>
        <time>2019-09-21T09:50:55.999Z</time>
      </trkpt>
      <trkpt lat="44.06802" lon="5.18292">
        <ele>305.4</ele>
        <time>2019-09-21T09:51:00.999Z</time>
      </trkpt>
      <trkpt lat="44.06793" lon="5.1829">
        <ele>305.42</ele>
        <time>2019-09-21T09:51:04.999Z</time>
      </trkpt>
      <trkpt lat="44.06781" lon="5.18288">
        <ele>305.45</ele>
        <time>2019-09-21T09:51:09.999Z</time>
      </trkpt>
      <trkpt lat="44.0677" lon="5.18286">
        <ele>305.46</ele>
        <time>2019-09-21T09:51:13.999Z</time>
      </trkpt>
      <trkpt lat="44.0676" lon="5.18285">
        <ele>305.47</ele>
        <time>2019-09-21T09:51:17.999Z</time>
      </trkpt>
      <trkpt lat="44.06749" lon="5.18286">
        <ele>305.52</ele>
        <time>2019-09-21T09:51:20.999Z</time>
      </trkpt>
      <trkpt lat="44.06739" lon="5.18288">
        <ele>305.52</ele>
        <time>2019-09-21T09:51:23.999Z</time>
      </trkpt>
      <trkpt lat="44.06728" lon="5.1829">
        <ele>305.54</ele>
        <time>2019-09-21T09:51:26.999Z</time>
      </trkpt>
      <trkpt lat="44.06715" lon="5.18291">
        <ele>305.55</ele>
        <time>2019-09-21T09:51:29.999Z</time>
      </trkpt>
      <trkpt lat="44.06706" lon="5.18291">
        <ele>305.6</ele>
        <time>2019-09-21T09:51:31.999Z</time>
      </trkpt>
      <trkpt lat="44.06694" lon="5.18291">
        <ele>305.64</ele>
        <time>2019-09-21T09:51:34.999Z</time>
      </trkpt>
      <trkpt lat="44.06683" lon="5.18291">
        <ele>305.64</ele>
        <time>2019-09-21T09:51:37.999Z</time>
      </trkpt>
      <trkpt lat="44.0667" lon="5.18293">
        <ele>305.73</ele>
        <time>2019-09-21T09:51:40.999Z</time>
      </trkpt>
      <trkpt lat="44.06656" lon="5.18293">
        <ele>305.82</ele>
        <time>2019-09-21T09:51:43.999Z</time>
      </trkpt>
      <trkpt lat="44.06645" lon="5.18292">
        <ele>305.87</ele>
        <time>2019-09-21T09:51:45.999Z</time>
      </trkpt>
      <trkpt lat="44.06635" lon="5.1829">
        <ele>305.93</ele>
        <time>2019-09-21T09:51:47.999Z</time>
      </trkpt>
      <trkpt lat="44.06625" lon="5.18289">
        <ele>305.98</ele>
        <time>2019-09-21T09:51:49.999Z</time>
      </trkpt>
      <trkpt lat="44.06614" lon="5.18288">
        <ele>306.03</ele>
        <time>2019-09-21T09:51:51.999Z</time>
      </trkpt>
      <trkpt lat="44.06604" lon="5.18287">
        <ele>306.09</ele>
        <time>2019-09-21T09:51:53.999Z</time>
      </trkpt>
      <trkpt lat="44.06594" lon="5.18285">
        <ele>306.12</ele>
        <time>2019-09-21T09:51:55.999Z</time>
      </trkpt>
      <trkpt lat="44.06584" lon="5.18283">
        <ele>306.14</ele>
        <time>2019-09-21T09:51:57.999Z</time>
      </trkpt>
      <trkpt lat="44.06574" lon="5.18285">
        <ele>306.16</ele>
        <time>2019-09-21T09:51:59.999Z</time>
      </trkpt>
      <trkpt lat="44.06562" lon="5.18285">
        <ele>306.19</ele>
        <time>2019-09-21T09:52:01.999Z</time>
      </trkpt>
      <trkpt lat="44.0655" lon="5.18284">
        <ele>306.22</ele>
        <time>2019-09-21T09:52:03.999Z</time>
      </trkpt>
      <trkpt lat="44.06537" lon="5.18283">
        <ele>306.23</ele>
        <time>2019-09-21T09:52:05.999Z</time>
      </trkpt>
      <trkpt lat="44.06525" lon="5.18281">
        <ele>306.2</ele>
        <time>2019-09-21T09:52:07.999Z</time>
      </trkpt>
      <trkpt lat="44.06512" lon="5.18278">
        <ele>306.16</ele>
        <time>2019-09-21T09:52:09.999Z</time>
      </trkpt>
      <trkpt lat="44.065" lon="5.18276">
        <ele>306.13</ele>
        <time>2019-09-21T09:52:11.999Z</time>
      </trkpt>
      <trkpt lat="44.06488" lon="5.18275">
        <ele>306.12</ele>
        <time>2019-09-21T09:52:13.999Z</time>
      </trkpt>
      <trkpt lat="44.06474" lon="5.18274">
        <ele>306.1</ele>
        <time>2019-09-21T09:52:15.999Z</time>
      </trkpt>
      <trkpt lat="44.06459" lon="5.18273">
        <ele>306.05</ele>
        <time>2019-09-21T09:52:17.999Z</time>
      </trkpt>
      <trkpt lat="44.06443" lon="5.18271">
        <ele>305.98</ele>
        <time>2019-09-21T09:52:19.999Z</time>
      </trkpt>
      <trkpt lat="44.06428" lon="5.1827">
        <ele>305.86</ele>
        <time>2019-09-21T09:52:21.999Z</time>
      </trkpt>
      <trkpt lat="44.06414" lon="5.18269">
        <ele>305.66</ele>
        <time>2019-09-21T09:52:23.999Z</time>
      </trkpt>
      <trkpt lat="44.06399" lon="5.18267">
        <ele>305.45</ele>
        <time>2019-09-21T09:52:25.999Z</time>
      </trkpt>
      <trkpt lat="44.06385" lon="5.18266">
        <ele>305.22</ele>
        <time>2019-09-21T09:52:27.999Z</time>
      </trkpt>
      <trkpt lat="44.06372" lon="5.18265">
        <ele>305</ele>
        <time>2019-09-21T09:52:29.999Z</time>
      </trkpt>
      <trkpt lat="44.06362" lon="5.18265">
        <ele>304.78</ele>
        <time>2019-09-21T09:52:31.999Z</time>
      </trkpt>
      <trkpt lat="44.06358" lon="5.18279">
        <ele>304.76</ele>
        <time>2019-09-21T09:52:36.999Z</time>
      </trkpt>
      <trkpt lat="44.06365" lon="5.1829">
        <ele>304.73</ele>
        <time>2019-09-21T09:52:39.999Z</time>
      </trkpt>
      <trkpt lat="44.06376" lon="5.18298">
        <ele>304.63</ele>
        <time>2019-09-21T09:52:55.999Z</time>
      </trkpt>
    </trkseg>
  </trk>
</gpx>